<?xml version="1.0" encoding="UTF-8" standalone="no" ?>
<gpx xmlns="http://www.topografix.com/GPX/1/1" xmlns:xsi="http://www.w3.org/2001/XMLSchema-instance" xsi:schemaLocation="http://www.topografix.com/GPX/1/1 http://www.topografix.com/GPX/1/1/gpx.xsd" version="1.1" creator="VisuGPX - https://www.visugpx.com">
  <metadata>
    <name>Plainoiseau - Quintigny - L'Etoile</name>
    <desc><![CDATA[Randonnée pédestre effectuée le 22 octobre 2020]]></desc>
  </metadata>
  <trk>
    <name><![CDATA[22 oct. 2020 à 09:15:17]]></name>
    <trkseg>
      <trkpt lat="46.73082" lon="5.55487">
        <ele>298</ele>
        <time>2020-10-22T07:15:17Z</time>
      </trkpt>
      <trkpt lat="46.73083" lon="5.55481">
        <ele>298</ele>
        <time>2020-10-22T07:15:22Z</time>
      </trkpt>
      <trkpt lat="46.73083" lon="5.55463">
        <ele>299</ele>
        <time>2020-10-22T07:15:32Z</time>
      </trkpt>
      <trkpt lat="46.73082" lon="5.55456">
        <ele>299</ele>
        <time>2020-10-22T07:15:34Z</time>
      </trkpt>
      <trkpt lat="46.73086" lon="5.55453">
        <ele>299</ele>
        <time>2020-10-22T07:15:41Z</time>
      </trkpt>
      <trkpt lat="46.73089" lon="5.55446">
        <ele>299</ele>
        <time>2020-10-22T07:16:00Z</time>
      </trkpt>
      <trkpt lat="46.73092" lon="5.5544">
        <ele>300</ele>
        <time>2020-10-22T07:16:05Z</time>
      </trkpt>
      <trkpt lat="46.73092" lon="5.55424">
        <ele>300</ele>
        <time>2020-10-22T07:16:14Z</time>
      </trkpt>
      <trkpt lat="46.73091" lon="5.55418">
        <ele>300</ele>
        <time>2020-10-22T07:16:25Z</time>
      </trkpt>
      <trkpt lat="46.73099" lon="5.55422">
        <ele>300</ele>
        <time>2020-10-22T07:16:52Z</time>
      </trkpt>
      <trkpt lat="46.73105" lon="5.55423">
        <ele>300</ele>
        <time>2020-10-22T07:16:57Z</time>
      </trkpt>
      <trkpt lat="46.7311" lon="5.55422">
        <ele>300</ele>
        <time>2020-10-22T07:17:01Z</time>
      </trkpt>
      <trkpt lat="46.73117" lon="5.55425">
        <ele>300</ele>
        <time>2020-10-22T07:17:06Z</time>
      </trkpt>
      <trkpt lat="46.73123" lon="5.55428">
        <ele>301</ele>
        <time>2020-10-22T07:17:11Z</time>
      </trkpt>
      <trkpt lat="46.73156" lon="5.55429">
        <ele>301</ele>
        <time>2020-10-22T07:17:41Z</time>
      </trkpt>
      <trkpt lat="46.73164" lon="5.55413">
        <ele>302</ele>
        <time>2020-10-22T07:17:53Z</time>
      </trkpt>
      <trkpt lat="46.73164" lon="5.55404">
        <ele>302</ele>
        <time>2020-10-22T07:17:58Z</time>
      </trkpt>
      <trkpt lat="46.73168" lon="5.55386">
        <ele>301</ele>
        <time>2020-10-22T07:18:07Z</time>
      </trkpt>
      <trkpt lat="46.73172" lon="5.55352">
        <ele>300</ele>
        <time>2020-10-22T07:18:28Z</time>
      </trkpt>
      <trkpt lat="46.73166" lon="5.55319">
        <ele>299</ele>
        <time>2020-10-22T07:18:49Z</time>
      </trkpt>
      <trkpt lat="46.73155" lon="5.55299">
        <ele>297</ele>
        <time>2020-10-22T07:19:11Z</time>
      </trkpt>
      <trkpt lat="46.73145" lon="5.55295">
        <ele>296</ele>
        <time>2020-10-22T07:19:23Z</time>
      </trkpt>
      <trkpt lat="46.73138" lon="5.55298">
        <ele>295</ele>
        <time>2020-10-22T07:19:31Z</time>
      </trkpt>
      <trkpt lat="46.73132" lon="5.55299">
        <ele>295</ele>
        <time>2020-10-22T07:19:39Z</time>
      </trkpt>
      <trkpt lat="46.73127" lon="5.55304">
        <ele>296</ele>
        <time>2020-10-22T07:19:46Z</time>
      </trkpt>
      <trkpt lat="46.73103" lon="5.5531">
        <ele>298</ele>
        <time>2020-10-22T07:20:10Z</time>
      </trkpt>
      <trkpt lat="46.7311" lon="5.55301">
        <ele>297</ele>
        <time>2020-10-22T07:20:58Z</time>
      </trkpt>
      <trkpt lat="46.73116" lon="5.55302">
        <ele>297</ele>
        <time>2020-10-22T07:21:04Z</time>
      </trkpt>
      <trkpt lat="46.73136" lon="5.55288">
        <ele>296</ele>
        <time>2020-10-22T07:21:23Z</time>
      </trkpt>
      <trkpt lat="46.7314" lon="5.55283">
        <ele>295</ele>
        <time>2020-10-22T07:21:28Z</time>
      </trkpt>
      <trkpt lat="46.73142" lon="5.55267">
        <ele>294</ele>
        <time>2020-10-22T07:21:36Z</time>
      </trkpt>
      <trkpt lat="46.73141" lon="5.55231">
        <ele>292</ele>
        <time>2020-10-22T07:21:57Z</time>
      </trkpt>
      <trkpt lat="46.73145" lon="5.55197">
        <ele>291</ele>
        <time>2020-10-22T07:22:20Z</time>
      </trkpt>
      <trkpt lat="46.73165" lon="5.55153">
        <ele>288</ele>
        <time>2020-10-22T07:22:52Z</time>
      </trkpt>
      <trkpt lat="46.73166" lon="5.55145">
        <ele>287</ele>
        <time>2020-10-22T07:22:57Z</time>
      </trkpt>
      <trkpt lat="46.73183" lon="5.55098">
        <ele>286</ele>
        <time>2020-10-22T07:23:30Z</time>
      </trkpt>
      <trkpt lat="46.73189" lon="5.55078">
        <ele>285</ele>
        <time>2020-10-22T07:23:46Z</time>
      </trkpt>
      <trkpt lat="46.73193" lon="5.55074">
        <ele>285</ele>
        <time>2020-10-22T07:23:50Z</time>
      </trkpt>
      <trkpt lat="46.73215" lon="5.55026">
        <ele>285</ele>
        <time>2020-10-22T07:24:23Z</time>
      </trkpt>
      <trkpt lat="46.7322" lon="5.55013">
        <ele>284</ele>
        <time>2020-10-22T07:24:31Z</time>
      </trkpt>
      <trkpt lat="46.73233" lon="5.54992">
        <ele>284</ele>
        <time>2020-10-22T07:24:47Z</time>
      </trkpt>
      <trkpt lat="46.73236" lon="5.54974">
        <ele>284</ele>
        <time>2020-10-22T07:24:56Z</time>
      </trkpt>
      <trkpt lat="46.7324" lon="5.54958">
        <ele>284</ele>
        <time>2020-10-22T07:25:06Z</time>
      </trkpt>
      <trkpt lat="46.73248" lon="5.54946">
        <ele>283</ele>
        <time>2020-10-22T07:25:15Z</time>
      </trkpt>
      <trkpt lat="46.73256" lon="5.5493">
        <ele>283</ele>
        <time>2020-10-22T07:25:27Z</time>
      </trkpt>
      <trkpt lat="46.73263" lon="5.54923">
        <ele>282</ele>
        <time>2020-10-22T07:25:37Z</time>
      </trkpt>
      <trkpt lat="46.73267" lon="5.54917">
        <ele>282</ele>
        <time>2020-10-22T07:25:41Z</time>
      </trkpt>
      <trkpt lat="46.7327" lon="5.5491">
        <ele>282</ele>
        <time>2020-10-22T07:25:46Z</time>
      </trkpt>
      <trkpt lat="46.73275" lon="5.54904">
        <ele>281</ele>
        <time>2020-10-22T07:25:50Z</time>
      </trkpt>
      <trkpt lat="46.73277" lon="5.54897">
        <ele>281</ele>
        <time>2020-10-22T07:25:56Z</time>
      </trkpt>
      <trkpt lat="46.73284" lon="5.54851">
        <ele>281</ele>
        <time>2020-10-22T07:26:26Z</time>
      </trkpt>
      <trkpt lat="46.73301" lon="5.54813">
        <ele>281</ele>
        <time>2020-10-22T07:26:54Z</time>
      </trkpt>
      <trkpt lat="46.73301" lon="5.54805">
        <ele>282</ele>
        <time>2020-10-22T07:27:00Z</time>
      </trkpt>
      <trkpt lat="46.73302" lon="5.54785">
        <ele>282</ele>
        <time>2020-10-22T07:27:14Z</time>
      </trkpt>
      <trkpt lat="46.73301" lon="5.54777">
        <ele>282</ele>
        <time>2020-10-22T07:27:19Z</time>
      </trkpt>
      <trkpt lat="46.73296" lon="5.5477">
        <ele>282</ele>
        <time>2020-10-22T07:27:23Z</time>
      </trkpt>
      <trkpt lat="46.73294" lon="5.54762">
        <ele>283</ele>
        <time>2020-10-22T07:27:28Z</time>
      </trkpt>
      <trkpt lat="46.73292" lon="5.54755">
        <ele>283</ele>
        <time>2020-10-22T07:27:34Z</time>
      </trkpt>
      <trkpt lat="46.73288" lon="5.54749">
        <ele>284</ele>
        <time>2020-10-22T07:27:39Z</time>
      </trkpt>
      <trkpt lat="46.73283" lon="5.54738">
        <ele>285</ele>
        <time>2020-10-22T07:27:48Z</time>
      </trkpt>
      <trkpt lat="46.73275" lon="5.54729">
        <ele>286</ele>
        <time>2020-10-22T07:27:57Z</time>
      </trkpt>
      <trkpt lat="46.73269" lon="5.54715">
        <ele>287</ele>
        <time>2020-10-22T07:28:08Z</time>
      </trkpt>
      <trkpt lat="46.73242" lon="5.54701">
        <ele>291</ele>
        <time>2020-10-22T07:28:40Z</time>
      </trkpt>
      <trkpt lat="46.73234" lon="5.547">
        <ele>292</ele>
        <time>2020-10-22T07:28:47Z</time>
      </trkpt>
      <trkpt lat="46.73225" lon="5.54693">
        <ele>293</ele>
        <time>2020-10-22T07:29:01Z</time>
      </trkpt>
      <trkpt lat="46.73217" lon="5.54689">
        <ele>295</ele>
        <time>2020-10-22T07:29:14Z</time>
      </trkpt>
      <trkpt lat="46.73186" lon="5.54673">
        <ele>299</ele>
        <time>2020-10-22T07:29:44Z</time>
      </trkpt>
      <trkpt lat="46.73154" lon="5.5466">
        <ele>303</ele>
        <time>2020-10-22T07:30:17Z</time>
      </trkpt>
      <trkpt lat="46.73147" lon="5.54661">
        <ele>304</ele>
        <time>2020-10-22T07:30:23Z</time>
      </trkpt>
      <trkpt lat="46.73142" lon="5.54656">
        <ele>304</ele>
        <time>2020-10-22T07:30:28Z</time>
      </trkpt>
      <trkpt lat="46.73132" lon="5.54641">
        <ele>306</ele>
        <time>2020-10-22T07:30:43Z</time>
      </trkpt>
      <trkpt lat="46.73124" lon="5.54637">
        <ele>308</ele>
        <time>2020-10-22T07:30:51Z</time>
      </trkpt>
      <trkpt lat="46.73117" lon="5.5463">
        <ele>309</ele>
        <time>2020-10-22T07:31:02Z</time>
      </trkpt>
      <trkpt lat="46.7311" lon="5.54628">
        <ele>310</ele>
        <time>2020-10-22T07:31:08Z</time>
      </trkpt>
      <trkpt lat="46.73101" lon="5.54613">
        <ele>312</ele>
        <time>2020-10-22T07:31:23Z</time>
      </trkpt>
      <trkpt lat="46.73093" lon="5.54599">
        <ele>314</ele>
        <time>2020-10-22T07:31:38Z</time>
      </trkpt>
      <trkpt lat="46.73088" lon="5.54591">
        <ele>315</ele>
        <time>2020-10-22T07:31:47Z</time>
      </trkpt>
      <trkpt lat="46.73079" lon="5.54588">
        <ele>316</ele>
        <time>2020-10-22T07:31:55Z</time>
      </trkpt>
      <trkpt lat="46.73074" lon="5.54584">
        <ele>317</ele>
        <time>2020-10-22T07:32:00Z</time>
      </trkpt>
      <trkpt lat="46.73066" lon="5.54572">
        <ele>319</ele>
        <time>2020-10-22T07:32:11Z</time>
      </trkpt>
      <trkpt lat="46.73059" lon="5.54567">
        <ele>319</ele>
        <time>2020-10-22T07:32:19Z</time>
      </trkpt>
      <trkpt lat="46.73036" lon="5.54545">
        <ele>323</ele>
        <time>2020-10-22T07:32:49Z</time>
      </trkpt>
      <trkpt lat="46.73023" lon="5.54536">
        <ele>325</ele>
        <time>2020-10-22T07:33:01Z</time>
      </trkpt>
      <trkpt lat="46.73018" lon="5.5453">
        <ele>325</ele>
        <time>2020-10-22T07:33:06Z</time>
      </trkpt>
      <trkpt lat="46.73007" lon="5.54523">
        <ele>326</ele>
        <time>2020-10-22T07:33:16Z</time>
      </trkpt>
      <trkpt lat="46.72985" lon="5.54501">
        <ele>327</ele>
        <time>2020-10-22T07:33:39Z</time>
      </trkpt>
      <trkpt lat="46.72965" lon="5.54458">
        <ele>328</ele>
        <time>2020-10-22T07:34:07Z</time>
      </trkpt>
      <trkpt lat="46.72941" lon="5.54425">
        <ele>329</ele>
        <time>2020-10-22T07:34:32Z</time>
      </trkpt>
      <trkpt lat="46.72937" lon="5.54419">
        <ele>329</ele>
        <time>2020-10-22T07:34:37Z</time>
      </trkpt>
      <trkpt lat="46.7293" lon="5.5441">
        <ele>330</ele>
        <time>2020-10-22T07:34:47Z</time>
      </trkpt>
      <trkpt lat="46.72926" lon="5.54416">
        <ele>330</ele>
        <time>2020-10-22T07:35:30Z</time>
      </trkpt>
      <trkpt lat="46.72922" lon="5.54423">
        <ele>331</ele>
        <time>2020-10-22T07:35:37Z</time>
      </trkpt>
      <trkpt lat="46.72917" lon="5.54433">
        <ele>331</ele>
        <time>2020-10-22T07:35:43Z</time>
      </trkpt>
      <trkpt lat="46.72903" lon="5.54457">
        <ele>333</ele>
        <time>2020-10-22T07:36:05Z</time>
      </trkpt>
      <trkpt lat="46.72874" lon="5.54478">
        <ele>336</ele>
        <time>2020-10-22T07:36:37Z</time>
      </trkpt>
      <trkpt lat="46.72868" lon="5.54477">
        <ele>336</ele>
        <time>2020-10-22T07:36:42Z</time>
      </trkpt>
      <trkpt lat="46.72859" lon="5.54482">
        <ele>338</ele>
        <time>2020-10-22T07:36:51Z</time>
      </trkpt>
      <trkpt lat="46.72835" lon="5.54483">
        <ele>342</ele>
        <time>2020-10-22T07:37:22Z</time>
      </trkpt>
      <trkpt lat="46.72812" lon="5.54497">
        <ele>345</ele>
        <time>2020-10-22T07:37:51Z</time>
      </trkpt>
      <trkpt lat="46.72782" lon="5.54494">
        <ele>347</ele>
        <time>2020-10-22T07:38:22Z</time>
      </trkpt>
      <trkpt lat="46.72777" lon="5.54494">
        <ele>347</ele>
        <time>2020-10-22T07:38:27Z</time>
      </trkpt>
      <trkpt lat="46.72771" lon="5.54492">
        <ele>347</ele>
        <time>2020-10-22T07:38:32Z</time>
      </trkpt>
      <trkpt lat="46.72766" lon="5.54497">
        <ele>348</ele>
        <time>2020-10-22T07:38:42Z</time>
      </trkpt>
      <trkpt lat="46.72761" lon="5.54491">
        <ele>348</ele>
        <time>2020-10-22T07:39:06Z</time>
      </trkpt>
      <trkpt lat="46.72749" lon="5.54498">
        <ele>350</ele>
        <time>2020-10-22T07:39:33Z</time>
      </trkpt>
      <trkpt lat="46.72744" lon="5.54499">
        <ele>351</ele>
        <time>2020-10-22T07:39:39Z</time>
      </trkpt>
      <trkpt lat="46.72731" lon="5.54498">
        <ele>352</ele>
        <time>2020-10-22T07:39:51Z</time>
      </trkpt>
      <trkpt lat="46.72726" lon="5.54493">
        <ele>352</ele>
        <time>2020-10-22T07:39:56Z</time>
      </trkpt>
      <trkpt lat="46.72706" lon="5.54485">
        <ele>353</ele>
        <time>2020-10-22T07:40:13Z</time>
      </trkpt>
      <trkpt lat="46.72701" lon="5.54481">
        <ele>353</ele>
        <time>2020-10-22T07:40:17Z</time>
      </trkpt>
      <trkpt lat="46.72683" lon="5.54472">
        <ele>352</ele>
        <time>2020-10-22T07:40:33Z</time>
      </trkpt>
      <trkpt lat="46.72676" lon="5.54469">
        <ele>351</ele>
        <time>2020-10-22T07:40:41Z</time>
      </trkpt>
      <trkpt lat="46.72654" lon="5.54462">
        <ele>352</ele>
        <time>2020-10-22T07:41:02Z</time>
      </trkpt>
      <trkpt lat="46.72647" lon="5.54462">
        <ele>352</ele>
        <time>2020-10-22T07:41:12Z</time>
      </trkpt>
      <trkpt lat="46.72642" lon="5.54463">
        <ele>352</ele>
        <time>2020-10-22T07:44:06Z</time>
      </trkpt>
      <trkpt lat="46.7264" lon="5.54452">
        <ele>352</ele>
        <time>2020-10-22T07:45:06Z</time>
      </trkpt>
      <trkpt lat="46.72632" lon="5.54441">
        <ele>352</ele>
        <time>2020-10-22T07:45:18Z</time>
      </trkpt>
      <trkpt lat="46.72602" lon="5.54421">
        <ele>351</ele>
        <time>2020-10-22T07:45:55Z</time>
      </trkpt>
      <trkpt lat="46.72571" lon="5.54399">
        <ele>351</ele>
        <time>2020-10-22T07:46:25Z</time>
      </trkpt>
      <trkpt lat="46.72564" lon="5.54395">
        <ele>351</ele>
        <time>2020-10-22T07:46:29Z</time>
      </trkpt>
      <trkpt lat="46.72528" lon="5.54362">
        <ele>348</ele>
        <time>2020-10-22T07:47:11Z</time>
      </trkpt>
      <trkpt lat="46.72493" lon="5.54343">
        <ele>350</ele>
        <time>2020-10-22T07:47:46Z</time>
      </trkpt>
      <trkpt lat="46.72476" lon="5.54335">
        <ele>350</ele>
        <time>2020-10-22T07:48:05Z</time>
      </trkpt>
      <trkpt lat="46.7247" lon="5.54328">
        <ele>350</ele>
        <time>2020-10-22T07:48:11Z</time>
      </trkpt>
      <trkpt lat="46.72454" lon="5.5432">
        <ele>349</ele>
        <time>2020-10-22T07:48:28Z</time>
      </trkpt>
      <trkpt lat="46.72435" lon="5.54302">
        <ele>348</ele>
        <time>2020-10-22T07:48:46Z</time>
      </trkpt>
      <trkpt lat="46.72411" lon="5.5429">
        <ele>347</ele>
        <time>2020-10-22T07:49:16Z</time>
      </trkpt>
      <trkpt lat="46.72398" lon="5.54276">
        <ele>347</ele>
        <time>2020-10-22T07:49:29Z</time>
      </trkpt>
      <trkpt lat="46.7239" lon="5.5427">
        <ele>346</ele>
        <time>2020-10-22T07:49:35Z</time>
      </trkpt>
      <trkpt lat="46.72383" lon="5.54269">
        <ele>346</ele>
        <time>2020-10-22T07:49:43Z</time>
      </trkpt>
      <trkpt lat="46.72349" lon="5.54251">
        <ele>346</ele>
        <time>2020-10-22T07:50:15Z</time>
      </trkpt>
      <trkpt lat="46.72324" lon="5.54239">
        <ele>345</ele>
        <time>2020-10-22T07:50:40Z</time>
      </trkpt>
      <trkpt lat="46.72318" lon="5.5424">
        <ele>345</ele>
        <time>2020-10-22T07:50:46Z</time>
      </trkpt>
      <trkpt lat="46.72312" lon="5.54238">
        <ele>345</ele>
        <time>2020-10-22T07:50:52Z</time>
      </trkpt>
      <trkpt lat="46.72301" lon="5.54228">
        <ele>344</ele>
        <time>2020-10-22T07:51:02Z</time>
      </trkpt>
      <trkpt lat="46.72296" lon="5.54222">
        <ele>343</ele>
        <time>2020-10-22T07:51:10Z</time>
      </trkpt>
      <trkpt lat="46.72278" lon="5.54211">
        <ele>342</ele>
        <time>2020-10-22T07:51:25Z</time>
      </trkpt>
      <trkpt lat="46.72264" lon="5.54198">
        <ele>340</ele>
        <time>2020-10-22T07:51:39Z</time>
      </trkpt>
      <trkpt lat="46.72258" lon="5.54197">
        <ele>340</ele>
        <time>2020-10-22T07:51:44Z</time>
      </trkpt>
      <trkpt lat="46.72252" lon="5.5419">
        <ele>339</ele>
        <time>2020-10-22T07:51:51Z</time>
      </trkpt>
      <trkpt lat="46.72246" lon="5.54187">
        <ele>338</ele>
        <time>2020-10-22T07:51:56Z</time>
      </trkpt>
      <trkpt lat="46.72241" lon="5.54186">
        <ele>338</ele>
        <time>2020-10-22T07:52:26Z</time>
      </trkpt>
      <trkpt lat="46.72234" lon="5.54189">
        <ele>338</ele>
        <time>2020-10-22T07:52:31Z</time>
      </trkpt>
      <trkpt lat="46.72215" lon="5.54183">
        <ele>337</ele>
        <time>2020-10-22T07:52:49Z</time>
      </trkpt>
      <trkpt lat="46.72209" lon="5.5418">
        <ele>337</ele>
        <time>2020-10-22T07:52:55Z</time>
      </trkpt>
      <trkpt lat="46.72195" lon="5.54176">
        <ele>336</ele>
        <time>2020-10-22T07:53:08Z</time>
      </trkpt>
      <trkpt lat="46.72181" lon="5.54168">
        <ele>335</ele>
        <time>2020-10-22T07:53:23Z</time>
      </trkpt>
      <trkpt lat="46.72167" lon="5.54168">
        <ele>333</ele>
        <time>2020-10-22T07:53:37Z</time>
      </trkpt>
      <trkpt lat="46.72162" lon="5.54164">
        <ele>333</ele>
        <time>2020-10-22T07:53:42Z</time>
      </trkpt>
      <trkpt lat="46.72139" lon="5.54156">
        <ele>331</ele>
        <time>2020-10-22T07:54:03Z</time>
      </trkpt>
      <trkpt lat="46.72133" lon="5.54156">
        <ele>330</ele>
        <time>2020-10-22T07:54:07Z</time>
      </trkpt>
      <trkpt lat="46.72103" lon="5.54132">
        <ele>327</ele>
        <time>2020-10-22T07:54:43Z</time>
      </trkpt>
      <trkpt lat="46.72097" lon="5.5413">
        <ele>326</ele>
        <time>2020-10-22T07:54:47Z</time>
      </trkpt>
      <trkpt lat="46.72089" lon="5.5413">
        <ele>326</ele>
        <time>2020-10-22T07:54:54Z</time>
      </trkpt>
      <trkpt lat="46.72083" lon="5.54131">
        <ele>326</ele>
        <time>2020-10-22T07:54:58Z</time>
      </trkpt>
      <trkpt lat="46.72065" lon="5.54129">
        <ele>324</ele>
        <time>2020-10-22T07:55:15Z</time>
      </trkpt>
      <trkpt lat="46.72058" lon="5.54126">
        <ele>324</ele>
        <time>2020-10-22T07:55:22Z</time>
      </trkpt>
      <trkpt lat="46.72045" lon="5.54128">
        <ele>323</ele>
        <time>2020-10-22T07:55:33Z</time>
      </trkpt>
      <trkpt lat="46.72039" lon="5.54125">
        <ele>323</ele>
        <time>2020-10-22T07:55:39Z</time>
      </trkpt>
      <trkpt lat="46.72028" lon="5.5412">
        <ele>321</ele>
        <time>2020-10-22T07:55:51Z</time>
      </trkpt>
      <trkpt lat="46.72014" lon="5.54125">
        <ele>319</ele>
        <time>2020-10-22T07:56:02Z</time>
      </trkpt>
      <trkpt lat="46.71983" lon="5.54121">
        <ele>315</ele>
        <time>2020-10-22T07:56:25Z</time>
      </trkpt>
      <trkpt lat="46.71978" lon="5.54124">
        <ele>316</ele>
        <time>2020-10-22T07:56:31Z</time>
      </trkpt>
      <trkpt lat="46.71971" lon="5.54125">
        <ele>315</ele>
        <time>2020-10-22T07:56:40Z</time>
      </trkpt>
      <trkpt lat="46.7197" lon="5.5411">
        <ele>313</ele>
        <time>2020-10-22T07:57:33Z</time>
      </trkpt>
      <trkpt lat="46.7197" lon="5.54102">
        <ele>312</ele>
        <time>2020-10-22T07:57:39Z</time>
      </trkpt>
      <trkpt lat="46.71969" lon="5.54085">
        <ele>311</ele>
        <time>2020-10-22T07:57:49Z</time>
      </trkpt>
      <trkpt lat="46.7197" lon="5.54076">
        <ele>311</ele>
        <time>2020-10-22T07:57:55Z</time>
      </trkpt>
      <trkpt lat="46.71974" lon="5.54068">
        <ele>310</ele>
        <time>2020-10-22T07:58:02Z</time>
      </trkpt>
      <trkpt lat="46.71979" lon="5.54056">
        <ele>310</ele>
        <time>2020-10-22T07:58:14Z</time>
      </trkpt>
      <trkpt lat="46.71988" lon="5.54029">
        <ele>308</ele>
        <time>2020-10-22T07:58:35Z</time>
      </trkpt>
      <trkpt lat="46.71995" lon="5.54014">
        <ele>306</ele>
        <time>2020-10-22T07:58:47Z</time>
      </trkpt>
      <trkpt lat="46.71998" lon="5.54006">
        <ele>306</ele>
        <time>2020-10-22T07:58:52Z</time>
      </trkpt>
      <trkpt lat="46.71998" lon="5.53998">
        <ele>305</ele>
        <time>2020-10-22T07:58:57Z</time>
      </trkpt>
      <trkpt lat="46.72005" lon="5.53984">
        <ele>303</ele>
        <time>2020-10-22T07:59:07Z</time>
      </trkpt>
      <trkpt lat="46.72016" lon="5.53939">
        <ele>298</ele>
        <time>2020-10-22T07:59:39Z</time>
      </trkpt>
      <trkpt lat="46.7201" lon="5.53932">
        <ele>297</ele>
        <time>2020-10-22T07:59:48Z</time>
      </trkpt>
      <trkpt lat="46.72005" lon="5.53927">
        <ele>297</ele>
        <time>2020-10-22T07:59:53Z</time>
      </trkpt>
      <trkpt lat="46.71993" lon="5.53922">
        <ele>295</ele>
        <time>2020-10-22T08:00:07Z</time>
      </trkpt>
      <trkpt lat="46.71988" lon="5.53917">
        <ele>295</ele>
        <time>2020-10-22T08:00:13Z</time>
      </trkpt>
      <trkpt lat="46.71984" lon="5.53899">
        <ele>294</ele>
        <time>2020-10-22T08:00:27Z</time>
      </trkpt>
      <trkpt lat="46.71983" lon="5.5389">
        <ele>293</ele>
        <time>2020-10-22T08:00:33Z</time>
      </trkpt>
      <trkpt lat="46.71987" lon="5.53882">
        <ele>293</ele>
        <time>2020-10-22T08:00:38Z</time>
      </trkpt>
      <trkpt lat="46.72" lon="5.5384">
        <ele>291</ele>
        <time>2020-10-22T08:01:07Z</time>
      </trkpt>
      <trkpt lat="46.72006" lon="5.53832">
        <ele>290</ele>
        <time>2020-10-22T08:01:14Z</time>
      </trkpt>
      <trkpt lat="46.72009" lon="5.53825">
        <ele>291</ele>
        <time>2020-10-22T08:01:19Z</time>
      </trkpt>
      <trkpt lat="46.72014" lon="5.53821">
        <ele>290</ele>
        <time>2020-10-22T08:01:25Z</time>
      </trkpt>
      <trkpt lat="46.72033" lon="5.53816">
        <ele>289</ele>
        <time>2020-10-22T08:01:42Z</time>
      </trkpt>
      <trkpt lat="46.72042" lon="5.53807">
        <ele>288</ele>
        <time>2020-10-22T08:01:57Z</time>
      </trkpt>
      <trkpt lat="46.72045" lon="5.538">
        <ele>287</ele>
        <time>2020-10-22T08:02:02Z</time>
      </trkpt>
      <trkpt lat="46.72044" lon="5.53783">
        <ele>286</ele>
        <time>2020-10-22T08:02:14Z</time>
      </trkpt>
      <trkpt lat="46.72041" lon="5.53775">
        <ele>285</ele>
        <time>2020-10-22T08:02:19Z</time>
      </trkpt>
      <trkpt lat="46.72037" lon="5.53769">
        <ele>285</ele>
        <time>2020-10-22T08:02:24Z</time>
      </trkpt>
      <trkpt lat="46.72031" lon="5.53745">
        <ele>283</ele>
        <time>2020-10-22T08:02:40Z</time>
      </trkpt>
      <trkpt lat="46.7203" lon="5.53733">
        <ele>282</ele>
        <time>2020-10-22T08:02:48Z</time>
      </trkpt>
      <trkpt lat="46.72022" lon="5.53709">
        <ele>279</ele>
        <time>2020-10-22T08:03:04Z</time>
      </trkpt>
      <trkpt lat="46.71989" lon="5.53671">
        <ele>274</ele>
        <time>2020-10-22T08:03:42Z</time>
      </trkpt>
      <trkpt lat="46.71985" lon="5.53664">
        <ele>273</ele>
        <time>2020-10-22T08:03:47Z</time>
      </trkpt>
      <trkpt lat="46.71985" lon="5.53643">
        <ele>273</ele>
        <time>2020-10-22T08:03:57Z</time>
      </trkpt>
      <trkpt lat="46.71998" lon="5.53595">
        <ele>271</ele>
        <time>2020-10-22T08:04:33Z</time>
      </trkpt>
      <trkpt lat="46.72" lon="5.53581">
        <ele>271</ele>
        <time>2020-10-22T08:04:42Z</time>
      </trkpt>
      <trkpt lat="46.72013" lon="5.53538">
        <ele>271</ele>
        <time>2020-10-22T08:05:13Z</time>
      </trkpt>
      <trkpt lat="46.72017" lon="5.53522">
        <ele>272</ele>
        <time>2020-10-22T08:05:24Z</time>
      </trkpt>
      <trkpt lat="46.72019" lon="5.53505">
        <ele>273</ele>
        <time>2020-10-22T08:05:34Z</time>
      </trkpt>
      <trkpt lat="46.72022" lon="5.53497">
        <ele>274</ele>
        <time>2020-10-22T08:05:39Z</time>
      </trkpt>
      <trkpt lat="46.72032" lon="5.53447">
        <ele>276</ele>
        <time>2020-10-22T08:06:10Z</time>
      </trkpt>
      <trkpt lat="46.72034" lon="5.53439">
        <ele>277</ele>
        <time>2020-10-22T08:06:14Z</time>
      </trkpt>
      <trkpt lat="46.72034" lon="5.53431">
        <ele>277</ele>
        <time>2020-10-22T08:06:20Z</time>
      </trkpt>
      <trkpt lat="46.72037" lon="5.53413">
        <ele>279</ele>
        <time>2020-10-22T08:06:31Z</time>
      </trkpt>
      <trkpt lat="46.72037" lon="5.53405">
        <ele>280</ele>
        <time>2020-10-22T08:06:36Z</time>
      </trkpt>
      <trkpt lat="46.72039" lon="5.53397">
        <ele>281</ele>
        <time>2020-10-22T08:06:41Z</time>
      </trkpt>
      <trkpt lat="46.7204" lon="5.53376">
        <ele>282</ele>
        <time>2020-10-22T08:06:53Z</time>
      </trkpt>
      <trkpt lat="46.72051" lon="5.5332">
        <ele>285</ele>
        <time>2020-10-22T08:07:28Z</time>
      </trkpt>
      <trkpt lat="46.72057" lon="5.53305">
        <ele>286</ele>
        <time>2020-10-22T08:07:40Z</time>
      </trkpt>
      <trkpt lat="46.72068" lon="5.53292">
        <ele>288</ele>
        <time>2020-10-22T08:07:57Z</time>
      </trkpt>
      <trkpt lat="46.72078" lon="5.53287">
        <ele>289</ele>
        <time>2020-10-22T08:08:06Z</time>
      </trkpt>
      <trkpt lat="46.72094" lon="5.53271">
        <ele>291</ele>
        <time>2020-10-22T08:08:25Z</time>
      </trkpt>
      <trkpt lat="46.72099" lon="5.53271">
        <ele>290</ele>
        <time>2020-10-22T08:09:39Z</time>
      </trkpt>
      <trkpt lat="46.72109" lon="5.53269">
        <ele>289</ele>
        <time>2020-10-22T08:10:03Z</time>
      </trkpt>
      <trkpt lat="46.72122" lon="5.53249">
        <ele>287</ele>
        <time>2020-10-22T08:10:19Z</time>
      </trkpt>
      <trkpt lat="46.72131" lon="5.53246">
        <ele>285</ele>
        <time>2020-10-22T08:10:30Z</time>
      </trkpt>
      <trkpt lat="46.72142" lon="5.53244">
        <ele>284</ele>
        <time>2020-10-22T08:10:41Z</time>
      </trkpt>
      <trkpt lat="46.72149" lon="5.53246">
        <ele>282</ele>
        <time>2020-10-22T08:10:55Z</time>
      </trkpt>
      <trkpt lat="46.72188" lon="5.53249">
        <ele>280</ele>
        <time>2020-10-22T08:11:34Z</time>
      </trkpt>
      <trkpt lat="46.72201" lon="5.53247">
        <ele>279</ele>
        <time>2020-10-22T08:11:44Z</time>
      </trkpt>
      <trkpt lat="46.72212" lon="5.53252">
        <ele>278</ele>
        <time>2020-10-22T08:11:54Z</time>
      </trkpt>
      <trkpt lat="46.72242" lon="5.53248">
        <ele>275</ele>
        <time>2020-10-22T08:12:23Z</time>
      </trkpt>
      <trkpt lat="46.72271" lon="5.53253">
        <ele>273</ele>
        <time>2020-10-22T08:12:45Z</time>
      </trkpt>
      <trkpt lat="46.72278" lon="5.53252">
        <ele>273</ele>
        <time>2020-10-22T08:12:49Z</time>
      </trkpt>
      <trkpt lat="46.72283" lon="5.53249">
        <ele>274</ele>
        <time>2020-10-22T08:12:53Z</time>
      </trkpt>
      <trkpt lat="46.72301" lon="5.53251">
        <ele>273</ele>
        <time>2020-10-22T08:13:10Z</time>
      </trkpt>
      <trkpt lat="46.72315" lon="5.53251">
        <ele>273</ele>
        <time>2020-10-22T08:13:22Z</time>
      </trkpt>
      <trkpt lat="46.72326" lon="5.53246">
        <ele>273</ele>
        <time>2020-10-22T08:13:30Z</time>
      </trkpt>
      <trkpt lat="46.72331" lon="5.53246">
        <ele>273</ele>
        <time>2020-10-22T08:13:35Z</time>
      </trkpt>
      <trkpt lat="46.72362" lon="5.53237">
        <ele>274</ele>
        <time>2020-10-22T08:14:06Z</time>
      </trkpt>
      <trkpt lat="46.72368" lon="5.53235">
        <ele>274</ele>
        <time>2020-10-22T08:14:11Z</time>
      </trkpt>
      <trkpt lat="46.72385" lon="5.53222">
        <ele>273</ele>
        <time>2020-10-22T08:14:29Z</time>
      </trkpt>
      <trkpt lat="46.724" lon="5.53211">
        <ele>273</ele>
        <time>2020-10-22T08:14:42Z</time>
      </trkpt>
      <trkpt lat="46.72412" lon="5.53192">
        <ele>273</ele>
        <time>2020-10-22T08:14:58Z</time>
      </trkpt>
      <trkpt lat="46.72416" lon="5.53184">
        <ele>274</ele>
        <time>2020-10-22T08:15:03Z</time>
      </trkpt>
      <trkpt lat="46.72417" lon="5.53175">
        <ele>274</ele>
        <time>2020-10-22T08:15:06Z</time>
      </trkpt>
      <trkpt lat="46.72419" lon="5.53166">
        <ele>274</ele>
        <time>2020-10-22T08:15:10Z</time>
      </trkpt>
      <trkpt lat="46.72422" lon="5.53159">
        <ele>274</ele>
        <time>2020-10-22T08:15:15Z</time>
      </trkpt>
      <trkpt lat="46.72437" lon="5.5313">
        <ele>277</ele>
        <time>2020-10-22T08:15:38Z</time>
      </trkpt>
      <trkpt lat="46.72443" lon="5.53116">
        <ele>278</ele>
        <time>2020-10-22T08:15:48Z</time>
      </trkpt>
      <trkpt lat="46.72444" lon="5.53107">
        <ele>279</ele>
        <time>2020-10-22T08:15:51Z</time>
      </trkpt>
      <trkpt lat="46.72445" lon="5.53099">
        <ele>280</ele>
        <time>2020-10-22T08:15:55Z</time>
      </trkpt>
      <trkpt lat="46.72451" lon="5.53086">
        <ele>282</ele>
        <time>2020-10-22T08:16:07Z</time>
      </trkpt>
      <trkpt lat="46.72454" lon="5.53073">
        <ele>283</ele>
        <time>2020-10-22T08:16:17Z</time>
      </trkpt>
      <trkpt lat="46.72462" lon="5.53059">
        <ele>285</ele>
        <time>2020-10-22T08:16:27Z</time>
      </trkpt>
      <trkpt lat="46.72469" lon="5.5303">
        <ele>289</ele>
        <time>2020-10-22T08:16:51Z</time>
      </trkpt>
      <trkpt lat="46.72473" lon="5.53022">
        <ele>291</ele>
        <time>2020-10-22T08:16:59Z</time>
      </trkpt>
      <trkpt lat="46.72475" lon="5.53011">
        <ele>292</ele>
        <time>2020-10-22T08:17:11Z</time>
      </trkpt>
      <trkpt lat="46.72478" lon="5.53004">
        <ele>294</ele>
        <time>2020-10-22T08:17:23Z</time>
      </trkpt>
      <trkpt lat="46.72488" lon="5.52993">
        <ele>295</ele>
        <time>2020-10-22T08:17:35Z</time>
      </trkpt>
      <trkpt lat="46.72492" lon="5.52987">
        <ele>295</ele>
        <time>2020-10-22T08:17:41Z</time>
      </trkpt>
      <trkpt lat="46.72498" lon="5.52979">
        <ele>295</ele>
        <time>2020-10-22T08:17:51Z</time>
      </trkpt>
      <trkpt lat="46.72504" lon="5.52974">
        <ele>295</ele>
        <time>2020-10-22T08:17:56Z</time>
      </trkpt>
      <trkpt lat="46.72507" lon="5.52964">
        <ele>295</ele>
        <time>2020-10-22T08:18:06Z</time>
      </trkpt>
      <trkpt lat="46.72511" lon="5.52958">
        <ele>295</ele>
        <time>2020-10-22T08:18:12Z</time>
      </trkpt>
      <trkpt lat="46.72527" lon="5.52934">
        <ele>296</ele>
        <time>2020-10-22T08:18:37Z</time>
      </trkpt>
      <trkpt lat="46.72537" lon="5.52915">
        <ele>297</ele>
        <time>2020-10-22T08:18:51Z</time>
      </trkpt>
      <trkpt lat="46.72555" lon="5.52902">
        <ele>302</ele>
        <time>2020-10-22T08:19:14Z</time>
      </trkpt>
      <trkpt lat="46.7256" lon="5.52895">
        <ele>304</ele>
        <time>2020-10-22T08:19:30Z</time>
      </trkpt>
      <trkpt lat="46.72569" lon="5.52894">
        <ele>307</ele>
        <time>2020-10-22T08:19:52Z</time>
      </trkpt>
      <trkpt lat="46.72586" lon="5.52904">
        <ele>310</ele>
        <time>2020-10-22T08:20:12Z</time>
      </trkpt>
      <trkpt lat="46.72593" lon="5.52915">
        <ele>311</ele>
        <time>2020-10-22T08:20:23Z</time>
      </trkpt>
      <trkpt lat="46.72603" lon="5.52924">
        <ele>313</ele>
        <time>2020-10-22T08:20:39Z</time>
      </trkpt>
      <trkpt lat="46.72624" lon="5.52944">
        <ele>313</ele>
        <time>2020-10-22T08:20:59Z</time>
      </trkpt>
      <trkpt lat="46.72633" lon="5.52944">
        <ele>314</ele>
        <time>2020-10-22T08:21:08Z</time>
      </trkpt>
      <trkpt lat="46.72666" lon="5.52963">
        <ele>317</ele>
        <time>2020-10-22T08:21:45Z</time>
      </trkpt>
      <trkpt lat="46.72675" lon="5.52963">
        <ele>318</ele>
        <time>2020-10-22T08:21:54Z</time>
      </trkpt>
      <trkpt lat="46.72687" lon="5.52966">
        <ele>318</ele>
        <time>2020-10-22T08:22:08Z</time>
      </trkpt>
      <trkpt lat="46.72693" lon="5.5296">
        <ele>319</ele>
        <time>2020-10-22T08:22:38Z</time>
      </trkpt>
      <trkpt lat="46.72696" lon="5.52957">
        <ele>320</ele>
        <time>2020-10-22T08:26:15Z</time>
      </trkpt>
      <trkpt lat="46.72705" lon="5.52958">
        <ele>321</ele>
        <time>2020-10-22T08:26:31Z</time>
      </trkpt>
      <trkpt lat="46.72724" lon="5.52971">
        <ele>322</ele>
        <time>2020-10-22T08:26:50Z</time>
      </trkpt>
      <trkpt lat="46.72731" lon="5.52972">
        <ele>323</ele>
        <time>2020-10-22T08:26:58Z</time>
      </trkpt>
      <trkpt lat="46.72736" lon="5.52971">
        <ele>323</ele>
        <time>2020-10-22T08:27:09Z</time>
      </trkpt>
      <trkpt lat="46.72744" lon="5.52981">
        <ele>324</ele>
        <time>2020-10-22T08:28:40Z</time>
      </trkpt>
      <trkpt lat="46.72757" lon="5.52988">
        <ele>324</ele>
        <time>2020-10-22T08:28:51Z</time>
      </trkpt>
      <trkpt lat="46.72781" lon="5.52996">
        <ele>325</ele>
        <time>2020-10-22T08:29:10Z</time>
      </trkpt>
      <trkpt lat="46.72786" lon="5.53">
        <ele>325</ele>
        <time>2020-10-22T08:29:15Z</time>
      </trkpt>
      <trkpt lat="46.72797" lon="5.53">
        <ele>326</ele>
        <time>2020-10-22T08:29:30Z</time>
      </trkpt>
      <trkpt lat="46.72814" lon="5.5301">
        <ele>328</ele>
        <time>2020-10-22T08:29:48Z</time>
      </trkpt>
      <trkpt lat="46.72827" lon="5.53019">
        <ele>330</ele>
        <time>2020-10-22T08:30:09Z</time>
      </trkpt>
      <trkpt lat="46.72835" lon="5.53026">
        <ele>331</ele>
        <time>2020-10-22T08:30:21Z</time>
      </trkpt>
      <trkpt lat="46.72842" lon="5.53024">
        <ele>332</ele>
        <time>2020-10-22T08:30:52Z</time>
      </trkpt>
      <trkpt lat="46.7285" lon="5.53031">
        <ele>332</ele>
        <time>2020-10-22T08:31:04Z</time>
      </trkpt>
      <trkpt lat="46.72868" lon="5.53041">
        <ele>333</ele>
        <time>2020-10-22T08:31:23Z</time>
      </trkpt>
      <trkpt lat="46.72873" lon="5.53045">
        <ele>333</ele>
        <time>2020-10-22T08:31:38Z</time>
      </trkpt>
      <trkpt lat="46.72867" lon="5.53051">
        <ele>334</ele>
        <time>2020-10-22T08:32:20Z</time>
      </trkpt>
      <trkpt lat="46.72876" lon="5.53056">
        <ele>334</ele>
        <time>2020-10-22T08:32:31Z</time>
      </trkpt>
      <trkpt lat="46.72881" lon="5.53058">
        <ele>334</ele>
        <time>2020-10-22T08:32:36Z</time>
      </trkpt>
      <trkpt lat="46.72895" lon="5.53072">
        <ele>335</ele>
        <time>2020-10-22T08:32:53Z</time>
      </trkpt>
      <trkpt lat="46.729" lon="5.53075">
        <ele>335</ele>
        <time>2020-10-22T08:32:58Z</time>
      </trkpt>
      <trkpt lat="46.72911" lon="5.53082">
        <ele>337</ele>
        <time>2020-10-22T08:33:19Z</time>
      </trkpt>
      <trkpt lat="46.72939" lon="5.5309">
        <ele>340</ele>
        <time>2020-10-22T08:33:48Z</time>
      </trkpt>
      <trkpt lat="46.72962" lon="5.53107">
        <ele>342</ele>
        <time>2020-10-22T08:34:11Z</time>
      </trkpt>
      <trkpt lat="46.72968" lon="5.53108">
        <ele>343</ele>
        <time>2020-10-22T08:34:16Z</time>
      </trkpt>
      <trkpt lat="46.72996" lon="5.53132">
        <ele>343</ele>
        <time>2020-10-22T08:34:48Z</time>
      </trkpt>
      <trkpt lat="46.73002" lon="5.53133">
        <ele>344</ele>
        <time>2020-10-22T08:34:54Z</time>
      </trkpt>
      <trkpt lat="46.73008" lon="5.53137">
        <ele>343</ele>
        <time>2020-10-22T08:35:01Z</time>
      </trkpt>
      <trkpt lat="46.73044" lon="5.53142">
        <ele>340</ele>
        <time>2020-10-22T08:35:35Z</time>
      </trkpt>
      <trkpt lat="46.73068" lon="5.53152">
        <ele>338</ele>
        <time>2020-10-22T08:35:56Z</time>
      </trkpt>
      <trkpt lat="46.73074" lon="5.53152">
        <ele>338</ele>
        <time>2020-10-22T08:36:01Z</time>
      </trkpt>
      <trkpt lat="46.73079" lon="5.53154">
        <ele>338</ele>
        <time>2020-10-22T08:36:07Z</time>
      </trkpt>
      <trkpt lat="46.73088" lon="5.53168">
        <ele>341</ele>
        <time>2020-10-22T08:36:22Z</time>
      </trkpt>
      <trkpt lat="46.73099" lon="5.53174">
        <ele>341</ele>
        <time>2020-10-22T08:36:33Z</time>
      </trkpt>
      <trkpt lat="46.73109" lon="5.53177">
        <ele>340</ele>
        <time>2020-10-22T08:36:44Z</time>
      </trkpt>
      <trkpt lat="46.73115" lon="5.53177">
        <ele>340</ele>
        <time>2020-10-22T08:36:50Z</time>
      </trkpt>
      <trkpt lat="46.73121" lon="5.53181">
        <ele>340</ele>
        <time>2020-10-22T08:36:58Z</time>
      </trkpt>
      <trkpt lat="46.73135" lon="5.53186">
        <ele>338</ele>
        <time>2020-10-22T08:37:14Z</time>
      </trkpt>
      <trkpt lat="46.7314" lon="5.53187">
        <ele>337</ele>
        <time>2020-10-22T08:37:19Z</time>
      </trkpt>
      <trkpt lat="46.73153" lon="5.53183">
        <ele>336</ele>
        <time>2020-10-22T08:37:34Z</time>
      </trkpt>
      <trkpt lat="46.73163" lon="5.53188">
        <ele>335</ele>
        <time>2020-10-22T08:37:45Z</time>
      </trkpt>
      <trkpt lat="46.73171" lon="5.53187">
        <ele>334</ele>
        <time>2020-10-22T08:37:54Z</time>
      </trkpt>
      <trkpt lat="46.73178" lon="5.53189">
        <ele>333</ele>
        <time>2020-10-22T08:38:03Z</time>
      </trkpt>
      <trkpt lat="46.73188" lon="5.53197">
        <ele>332</ele>
        <time>2020-10-22T08:38:14Z</time>
      </trkpt>
      <trkpt lat="46.73205" lon="5.53203">
        <ele>331</ele>
        <time>2020-10-22T08:38:30Z</time>
      </trkpt>
      <trkpt lat="46.73239" lon="5.53206">
        <ele>327</ele>
        <time>2020-10-22T08:39:05Z</time>
      </trkpt>
      <trkpt lat="46.73253" lon="5.53203">
        <ele>326</ele>
        <time>2020-10-22T08:39:18Z</time>
      </trkpt>
      <trkpt lat="46.73259" lon="5.53199">
        <ele>326</ele>
        <time>2020-10-22T08:39:22Z</time>
      </trkpt>
      <trkpt lat="46.73265" lon="5.532">
        <ele>326</ele>
        <time>2020-10-22T08:39:25Z</time>
      </trkpt>
      <trkpt lat="46.73278" lon="5.53199">
        <ele>324</ele>
        <time>2020-10-22T08:39:41Z</time>
      </trkpt>
      <trkpt lat="46.73285" lon="5.53194">
        <ele>324</ele>
        <time>2020-10-22T08:39:47Z</time>
      </trkpt>
      <trkpt lat="46.73294" lon="5.53191">
        <ele>321</ele>
        <time>2020-10-22T08:39:58Z</time>
      </trkpt>
      <trkpt lat="46.73308" lon="5.53173">
        <ele>318</ele>
        <time>2020-10-22T08:40:22Z</time>
      </trkpt>
      <trkpt lat="46.73311" lon="5.53166">
        <ele>317</ele>
        <time>2020-10-22T08:40:27Z</time>
      </trkpt>
      <trkpt lat="46.73317" lon="5.53159">
        <ele>316</ele>
        <time>2020-10-22T08:40:32Z</time>
      </trkpt>
      <trkpt lat="46.73326" lon="5.53156">
        <ele>315</ele>
        <time>2020-10-22T08:40:42Z</time>
      </trkpt>
      <trkpt lat="46.73332" lon="5.53148">
        <ele>315</ele>
        <time>2020-10-22T08:40:48Z</time>
      </trkpt>
      <trkpt lat="46.73334" lon="5.53139">
        <ele>314</ele>
        <time>2020-10-22T08:40:54Z</time>
      </trkpt>
      <trkpt lat="46.73368" lon="5.53117">
        <ele>308</ele>
        <time>2020-10-22T08:41:29Z</time>
      </trkpt>
      <trkpt lat="46.73377" lon="5.53112">
        <ele>304</ele>
        <time>2020-10-22T08:41:49Z</time>
      </trkpt>
      <trkpt lat="46.73391" lon="5.53103">
        <ele>302</ele>
        <time>2020-10-22T08:42:05Z</time>
      </trkpt>
      <trkpt lat="46.73399" lon="5.53085">
        <ele>300</ele>
        <time>2020-10-22T08:42:14Z</time>
      </trkpt>
      <trkpt lat="46.73399" lon="5.53077">
        <ele>300</ele>
        <time>2020-10-22T08:42:18Z</time>
      </trkpt>
      <trkpt lat="46.73398" lon="5.53065">
        <ele>299</ele>
        <time>2020-10-22T08:42:25Z</time>
      </trkpt>
      <trkpt lat="46.73396" lon="5.53056">
        <ele>298</ele>
        <time>2020-10-22T08:42:32Z</time>
      </trkpt>
      <trkpt lat="46.7339" lon="5.53047">
        <ele>296</ele>
        <time>2020-10-22T08:42:45Z</time>
      </trkpt>
      <trkpt lat="46.73396" lon="5.5304">
        <ele>294</ele>
        <time>2020-10-22T08:42:57Z</time>
      </trkpt>
      <trkpt lat="46.73401" lon="5.5303">
        <ele>292</ele>
        <time>2020-10-22T08:43:10Z</time>
      </trkpt>
      <trkpt lat="46.73409" lon="5.53029">
        <ele>290</ele>
        <time>2020-10-22T08:43:18Z</time>
      </trkpt>
      <trkpt lat="46.73413" lon="5.53019">
        <ele>288</ele>
        <time>2020-10-22T08:43:28Z</time>
      </trkpt>
      <trkpt lat="46.73419" lon="5.53017">
        <ele>287</ele>
        <time>2020-10-22T08:43:40Z</time>
      </trkpt>
      <trkpt lat="46.73424" lon="5.5302">
        <ele>287</ele>
        <time>2020-10-22T08:43:45Z</time>
      </trkpt>
      <trkpt lat="46.73432" lon="5.5302">
        <ele>286</ele>
        <time>2020-10-22T08:43:57Z</time>
      </trkpt>
      <trkpt lat="46.73473" lon="5.53038">
        <ele>284</ele>
        <time>2020-10-22T08:44:29Z</time>
      </trkpt>
      <trkpt lat="46.7348" lon="5.53041">
        <ele>283</ele>
        <time>2020-10-22T08:44:40Z</time>
      </trkpt>
      <trkpt lat="46.73487" lon="5.5304">
        <ele>282</ele>
        <time>2020-10-22T08:44:47Z</time>
      </trkpt>
      <trkpt lat="46.735" lon="5.53048">
        <ele>281</ele>
        <time>2020-10-22T08:44:55Z</time>
      </trkpt>
      <trkpt lat="46.73512" lon="5.5305">
        <ele>280</ele>
        <time>2020-10-22T08:45:03Z</time>
      </trkpt>
      <trkpt lat="46.73519" lon="5.53048">
        <ele>280</ele>
        <time>2020-10-22T08:45:06Z</time>
      </trkpt>
      <trkpt lat="46.73523" lon="5.53045">
        <ele>280</ele>
        <time>2020-10-22T08:45:10Z</time>
      </trkpt>
      <trkpt lat="46.73537" lon="5.53057">
        <ele>279</ele>
        <time>2020-10-22T08:45:27Z</time>
      </trkpt>
      <trkpt lat="46.73548" lon="5.53075">
        <ele>278</ele>
        <time>2020-10-22T08:45:39Z</time>
      </trkpt>
      <trkpt lat="46.73551" lon="5.53082">
        <ele>277</ele>
        <time>2020-10-22T08:45:45Z</time>
      </trkpt>
      <trkpt lat="46.73557" lon="5.53114">
        <ele>275</ele>
        <time>2020-10-22T08:46:10Z</time>
      </trkpt>
      <trkpt lat="46.73558" lon="5.53123">
        <ele>274</ele>
        <time>2020-10-22T08:46:18Z</time>
      </trkpt>
      <trkpt lat="46.73556" lon="5.53138">
        <ele>272</ele>
        <time>2020-10-22T08:46:32Z</time>
      </trkpt>
      <trkpt lat="46.73555" lon="5.53146">
        <ele>272</ele>
        <time>2020-10-22T08:46:36Z</time>
      </trkpt>
      <trkpt lat="46.73553" lon="5.53153">
        <ele>272</ele>
        <time>2020-10-22T08:46:41Z</time>
      </trkpt>
      <trkpt lat="46.73552" lon="5.53178">
        <ele>270</ele>
        <time>2020-10-22T08:46:55Z</time>
      </trkpt>
      <trkpt lat="46.73558" lon="5.53184">
        <ele>269</ele>
        <time>2020-10-22T08:46:59Z</time>
      </trkpt>
      <trkpt lat="46.73564" lon="5.53186">
        <ele>268</ele>
        <time>2020-10-22T08:47:05Z</time>
      </trkpt>
      <trkpt lat="46.73567" lon="5.5318">
        <ele>267</ele>
        <time>2020-10-22T08:47:10Z</time>
      </trkpt>
      <trkpt lat="46.73579" lon="5.53141">
        <ele>265</ele>
        <time>2020-10-22T08:47:35Z</time>
      </trkpt>
      <trkpt lat="46.73581" lon="5.53128">
        <ele>264</ele>
        <time>2020-10-22T08:47:41Z</time>
      </trkpt>
      <trkpt lat="46.73586" lon="5.53105">
        <ele>263</ele>
        <time>2020-10-22T08:47:56Z</time>
      </trkpt>
      <trkpt lat="46.73586" lon="5.53095">
        <ele>262</ele>
        <time>2020-10-22T08:48:01Z</time>
      </trkpt>
      <trkpt lat="46.73588" lon="5.53087">
        <ele>262</ele>
        <time>2020-10-22T08:48:06Z</time>
      </trkpt>
      <trkpt lat="46.73588" lon="5.53078">
        <ele>261</ele>
        <time>2020-10-22T08:48:12Z</time>
      </trkpt>
      <trkpt lat="46.73585" lon="5.5306">
        <ele>260</ele>
        <time>2020-10-22T08:48:23Z</time>
      </trkpt>
      <trkpt lat="46.73583" lon="5.53052">
        <ele>259</ele>
        <time>2020-10-22T08:48:28Z</time>
      </trkpt>
      <trkpt lat="46.73581" lon="5.53043">
        <ele>258</ele>
        <time>2020-10-22T08:48:34Z</time>
      </trkpt>
      <trkpt lat="46.7357" lon="5.53011">
        <ele>255</ele>
        <time>2020-10-22T08:48:59Z</time>
      </trkpt>
      <trkpt lat="46.73566" lon="5.53004">
        <ele>255</ele>
        <time>2020-10-22T08:49:03Z</time>
      </trkpt>
      <trkpt lat="46.7356" lon="5.52988">
        <ele>254</ele>
        <time>2020-10-22T08:49:13Z</time>
      </trkpt>
      <trkpt lat="46.73538" lon="5.52961">
        <ele>250</ele>
        <time>2020-10-22T08:49:39Z</time>
      </trkpt>
      <trkpt lat="46.73538" lon="5.52953">
        <ele>249</ele>
        <time>2020-10-22T08:49:45Z</time>
      </trkpt>
      <trkpt lat="46.73533" lon="5.52942">
        <ele>249</ele>
        <time>2020-10-22T08:49:53Z</time>
      </trkpt>
      <trkpt lat="46.73524" lon="5.52931">
        <ele>249</ele>
        <time>2020-10-22T08:50:02Z</time>
      </trkpt>
      <trkpt lat="46.7352" lon="5.52925">
        <ele>249</ele>
        <time>2020-10-22T08:50:06Z</time>
      </trkpt>
      <trkpt lat="46.73513" lon="5.52912">
        <ele>249</ele>
        <time>2020-10-22T08:50:16Z</time>
      </trkpt>
      <trkpt lat="46.73507" lon="5.52898">
        <ele>248</ele>
        <time>2020-10-22T08:50:25Z</time>
      </trkpt>
      <trkpt lat="46.73505" lon="5.52899">
        <ele>249</ele>
        <time>2020-10-22T08:52:00Z</time>
      </trkpt>
      <trkpt lat="46.73506" lon="5.52907">
        <ele>249</ele>
        <time>2020-10-22T08:52:06Z</time>
      </trkpt>
      <trkpt lat="46.73517" lon="5.52929">
        <ele>250</ele>
        <time>2020-10-22T08:52:20Z</time>
      </trkpt>
      <trkpt lat="46.73544" lon="5.52975">
        <ele>251</ele>
        <time>2020-10-22T08:52:55Z</time>
      </trkpt>
      <trkpt lat="46.73554" lon="5.52996">
        <ele>252</ele>
        <time>2020-10-22T08:53:11Z</time>
      </trkpt>
      <trkpt lat="46.73574" lon="5.53022">
        <ele>252</ele>
        <time>2020-10-22T08:53:31Z</time>
      </trkpt>
      <trkpt lat="46.73585" lon="5.5304">
        <ele>253</ele>
        <time>2020-10-22T08:53:45Z</time>
      </trkpt>
      <trkpt lat="46.73592" lon="5.53073">
        <ele>254</ele>
        <time>2020-10-22T08:54:04Z</time>
      </trkpt>
      <trkpt lat="46.73592" lon="5.53083">
        <ele>254</ele>
        <time>2020-10-22T08:54:11Z</time>
      </trkpt>
      <trkpt lat="46.73596" lon="5.53106">
        <ele>254</ele>
        <time>2020-10-22T08:54:27Z</time>
      </trkpt>
      <trkpt lat="46.736" lon="5.53117">
        <ele>254</ele>
        <time>2020-10-22T08:54:34Z</time>
      </trkpt>
      <trkpt lat="46.73605" lon="5.53136">
        <ele>255</ele>
        <time>2020-10-22T08:54:48Z</time>
      </trkpt>
      <trkpt lat="46.73618" lon="5.53137">
        <ele>255</ele>
        <time>2020-10-22T08:54:55Z</time>
      </trkpt>
      <trkpt lat="46.73624" lon="5.5314">
        <ele>255</ele>
        <time>2020-10-22T08:54:59Z</time>
      </trkpt>
      <trkpt lat="46.73628" lon="5.53146">
        <ele>255</ele>
        <time>2020-10-22T08:55:05Z</time>
      </trkpt>
      <trkpt lat="46.7364" lon="5.53144">
        <ele>254</ele>
        <time>2020-10-22T08:55:18Z</time>
      </trkpt>
      <trkpt lat="46.73651" lon="5.53142">
        <ele>256</ele>
        <time>2020-10-22T08:55:36Z</time>
      </trkpt>
      <trkpt lat="46.73659" lon="5.5315">
        <ele>257</ele>
        <time>2020-10-22T08:55:47Z</time>
      </trkpt>
      <trkpt lat="46.73667" lon="5.53152">
        <ele>258</ele>
        <time>2020-10-22T08:55:54Z</time>
      </trkpt>
      <trkpt lat="46.73681" lon="5.5316">
        <ele>257</ele>
        <time>2020-10-22T08:56:12Z</time>
      </trkpt>
      <trkpt lat="46.73688" lon="5.53168">
        <ele>257</ele>
        <time>2020-10-22T08:56:20Z</time>
      </trkpt>
      <trkpt lat="46.73701" lon="5.53178">
        <ele>257</ele>
        <time>2020-10-22T08:56:35Z</time>
      </trkpt>
      <trkpt lat="46.73708" lon="5.53183">
        <ele>256</ele>
        <time>2020-10-22T08:56:42Z</time>
      </trkpt>
      <trkpt lat="46.73716" lon="5.53182">
        <ele>256</ele>
        <time>2020-10-22T08:56:47Z</time>
      </trkpt>
      <trkpt lat="46.73723" lon="5.53186">
        <ele>256</ele>
        <time>2020-10-22T08:56:54Z</time>
      </trkpt>
      <trkpt lat="46.73732" lon="5.53194">
        <ele>256</ele>
        <time>2020-10-22T08:57:10Z</time>
      </trkpt>
      <trkpt lat="46.73741" lon="5.53192">
        <ele>257</ele>
        <time>2020-10-22T08:57:15Z</time>
      </trkpt>
      <trkpt lat="46.73765" lon="5.53198">
        <ele>257</ele>
        <time>2020-10-22T08:57:36Z</time>
      </trkpt>
      <trkpt lat="46.73772" lon="5.53202">
        <ele>257</ele>
        <time>2020-10-22T08:57:41Z</time>
      </trkpt>
      <trkpt lat="46.73813" lon="5.53211">
        <ele>260</ele>
        <time>2020-10-22T08:58:17Z</time>
      </trkpt>
      <trkpt lat="46.7382" lon="5.53213">
        <ele>260</ele>
        <time>2020-10-22T08:58:23Z</time>
      </trkpt>
      <trkpt lat="46.73857" lon="5.53232">
        <ele>264</ele>
        <time>2020-10-22T08:58:57Z</time>
      </trkpt>
      <trkpt lat="46.73866" lon="5.53236">
        <ele>265</ele>
        <time>2020-10-22T08:59:08Z</time>
      </trkpt>
      <trkpt lat="46.73879" lon="5.5324">
        <ele>266</ele>
        <time>2020-10-22T08:59:23Z</time>
      </trkpt>
      <trkpt lat="46.73891" lon="5.53237">
        <ele>267</ele>
        <time>2020-10-22T08:59:33Z</time>
      </trkpt>
      <trkpt lat="46.73908" lon="5.53247">
        <ele>268</ele>
        <time>2020-10-22T08:59:48Z</time>
      </trkpt>
      <trkpt lat="46.73916" lon="5.53249">
        <ele>268</ele>
        <time>2020-10-22T08:59:55Z</time>
      </trkpt>
      <trkpt lat="46.73947" lon="5.5326">
        <ele>270</ele>
        <time>2020-10-22T09:00:28Z</time>
      </trkpt>
      <trkpt lat="46.73961" lon="5.53273">
        <ele>271</ele>
        <time>2020-10-22T09:00:40Z</time>
      </trkpt>
      <trkpt lat="46.73974" lon="5.53279">
        <ele>272</ele>
        <time>2020-10-22T09:00:54Z</time>
      </trkpt>
      <trkpt lat="46.73987" lon="5.53292">
        <ele>272</ele>
        <time>2020-10-22T09:01:07Z</time>
      </trkpt>
      <trkpt lat="46.73995" lon="5.53297">
        <ele>273</ele>
        <time>2020-10-22T09:01:14Z</time>
      </trkpt>
      <trkpt lat="46.74025" lon="5.5332">
        <ele>273</ele>
        <time>2020-10-22T09:01:44Z</time>
      </trkpt>
      <trkpt lat="46.74032" lon="5.53324">
        <ele>273</ele>
        <time>2020-10-22T09:01:51Z</time>
      </trkpt>
      <trkpt lat="46.7404" lon="5.53323">
        <ele>274</ele>
        <time>2020-10-22T09:01:56Z</time>
      </trkpt>
      <trkpt lat="46.74048" lon="5.53322">
        <ele>273</ele>
        <time>2020-10-22T09:02:01Z</time>
      </trkpt>
      <trkpt lat="46.74054" lon="5.53318">
        <ele>273</ele>
        <time>2020-10-22T09:02:06Z</time>
      </trkpt>
      <trkpt lat="46.74061" lon="5.53327">
        <ele>272</ele>
        <time>2020-10-22T09:02:15Z</time>
      </trkpt>
      <trkpt lat="46.74077" lon="5.53323">
        <ele>271</ele>
        <time>2020-10-22T09:02:29Z</time>
      </trkpt>
      <trkpt lat="46.74088" lon="5.53325">
        <ele>271</ele>
        <time>2020-10-22T09:02:50Z</time>
      </trkpt>
      <trkpt lat="46.74096" lon="5.5333">
        <ele>271</ele>
        <time>2020-10-22T09:02:58Z</time>
      </trkpt>
      <trkpt lat="46.74101" lon="5.53339">
        <ele>271</ele>
        <time>2020-10-22T09:03:03Z</time>
      </trkpt>
      <trkpt lat="46.74107" lon="5.53343">
        <ele>271</ele>
        <time>2020-10-22T09:03:11Z</time>
      </trkpt>
      <trkpt lat="46.74125" lon="5.53367">
        <ele>271</ele>
        <time>2020-10-22T09:03:30Z</time>
      </trkpt>
      <trkpt lat="46.7414" lon="5.53377">
        <ele>271</ele>
        <time>2020-10-22T09:03:39Z</time>
      </trkpt>
      <trkpt lat="46.74153" lon="5.53382">
        <ele>270</ele>
        <time>2020-10-22T09:03:50Z</time>
      </trkpt>
      <trkpt lat="46.74159" lon="5.5338">
        <ele>270</ele>
        <time>2020-10-22T09:03:55Z</time>
      </trkpt>
      <trkpt lat="46.74164" lon="5.53381">
        <ele>270</ele>
        <time>2020-10-22T09:04:00Z</time>
      </trkpt>
      <trkpt lat="46.74195" lon="5.53397">
        <ele>270</ele>
        <time>2020-10-22T09:04:34Z</time>
      </trkpt>
      <trkpt lat="46.74233" lon="5.53416">
        <ele>268</ele>
        <time>2020-10-22T09:05:11Z</time>
      </trkpt>
      <trkpt lat="46.74259" lon="5.53435">
        <ele>267</ele>
        <time>2020-10-22T09:05:29Z</time>
      </trkpt>
      <trkpt lat="46.74271" lon="5.53435">
        <ele>266</ele>
        <time>2020-10-22T09:05:35Z</time>
      </trkpt>
      <trkpt lat="46.74276" lon="5.5343">
        <ele>265</ele>
        <time>2020-10-22T09:05:40Z</time>
      </trkpt>
      <trkpt lat="46.74282" lon="5.53429">
        <ele>263</ele>
        <time>2020-10-22T09:05:48Z</time>
      </trkpt>
      <trkpt lat="46.74287" lon="5.53429">
        <ele>262</ele>
        <time>2020-10-22T09:05:59Z</time>
      </trkpt>
      <trkpt lat="46.74296" lon="5.53429">
        <ele>259</ele>
        <time>2020-10-22T09:06:23Z</time>
      </trkpt>
      <trkpt lat="46.74305" lon="5.53444">
        <ele>259</ele>
        <time>2020-10-22T09:06:41Z</time>
      </trkpt>
      <trkpt lat="46.74316" lon="5.53464">
        <ele>257</ele>
        <time>2020-10-22T09:07:01Z</time>
      </trkpt>
      <trkpt lat="46.74322" lon="5.53466">
        <ele>256</ele>
        <time>2020-10-22T09:07:11Z</time>
      </trkpt>
      <trkpt lat="46.74327" lon="5.53469">
        <ele>256</ele>
        <time>2020-10-22T09:07:35Z</time>
      </trkpt>
      <trkpt lat="46.74333" lon="5.53465">
        <ele>256</ele>
        <time>2020-10-22T09:07:53Z</time>
      </trkpt>
      <trkpt lat="46.74339" lon="5.53462">
        <ele>256</ele>
        <time>2020-10-22T09:08:00Z</time>
      </trkpt>
      <trkpt lat="46.74345" lon="5.53455">
        <ele>255</ele>
        <time>2020-10-22T09:08:03Z</time>
      </trkpt>
      <trkpt lat="46.74351" lon="5.53452">
        <ele>256</ele>
        <time>2020-10-22T09:08:07Z</time>
      </trkpt>
      <trkpt lat="46.74361" lon="5.53439">
        <ele>255</ele>
        <time>2020-10-22T09:08:22Z</time>
      </trkpt>
      <trkpt lat="46.74365" lon="5.53432">
        <ele>254</ele>
        <time>2020-10-22T09:08:27Z</time>
      </trkpt>
      <trkpt lat="46.74368" lon="5.53426">
        <ele>254</ele>
        <time>2020-10-22T09:08:31Z</time>
      </trkpt>
      <trkpt lat="46.7437" lon="5.53417">
        <ele>255</ele>
        <time>2020-10-22T09:08:36Z</time>
      </trkpt>
      <trkpt lat="46.7437" lon="5.53396">
        <ele>255</ele>
        <time>2020-10-22T09:08:52Z</time>
      </trkpt>
      <trkpt lat="46.74372" lon="5.53388">
        <ele>255</ele>
        <time>2020-10-22T09:08:58Z</time>
      </trkpt>
      <trkpt lat="46.74381" lon="5.53371">
        <ele>254</ele>
        <time>2020-10-22T09:09:08Z</time>
      </trkpt>
      <trkpt lat="46.74382" lon="5.53362">
        <ele>254</ele>
        <time>2020-10-22T09:09:13Z</time>
      </trkpt>
      <trkpt lat="46.74382" lon="5.53352">
        <ele>254</ele>
        <time>2020-10-22T09:09:21Z</time>
      </trkpt>
      <trkpt lat="46.74384" lon="5.53343">
        <ele>254</ele>
        <time>2020-10-22T09:09:25Z</time>
      </trkpt>
      <trkpt lat="46.74381" lon="5.53318">
        <ele>255</ele>
        <time>2020-10-22T09:09:38Z</time>
      </trkpt>
      <trkpt lat="46.74378" lon="5.5331">
        <ele>255</ele>
        <time>2020-10-22T09:09:43Z</time>
      </trkpt>
      <trkpt lat="46.74376" lon="5.53294">
        <ele>255</ele>
        <time>2020-10-22T09:09:51Z</time>
      </trkpt>
      <trkpt lat="46.74374" lon="5.53285">
        <ele>255</ele>
        <time>2020-10-22T09:10:00Z</time>
      </trkpt>
      <trkpt lat="46.74351" lon="5.53261">
        <ele>254</ele>
        <time>2020-10-22T09:10:26Z</time>
      </trkpt>
      <trkpt lat="46.74346" lon="5.53258">
        <ele>254</ele>
        <time>2020-10-22T09:10:31Z</time>
      </trkpt>
      <trkpt lat="46.74314" lon="5.53228">
        <ele>254</ele>
        <time>2020-10-22T09:11:01Z</time>
      </trkpt>
      <trkpt lat="46.74309" lon="5.53225">
        <ele>254</ele>
        <time>2020-10-22T09:11:05Z</time>
      </trkpt>
      <trkpt lat="46.74303" lon="5.53224">
        <ele>254</ele>
        <time>2020-10-22T09:11:09Z</time>
      </trkpt>
      <trkpt lat="46.74293" lon="5.53213">
        <ele>254</ele>
        <time>2020-10-22T09:11:19Z</time>
      </trkpt>
      <trkpt lat="46.74277" lon="5.53207">
        <ele>255</ele>
        <time>2020-10-22T09:11:34Z</time>
      </trkpt>
      <trkpt lat="46.74264" lon="5.53205">
        <ele>255</ele>
        <time>2020-10-22T09:11:45Z</time>
      </trkpt>
      <trkpt lat="46.74254" lon="5.53196">
        <ele>255</ele>
        <time>2020-10-22T09:11:53Z</time>
      </trkpt>
      <trkpt lat="46.74249" lon="5.53191">
        <ele>254</ele>
        <time>2020-10-22T09:11:59Z</time>
      </trkpt>
      <trkpt lat="46.74237" lon="5.53188">
        <ele>254</ele>
        <time>2020-10-22T09:12:07Z</time>
      </trkpt>
      <trkpt lat="46.74232" lon="5.53188">
        <ele>254</ele>
        <time>2020-10-22T09:12:11Z</time>
      </trkpt>
      <trkpt lat="46.74215" lon="5.5318">
        <ele>253</ele>
        <time>2020-10-22T09:12:24Z</time>
      </trkpt>
      <trkpt lat="46.74205" lon="5.53172">
        <ele>253</ele>
        <time>2020-10-22T09:12:33Z</time>
      </trkpt>
      <trkpt lat="46.74188" lon="5.53165">
        <ele>253</ele>
        <time>2020-10-22T09:12:46Z</time>
      </trkpt>
      <trkpt lat="46.74171" lon="5.53161">
        <ele>252</ele>
        <time>2020-10-22T09:13:02Z</time>
      </trkpt>
      <trkpt lat="46.74162" lon="5.53152">
        <ele>252</ele>
        <time>2020-10-22T09:13:13Z</time>
      </trkpt>
      <trkpt lat="46.74145" lon="5.53147">
        <ele>252</ele>
        <time>2020-10-22T09:13:26Z</time>
      </trkpt>
      <trkpt lat="46.7414" lon="5.53143">
        <ele>252</ele>
        <time>2020-10-22T09:13:30Z</time>
      </trkpt>
      <trkpt lat="46.74122" lon="5.53139">
        <ele>252</ele>
        <time>2020-10-22T09:13:42Z</time>
      </trkpt>
      <trkpt lat="46.74081" lon="5.53121">
        <ele>251</ele>
        <time>2020-10-22T09:14:15Z</time>
      </trkpt>
      <trkpt lat="46.74048" lon="5.53102">
        <ele>249</ele>
        <time>2020-10-22T09:14:46Z</time>
      </trkpt>
      <trkpt lat="46.74008" lon="5.53074">
        <ele>249</ele>
        <time>2020-10-22T09:15:21Z</time>
      </trkpt>
      <trkpt lat="46.73989" lon="5.53068">
        <ele>248</ele>
        <time>2020-10-22T09:15:37Z</time>
      </trkpt>
      <trkpt lat="46.73956" lon="5.53047">
        <ele>247</ele>
        <time>2020-10-22T09:16:06Z</time>
      </trkpt>
      <trkpt lat="46.73927" lon="5.53034">
        <ele>246</ele>
        <time>2020-10-22T09:16:32Z</time>
      </trkpt>
      <trkpt lat="46.73923" lon="5.5303">
        <ele>246</ele>
        <time>2020-10-22T09:16:37Z</time>
      </trkpt>
      <trkpt lat="46.73916" lon="5.53026">
        <ele>246</ele>
        <time>2020-10-22T09:16:46Z</time>
      </trkpt>
      <trkpt lat="46.73903" lon="5.53019">
        <ele>245</ele>
        <time>2020-10-22T09:17:00Z</time>
      </trkpt>
      <trkpt lat="46.73896" lon="5.53019">
        <ele>245</ele>
        <time>2020-10-22T09:17:02Z</time>
      </trkpt>
      <trkpt lat="46.73889" lon="5.53014">
        <ele>245</ele>
        <time>2020-10-22T09:17:26Z</time>
      </trkpt>
      <trkpt lat="46.73883" lon="5.53012">
        <ele>244</ele>
        <time>2020-10-22T09:17:33Z</time>
      </trkpt>
      <trkpt lat="46.73878" lon="5.53013">
        <ele>244</ele>
        <time>2020-10-22T09:18:47Z</time>
      </trkpt>
      <trkpt lat="46.73886" lon="5.53032">
        <ele>242</ele>
        <time>2020-10-22T09:24:54Z</time>
      </trkpt>
      <trkpt lat="46.73866" lon="5.53005">
        <ele>242</ele>
        <time>2020-10-22T10:05:07Z</time>
      </trkpt>
      <trkpt lat="46.73865" lon="5.53005">
        <ele>242</ele>
        <time>2020-10-22T10:05:08Z</time>
      </trkpt>
      <trkpt lat="46.73856" lon="5.52997">
        <ele>242</ele>
        <time>2020-10-22T10:05:16Z</time>
      </trkpt>
      <trkpt lat="46.73846" lon="5.52992">
        <ele>242</ele>
        <time>2020-10-22T10:05:26Z</time>
      </trkpt>
      <trkpt lat="46.73835" lon="5.52986">
        <ele>242</ele>
        <time>2020-10-22T10:05:36Z</time>
      </trkpt>
      <trkpt lat="46.7383" lon="5.52978">
        <ele>242</ele>
        <time>2020-10-22T10:05:46Z</time>
      </trkpt>
      <trkpt lat="46.73821" lon="5.52967">
        <ele>242</ele>
        <time>2020-10-22T10:05:56Z</time>
      </trkpt>
      <trkpt lat="46.7381" lon="5.52962">
        <ele>242</ele>
        <time>2020-10-22T10:06:07Z</time>
      </trkpt>
      <trkpt lat="46.73789" lon="5.52939">
        <ele>243</ele>
        <time>2020-10-22T10:06:31Z</time>
      </trkpt>
      <trkpt lat="46.73786" lon="5.52933">
        <ele>243</ele>
        <time>2020-10-22T10:06:37Z</time>
      </trkpt>
      <trkpt lat="46.73779" lon="5.5293">
        <ele>243</ele>
        <time>2020-10-22T10:06:45Z</time>
      </trkpt>
      <trkpt lat="46.73774" lon="5.52918">
        <ele>242</ele>
        <time>2020-10-22T10:06:55Z</time>
      </trkpt>
      <trkpt lat="46.73773" lon="5.52909">
        <ele>242</ele>
        <time>2020-10-22T10:07:00Z</time>
      </trkpt>
      <trkpt lat="46.73762" lon="5.52897">
        <ele>241</ele>
        <time>2020-10-22T10:07:16Z</time>
      </trkpt>
      <trkpt lat="46.7376" lon="5.52889">
        <ele>241</ele>
        <time>2020-10-22T10:07:20Z</time>
      </trkpt>
      <trkpt lat="46.73757" lon="5.52883">
        <ele>240</ele>
        <time>2020-10-22T10:07:26Z</time>
      </trkpt>
      <trkpt lat="46.73755" lon="5.52876">
        <ele>240</ele>
        <time>2020-10-22T10:07:34Z</time>
      </trkpt>
      <trkpt lat="46.73748" lon="5.52867">
        <ele>240</ele>
        <time>2020-10-22T10:07:47Z</time>
      </trkpt>
      <trkpt lat="46.73742" lon="5.52847">
        <ele>240</ele>
        <time>2020-10-22T10:08:01Z</time>
      </trkpt>
      <trkpt lat="46.73733" lon="5.52825">
        <ele>240</ele>
        <time>2020-10-22T10:08:19Z</time>
      </trkpt>
      <trkpt lat="46.73724" lon="5.52813">
        <ele>240</ele>
        <time>2020-10-22T10:08:30Z</time>
      </trkpt>
      <trkpt lat="46.73719" lon="5.52806">
        <ele>240</ele>
        <time>2020-10-22T10:08:37Z</time>
      </trkpt>
      <trkpt lat="46.73717" lon="5.52791">
        <ele>240</ele>
        <time>2020-10-22T10:08:47Z</time>
      </trkpt>
      <trkpt lat="46.73713" lon="5.52783">
        <ele>240</ele>
        <time>2020-10-22T10:08:51Z</time>
      </trkpt>
      <trkpt lat="46.73712" lon="5.52775">
        <ele>240</ele>
        <time>2020-10-22T10:08:55Z</time>
      </trkpt>
      <trkpt lat="46.73701" lon="5.52764">
        <ele>241</ele>
        <time>2020-10-22T10:09:06Z</time>
      </trkpt>
      <trkpt lat="46.73676" lon="5.52735">
        <ele>240</ele>
        <time>2020-10-22T10:09:37Z</time>
      </trkpt>
      <trkpt lat="46.73665" lon="5.52722">
        <ele>240</ele>
        <time>2020-10-22T10:09:51Z</time>
      </trkpt>
      <trkpt lat="46.73659" lon="5.52701">
        <ele>241</ele>
        <time>2020-10-22T10:10:09Z</time>
      </trkpt>
      <trkpt lat="46.73665" lon="5.52698">
        <ele>245</ele>
        <time>2020-10-22T10:10:25Z</time>
      </trkpt>
      <trkpt lat="46.73672" lon="5.52689">
        <ele>247</ele>
        <time>2020-10-22T10:10:36Z</time>
      </trkpt>
      <trkpt lat="46.73674" lon="5.52679">
        <ele>249</ele>
        <time>2020-10-22T10:10:43Z</time>
      </trkpt>
      <trkpt lat="46.73668" lon="5.5266">
        <ele>250</ele>
        <time>2020-10-22T10:10:58Z</time>
      </trkpt>
      <trkpt lat="46.73667" lon="5.52648">
        <ele>252</ele>
        <time>2020-10-22T10:11:12Z</time>
      </trkpt>
      <trkpt lat="46.73673" lon="5.52635">
        <ele>254</ele>
        <time>2020-10-22T10:11:24Z</time>
      </trkpt>
      <trkpt lat="46.73676" lon="5.52619">
        <ele>256</ele>
        <time>2020-10-22T10:11:39Z</time>
      </trkpt>
      <trkpt lat="46.73678" lon="5.52609">
        <ele>256</ele>
        <time>2020-10-22T10:11:47Z</time>
      </trkpt>
      <trkpt lat="46.73679" lon="5.526">
        <ele>257</ele>
        <time>2020-10-22T10:11:55Z</time>
      </trkpt>
      <trkpt lat="46.73676" lon="5.52594">
        <ele>257</ele>
        <time>2020-10-22T10:12:02Z</time>
      </trkpt>
      <trkpt lat="46.73677" lon="5.52587">
        <ele>257</ele>
        <time>2020-10-22T10:12:10Z</time>
      </trkpt>
      <trkpt lat="46.73687" lon="5.52557">
        <ele>256</ele>
        <time>2020-10-22T10:12:34Z</time>
      </trkpt>
      <trkpt lat="46.73691" lon="5.52549">
        <ele>256</ele>
        <time>2020-10-22T10:12:42Z</time>
      </trkpt>
      <trkpt lat="46.7369" lon="5.52544">
        <ele>256</ele>
        <time>2020-10-22T10:12:45Z</time>
      </trkpt>
      <trkpt lat="46.73683" lon="5.52537">
        <ele>255</ele>
        <time>2020-10-22T10:12:53Z</time>
      </trkpt>
      <trkpt lat="46.73679" lon="5.52535">
        <ele>254</ele>
        <time>2020-10-22T10:12:59Z</time>
      </trkpt>
      <trkpt lat="46.73673" lon="5.52533">
        <ele>254</ele>
        <time>2020-10-22T10:13:03Z</time>
      </trkpt>
      <trkpt lat="46.73666" lon="5.52535">
        <ele>253</ele>
        <time>2020-10-22T10:13:11Z</time>
      </trkpt>
      <trkpt lat="46.73655" lon="5.52533">
        <ele>252</ele>
        <time>2020-10-22T10:13:22Z</time>
      </trkpt>
      <trkpt lat="46.73649" lon="5.52528">
        <ele>252</ele>
        <time>2020-10-22T10:13:29Z</time>
      </trkpt>
      <trkpt lat="46.73634" lon="5.52524">
        <ele>250</ele>
        <time>2020-10-22T10:13:42Z</time>
      </trkpt>
      <trkpt lat="46.73629" lon="5.52524">
        <ele>249</ele>
        <time>2020-10-22T10:13:48Z</time>
      </trkpt>
      <trkpt lat="46.73623" lon="5.52522">
        <ele>249</ele>
        <time>2020-10-22T10:13:54Z</time>
      </trkpt>
      <trkpt lat="46.73617" lon="5.52519">
        <ele>248</ele>
        <time>2020-10-22T10:13:59Z</time>
      </trkpt>
      <trkpt lat="46.73608" lon="5.52517">
        <ele>248</ele>
        <time>2020-10-22T10:14:09Z</time>
      </trkpt>
      <trkpt lat="46.73604" lon="5.52516">
        <ele>247</ele>
        <time>2020-10-22T10:14:12Z</time>
      </trkpt>
      <trkpt lat="46.73599" lon="5.52511">
        <ele>247</ele>
        <time>2020-10-22T10:14:18Z</time>
      </trkpt>
      <trkpt lat="46.73584" lon="5.52507">
        <ele>245</ele>
        <time>2020-10-22T10:14:32Z</time>
      </trkpt>
      <trkpt lat="46.73579" lon="5.52506">
        <ele>245</ele>
        <time>2020-10-22T10:14:38Z</time>
      </trkpt>
      <trkpt lat="46.73571" lon="5.52507">
        <ele>243</ele>
        <time>2020-10-22T10:14:47Z</time>
      </trkpt>
      <trkpt lat="46.73565" lon="5.52509">
        <ele>243</ele>
        <time>2020-10-22T10:14:51Z</time>
      </trkpt>
      <trkpt lat="46.7356" lon="5.52513">
        <ele>243</ele>
        <time>2020-10-22T10:14:56Z</time>
      </trkpt>
      <trkpt lat="46.73546" lon="5.5253">
        <ele>242</ele>
        <time>2020-10-22T10:15:12Z</time>
      </trkpt>
      <trkpt lat="46.73541" lon="5.52533">
        <ele>242</ele>
        <time>2020-10-22T10:15:17Z</time>
      </trkpt>
      <trkpt lat="46.73535" lon="5.52538">
        <ele>242</ele>
        <time>2020-10-22T10:15:23Z</time>
      </trkpt>
      <trkpt lat="46.7353" lon="5.52537">
        <ele>242</ele>
        <time>2020-10-22T10:15:28Z</time>
      </trkpt>
      <trkpt lat="46.73524" lon="5.52541">
        <ele>241</ele>
        <time>2020-10-22T10:15:33Z</time>
      </trkpt>
      <trkpt lat="46.73518" lon="5.52544">
        <ele>241</ele>
        <time>2020-10-22T10:15:38Z</time>
      </trkpt>
      <trkpt lat="46.73512" lon="5.52545">
        <ele>240</ele>
        <time>2020-10-22T10:15:43Z</time>
      </trkpt>
      <trkpt lat="46.735" lon="5.52561">
        <ele>240</ele>
        <time>2020-10-22T10:15:54Z</time>
      </trkpt>
      <trkpt lat="46.73493" lon="5.52564">
        <ele>240</ele>
        <time>2020-10-22T10:15:59Z</time>
      </trkpt>
      <trkpt lat="46.73488" lon="5.52563">
        <ele>240</ele>
        <time>2020-10-22T10:16:03Z</time>
      </trkpt>
      <trkpt lat="46.73482" lon="5.52558">
        <ele>240</ele>
        <time>2020-10-22T10:16:11Z</time>
      </trkpt>
      <trkpt lat="46.73477" lon="5.52551">
        <ele>240</ele>
        <time>2020-10-22T10:16:18Z</time>
      </trkpt>
      <trkpt lat="46.73476" lon="5.52542">
        <ele>240</ele>
        <time>2020-10-22T10:16:22Z</time>
      </trkpt>
      <trkpt lat="46.73474" lon="5.52535">
        <ele>240</ele>
        <time>2020-10-22T10:16:28Z</time>
      </trkpt>
      <trkpt lat="46.73473" lon="5.52526">
        <ele>239</ele>
        <time>2020-10-22T10:16:33Z</time>
      </trkpt>
      <trkpt lat="46.73468" lon="5.52516">
        <ele>239</ele>
        <time>2020-10-22T10:16:42Z</time>
      </trkpt>
      <trkpt lat="46.73466" lon="5.52505">
        <ele>239</ele>
        <time>2020-10-22T10:16:56Z</time>
      </trkpt>
      <trkpt lat="46.73466" lon="5.52485">
        <ele>239</ele>
        <time>2020-10-22T10:17:10Z</time>
      </trkpt>
      <trkpt lat="46.73464" lon="5.52467">
        <ele>239</ele>
        <time>2020-10-22T10:17:21Z</time>
      </trkpt>
      <trkpt lat="46.73463" lon="5.52479">
        <ele>240</ele>
        <time>2020-10-22T10:17:49Z</time>
      </trkpt>
      <trkpt lat="46.7345" lon="5.52519">
        <ele>240</ele>
        <time>2020-10-22T10:18:11Z</time>
      </trkpt>
      <trkpt lat="46.73446" lon="5.52525">
        <ele>240</ele>
        <time>2020-10-22T10:18:15Z</time>
      </trkpt>
      <trkpt lat="46.73442" lon="5.5253">
        <ele>240</ele>
        <time>2020-10-22T10:18:20Z</time>
      </trkpt>
      <trkpt lat="46.73426" lon="5.52524">
        <ele>240</ele>
        <time>2020-10-22T10:18:35Z</time>
      </trkpt>
      <trkpt lat="46.73427" lon="5.52525">
        <ele>241</ele>
        <time>2020-10-22T10:18:52Z</time>
      </trkpt>
      <trkpt lat="46.73427" lon="5.52536">
        <ele>241</ele>
        <time>2020-10-22T10:18:57Z</time>
      </trkpt>
      <trkpt lat="46.73427" lon="5.52544">
        <ele>241</ele>
        <time>2020-10-22T10:19:03Z</time>
      </trkpt>
      <trkpt lat="46.73423" lon="5.52561">
        <ele>241</ele>
        <time>2020-10-22T10:19:13Z</time>
      </trkpt>
      <trkpt lat="46.73405" lon="5.52611">
        <ele>243</ele>
        <time>2020-10-22T10:19:44Z</time>
      </trkpt>
      <trkpt lat="46.73384" lon="5.52652">
        <ele>245</ele>
        <time>2020-10-22T10:20:17Z</time>
      </trkpt>
      <trkpt lat="46.73381" lon="5.52659">
        <ele>246</ele>
        <time>2020-10-22T10:20:21Z</time>
      </trkpt>
      <trkpt lat="46.73377" lon="5.52666">
        <ele>246</ele>
        <time>2020-10-22T10:20:26Z</time>
      </trkpt>
      <trkpt lat="46.73372" lon="5.5267">
        <ele>246</ele>
        <time>2020-10-22T10:20:30Z</time>
      </trkpt>
      <trkpt lat="46.73369" lon="5.52678">
        <ele>247</ele>
        <time>2020-10-22T10:20:35Z</time>
      </trkpt>
      <trkpt lat="46.73364" lon="5.52683">
        <ele>247</ele>
        <time>2020-10-22T10:20:41Z</time>
      </trkpt>
      <trkpt lat="46.73346" lon="5.52696">
        <ele>248</ele>
        <time>2020-10-22T10:21:04Z</time>
      </trkpt>
      <trkpt lat="46.7334" lon="5.52696">
        <ele>249</ele>
        <time>2020-10-22T10:21:12Z</time>
      </trkpt>
      <trkpt lat="46.73344" lon="5.52704">
        <ele>250</ele>
        <time>2020-10-22T10:21:48Z</time>
      </trkpt>
      <trkpt lat="46.73349" lon="5.52696">
        <ele>250</ele>
        <time>2020-10-22T10:22:42Z</time>
      </trkpt>
      <trkpt lat="46.73353" lon="5.5269">
        <ele>249</ele>
        <time>2020-10-22T10:22:47Z</time>
      </trkpt>
      <trkpt lat="46.73357" lon="5.52685">
        <ele>248</ele>
        <time>2020-10-22T10:22:52Z</time>
      </trkpt>
      <trkpt lat="46.73363" lon="5.5268">
        <ele>249</ele>
        <time>2020-10-22T10:23:01Z</time>
      </trkpt>
      <trkpt lat="46.73366" lon="5.5267">
        <ele>248</ele>
        <time>2020-10-22T10:23:09Z</time>
      </trkpt>
      <trkpt lat="46.73368" lon="5.52662">
        <ele>248</ele>
        <time>2020-10-22T10:23:14Z</time>
      </trkpt>
      <trkpt lat="46.73373" lon="5.52654">
        <ele>247</ele>
        <time>2020-10-22T10:23:22Z</time>
      </trkpt>
      <trkpt lat="46.73375" lon="5.52639">
        <ele>247</ele>
        <time>2020-10-22T10:23:30Z</time>
      </trkpt>
      <trkpt lat="46.73377" lon="5.52632">
        <ele>248</ele>
        <time>2020-10-22T10:23:36Z</time>
      </trkpt>
      <trkpt lat="46.73375" lon="5.52624">
        <ele>248</ele>
        <time>2020-10-22T10:23:42Z</time>
      </trkpt>
      <trkpt lat="46.73373" lon="5.52599">
        <ele>250</ele>
        <time>2020-10-22T10:24:01Z</time>
      </trkpt>
      <trkpt lat="46.73369" lon="5.52584">
        <ele>250</ele>
        <time>2020-10-22T10:24:10Z</time>
      </trkpt>
      <trkpt lat="46.73363" lon="5.5258">
        <ele>251</ele>
        <time>2020-10-22T10:24:15Z</time>
      </trkpt>
      <trkpt lat="46.7336" lon="5.52573">
        <ele>252</ele>
        <time>2020-10-22T10:24:20Z</time>
      </trkpt>
      <trkpt lat="46.73355" lon="5.52551">
        <ele>253</ele>
        <time>2020-10-22T10:24:37Z</time>
      </trkpt>
      <trkpt lat="46.73357" lon="5.52544">
        <ele>255</ele>
        <time>2020-10-22T10:24:43Z</time>
      </trkpt>
      <trkpt lat="46.73353" lon="5.5253">
        <ele>256</ele>
        <time>2020-10-22T10:24:53Z</time>
      </trkpt>
      <trkpt lat="46.73346" lon="5.52518">
        <ele>257</ele>
        <time>2020-10-22T10:25:03Z</time>
      </trkpt>
      <trkpt lat="46.73343" lon="5.52514">
        <ele>258</ele>
        <time>2020-10-22T10:25:07Z</time>
      </trkpt>
      <trkpt lat="46.73338" lon="5.52512">
        <ele>258</ele>
        <time>2020-10-22T10:25:10Z</time>
      </trkpt>
      <trkpt lat="46.73335" lon="5.52509">
        <ele>258</ele>
        <time>2020-10-22T10:25:14Z</time>
      </trkpt>
      <trkpt lat="46.73313" lon="5.52499">
        <ele>260</ele>
        <time>2020-10-22T10:25:35Z</time>
      </trkpt>
      <trkpt lat="46.73309" lon="5.52497">
        <ele>261</ele>
        <time>2020-10-22T10:25:39Z</time>
      </trkpt>
      <trkpt lat="46.73304" lon="5.52495">
        <ele>261</ele>
        <time>2020-10-22T10:25:45Z</time>
      </trkpt>
      <trkpt lat="46.73273" lon="5.52478">
        <ele>264</ele>
        <time>2020-10-22T10:26:14Z</time>
      </trkpt>
      <trkpt lat="46.7327" lon="5.5247">
        <ele>264</ele>
        <time>2020-10-22T10:26:19Z</time>
      </trkpt>
      <trkpt lat="46.73271" lon="5.5246">
        <ele>265</ele>
        <time>2020-10-22T10:26:26Z</time>
      </trkpt>
      <trkpt lat="46.73271" lon="5.52447">
        <ele>264</ele>
        <time>2020-10-22T10:26:38Z</time>
      </trkpt>
      <trkpt lat="46.73273" lon="5.5244">
        <ele>265</ele>
        <time>2020-10-22T10:26:44Z</time>
      </trkpt>
      <trkpt lat="46.73279" lon="5.52438">
        <ele>266</ele>
        <time>2020-10-22T10:27:27Z</time>
      </trkpt>
      <trkpt lat="46.73275" lon="5.52445">
        <ele>263</ele>
        <time>2020-10-22T10:28:43Z</time>
      </trkpt>
      <trkpt lat="46.73272" lon="5.52451">
        <ele>264</ele>
        <time>2020-10-22T10:28:47Z</time>
      </trkpt>
      <trkpt lat="46.73267" lon="5.52455">
        <ele>264</ele>
        <time>2020-10-22T10:28:52Z</time>
      </trkpt>
      <trkpt lat="46.73265" lon="5.5246">
        <ele>264</ele>
        <time>2020-10-22T10:28:55Z</time>
      </trkpt>
      <trkpt lat="46.73233" lon="5.52476">
        <ele>263</ele>
        <time>2020-10-22T10:29:24Z</time>
      </trkpt>
      <trkpt lat="46.73228" lon="5.5248">
        <ele>262</ele>
        <time>2020-10-22T10:29:29Z</time>
      </trkpt>
      <trkpt lat="46.73223" lon="5.52484">
        <ele>262</ele>
        <time>2020-10-22T10:29:34Z</time>
      </trkpt>
      <trkpt lat="46.73218" lon="5.52484">
        <ele>263</ele>
        <time>2020-10-22T10:29:38Z</time>
      </trkpt>
      <trkpt lat="46.73211" lon="5.52489">
        <ele>262</ele>
        <time>2020-10-22T10:29:44Z</time>
      </trkpt>
      <trkpt lat="46.73209" lon="5.52499">
        <ele>262</ele>
        <time>2020-10-22T10:29:47Z</time>
      </trkpt>
      <trkpt lat="46.73206" lon="5.52506">
        <ele>264</ele>
        <time>2020-10-22T10:29:51Z</time>
      </trkpt>
      <trkpt lat="46.73201" lon="5.52511">
        <ele>263</ele>
        <time>2020-10-22T10:29:57Z</time>
      </trkpt>
      <trkpt lat="46.73195" lon="5.52519">
        <ele>263</ele>
        <time>2020-10-22T10:30:08Z</time>
      </trkpt>
      <trkpt lat="46.73189" lon="5.52524">
        <ele>263</ele>
        <time>2020-10-22T10:30:12Z</time>
      </trkpt>
      <trkpt lat="46.73184" lon="5.52523">
        <ele>263</ele>
        <time>2020-10-22T10:30:16Z</time>
      </trkpt>
      <trkpt lat="46.73177" lon="5.52522">
        <ele>264</ele>
        <time>2020-10-22T10:30:21Z</time>
      </trkpt>
      <trkpt lat="46.73163" lon="5.52509">
        <ele>264</ele>
        <time>2020-10-22T10:30:33Z</time>
      </trkpt>
      <trkpt lat="46.73158" lon="5.52504">
        <ele>265</ele>
        <time>2020-10-22T10:30:37Z</time>
      </trkpt>
      <trkpt lat="46.73151" lon="5.525">
        <ele>265</ele>
        <time>2020-10-22T10:30:42Z</time>
      </trkpt>
      <trkpt lat="46.7314" lon="5.52499">
        <ele>266</ele>
        <time>2020-10-22T10:30:50Z</time>
      </trkpt>
      <trkpt lat="46.73129" lon="5.52496">
        <ele>267</ele>
        <time>2020-10-22T10:31:01Z</time>
      </trkpt>
      <trkpt lat="46.73124" lon="5.52493">
        <ele>267</ele>
        <time>2020-10-22T10:31:06Z</time>
      </trkpt>
      <trkpt lat="46.73118" lon="5.52492">
        <ele>267</ele>
        <time>2020-10-22T10:31:11Z</time>
      </trkpt>
      <trkpt lat="46.73114" lon="5.52493">
        <ele>267</ele>
        <time>2020-10-22T10:31:15Z</time>
      </trkpt>
      <trkpt lat="46.73106" lon="5.52491">
        <ele>267</ele>
        <time>2020-10-22T10:31:22Z</time>
      </trkpt>
      <trkpt lat="46.73101" lon="5.52492">
        <ele>267</ele>
        <time>2020-10-22T10:31:26Z</time>
      </trkpt>
      <trkpt lat="46.73086" lon="5.52493">
        <ele>268</ele>
        <time>2020-10-22T10:31:39Z</time>
      </trkpt>
      <trkpt lat="46.73077" lon="5.52491">
        <ele>268</ele>
        <time>2020-10-22T10:31:47Z</time>
      </trkpt>
      <trkpt lat="46.73069" lon="5.52486">
        <ele>268</ele>
        <time>2020-10-22T10:31:54Z</time>
      </trkpt>
      <trkpt lat="46.73065" lon="5.52485">
        <ele>268</ele>
        <time>2020-10-22T10:31:58Z</time>
      </trkpt>
      <trkpt lat="46.73043" lon="5.52479">
        <ele>267</ele>
        <time>2020-10-22T10:32:16Z</time>
      </trkpt>
      <trkpt lat="46.73037" lon="5.52476">
        <ele>267</ele>
        <time>2020-10-22T10:32:23Z</time>
      </trkpt>
      <trkpt lat="46.73033" lon="5.52476">
        <ele>268</ele>
        <time>2020-10-22T10:32:27Z</time>
      </trkpt>
      <trkpt lat="46.73024" lon="5.52475">
        <ele>267</ele>
        <time>2020-10-22T10:32:34Z</time>
      </trkpt>
      <trkpt lat="46.73011" lon="5.52473">
        <ele>267</ele>
        <time>2020-10-22T10:32:45Z</time>
      </trkpt>
      <trkpt lat="46.73007" lon="5.52474">
        <ele>267</ele>
        <time>2020-10-22T10:32:47Z</time>
      </trkpt>
      <trkpt lat="46.72999" lon="5.52469">
        <ele>267</ele>
        <time>2020-10-22T10:32:53Z</time>
      </trkpt>
      <trkpt lat="46.72995" lon="5.5247">
        <ele>268</ele>
        <time>2020-10-22T10:32:56Z</time>
      </trkpt>
      <trkpt lat="46.72989" lon="5.52467">
        <ele>268</ele>
        <time>2020-10-22T10:33:04Z</time>
      </trkpt>
      <trkpt lat="46.72983" lon="5.52468">
        <ele>267</ele>
        <time>2020-10-22T10:33:10Z</time>
      </trkpt>
      <trkpt lat="46.72954" lon="5.52463">
        <ele>267</ele>
        <time>2020-10-22T10:33:31Z</time>
      </trkpt>
      <trkpt lat="46.72944" lon="5.52469">
        <ele>267</ele>
        <time>2020-10-22T10:33:39Z</time>
      </trkpt>
      <trkpt lat="46.7294" lon="5.52472">
        <ele>267</ele>
        <time>2020-10-22T10:33:43Z</time>
      </trkpt>
      <trkpt lat="46.72936" lon="5.52471">
        <ele>267</ele>
        <time>2020-10-22T10:33:47Z</time>
      </trkpt>
      <trkpt lat="46.72931" lon="5.52471">
        <ele>267</ele>
        <time>2020-10-22T10:33:51Z</time>
      </trkpt>
      <trkpt lat="46.72927" lon="5.52469">
        <ele>267</ele>
        <time>2020-10-22T10:33:54Z</time>
      </trkpt>
      <trkpt lat="46.72923" lon="5.52469">
        <ele>267</ele>
        <time>2020-10-22T10:33:58Z</time>
      </trkpt>
      <trkpt lat="46.72913" lon="5.52468">
        <ele>267</ele>
        <time>2020-10-22T10:34:05Z</time>
      </trkpt>
      <trkpt lat="46.72905" lon="5.52471">
        <ele>267</ele>
        <time>2020-10-22T10:34:12Z</time>
      </trkpt>
      <trkpt lat="46.72901" lon="5.5247">
        <ele>268</ele>
        <time>2020-10-22T10:34:15Z</time>
      </trkpt>
      <trkpt lat="46.72892" lon="5.52469">
        <ele>267</ele>
        <time>2020-10-22T10:34:23Z</time>
      </trkpt>
      <trkpt lat="46.72886" lon="5.52473">
        <ele>269</ele>
        <time>2020-10-22T10:34:29Z</time>
      </trkpt>
      <trkpt lat="46.72874" lon="5.52474">
        <ele>268</ele>
        <time>2020-10-22T10:34:39Z</time>
      </trkpt>
      <trkpt lat="46.72866" lon="5.52474">
        <ele>268</ele>
        <time>2020-10-22T10:34:43Z</time>
      </trkpt>
      <trkpt lat="46.72861" lon="5.52477">
        <ele>268</ele>
        <time>2020-10-22T10:34:48Z</time>
      </trkpt>
      <trkpt lat="46.7285" lon="5.52477">
        <ele>269</ele>
        <time>2020-10-22T10:34:57Z</time>
      </trkpt>
      <trkpt lat="46.72844" lon="5.52478">
        <ele>269</ele>
        <time>2020-10-22T10:35:02Z</time>
      </trkpt>
      <trkpt lat="46.72839" lon="5.5248">
        <ele>269</ele>
        <time>2020-10-22T10:35:07Z</time>
      </trkpt>
      <trkpt lat="46.72822" lon="5.52479">
        <ele>270</ele>
        <time>2020-10-22T10:35:20Z</time>
      </trkpt>
      <trkpt lat="46.72787" lon="5.52483">
        <ele>270</ele>
        <time>2020-10-22T10:35:51Z</time>
      </trkpt>
      <trkpt lat="46.72749" lon="5.52492">
        <ele>270</ele>
        <time>2020-10-22T10:36:24Z</time>
      </trkpt>
      <trkpt lat="46.72726" lon="5.525">
        <ele>270</ele>
        <time>2020-10-22T10:36:46Z</time>
      </trkpt>
      <trkpt lat="46.72704" lon="5.52499">
        <ele>269</ele>
        <time>2020-10-22T10:37:05Z</time>
      </trkpt>
      <trkpt lat="46.72697" lon="5.52496">
        <ele>269</ele>
        <time>2020-10-22T10:37:12Z</time>
      </trkpt>
      <trkpt lat="46.72658" lon="5.52477">
        <ele>271</ele>
        <time>2020-10-22T10:37:48Z</time>
      </trkpt>
      <trkpt lat="46.72637" lon="5.52469">
        <ele>273</ele>
        <time>2020-10-22T10:38:06Z</time>
      </trkpt>
      <trkpt lat="46.72625" lon="5.52468">
        <ele>274</ele>
        <time>2020-10-22T10:38:17Z</time>
      </trkpt>
      <trkpt lat="46.72617" lon="5.52465">
        <ele>275</ele>
        <time>2020-10-22T10:38:25Z</time>
      </trkpt>
      <trkpt lat="46.72597" lon="5.52463">
        <ele>276</ele>
        <time>2020-10-22T10:38:42Z</time>
      </trkpt>
      <trkpt lat="46.72567" lon="5.52462">
        <ele>282</ele>
        <time>2020-10-22T10:39:07Z</time>
      </trkpt>
      <trkpt lat="46.72561" lon="5.52463">
        <ele>281</ele>
        <time>2020-10-22T10:39:12Z</time>
      </trkpt>
      <trkpt lat="46.72555" lon="5.52464">
        <ele>282</ele>
        <time>2020-10-22T10:39:18Z</time>
      </trkpt>
      <trkpt lat="46.72543" lon="5.52469">
        <ele>281</ele>
        <time>2020-10-22T10:39:29Z</time>
      </trkpt>
      <trkpt lat="46.72537" lon="5.52469">
        <ele>282</ele>
        <time>2020-10-22T10:39:34Z</time>
      </trkpt>
      <trkpt lat="46.72524" lon="5.52471">
        <ele>283</ele>
        <time>2020-10-22T10:39:45Z</time>
      </trkpt>
      <trkpt lat="46.72519" lon="5.52474">
        <ele>283</ele>
        <time>2020-10-22T10:39:51Z</time>
      </trkpt>
      <trkpt lat="46.72513" lon="5.52475">
        <ele>283</ele>
        <time>2020-10-22T10:39:57Z</time>
      </trkpt>
      <trkpt lat="46.7251" lon="5.52476">
        <ele>283</ele>
        <time>2020-10-22T10:40:01Z</time>
      </trkpt>
      <trkpt lat="46.72485" lon="5.52474">
        <ele>286</ele>
        <time>2020-10-22T10:40:22Z</time>
      </trkpt>
      <trkpt lat="46.72478" lon="5.52472">
        <ele>285</ele>
        <time>2020-10-22T10:40:31Z</time>
      </trkpt>
      <trkpt lat="46.72467" lon="5.52469">
        <ele>286</ele>
        <time>2020-10-22T10:40:43Z</time>
      </trkpt>
      <trkpt lat="46.7246" lon="5.5247">
        <ele>287</ele>
        <time>2020-10-22T10:40:49Z</time>
      </trkpt>
      <trkpt lat="46.72454" lon="5.52468">
        <ele>286</ele>
        <time>2020-10-22T10:40:54Z</time>
      </trkpt>
      <trkpt lat="46.72448" lon="5.5247">
        <ele>286</ele>
        <time>2020-10-22T10:41:00Z</time>
      </trkpt>
      <trkpt lat="46.7244" lon="5.52472">
        <ele>286</ele>
        <time>2020-10-22T10:41:08Z</time>
      </trkpt>
      <trkpt lat="46.72428" lon="5.52472">
        <ele>285</ele>
        <time>2020-10-22T10:41:17Z</time>
      </trkpt>
      <trkpt lat="46.72415" lon="5.5247">
        <ele>286</ele>
        <time>2020-10-22T10:41:27Z</time>
      </trkpt>
      <trkpt lat="46.7241" lon="5.52468">
        <ele>286</ele>
        <time>2020-10-22T10:41:33Z</time>
      </trkpt>
      <trkpt lat="46.72402" lon="5.52467">
        <ele>286</ele>
        <time>2020-10-22T10:41:39Z</time>
      </trkpt>
      <trkpt lat="46.72395" lon="5.52466">
        <ele>286</ele>
        <time>2020-10-22T10:41:43Z</time>
      </trkpt>
      <trkpt lat="46.72389" lon="5.52464">
        <ele>286</ele>
        <time>2020-10-22T10:41:48Z</time>
      </trkpt>
      <trkpt lat="46.72378" lon="5.52466">
        <ele>287</ele>
        <time>2020-10-22T10:41:57Z</time>
      </trkpt>
      <trkpt lat="46.72371" lon="5.52469">
        <ele>287</ele>
        <time>2020-10-22T10:42:01Z</time>
      </trkpt>
      <trkpt lat="46.72362" lon="5.52467">
        <ele>287</ele>
        <time>2020-10-22T10:42:11Z</time>
      </trkpt>
      <trkpt lat="46.72356" lon="5.52465">
        <ele>287</ele>
        <time>2020-10-22T10:42:15Z</time>
      </trkpt>
      <trkpt lat="46.72347" lon="5.52467">
        <ele>287</ele>
        <time>2020-10-22T10:42:24Z</time>
      </trkpt>
      <trkpt lat="46.72335" lon="5.52468">
        <ele>288</ele>
        <time>2020-10-22T10:42:34Z</time>
      </trkpt>
      <trkpt lat="46.72329" lon="5.52467">
        <ele>287</ele>
        <time>2020-10-22T10:42:39Z</time>
      </trkpt>
      <trkpt lat="46.72323" lon="5.52465">
        <ele>287</ele>
        <time>2020-10-22T10:42:45Z</time>
      </trkpt>
      <trkpt lat="46.72309" lon="5.52471">
        <ele>287</ele>
        <time>2020-10-22T10:43:01Z</time>
      </trkpt>
      <trkpt lat="46.72287" lon="5.52469">
        <ele>285</ele>
        <time>2020-10-22T10:43:23Z</time>
      </trkpt>
      <trkpt lat="46.72281" lon="5.5247">
        <ele>285</ele>
        <time>2020-10-22T10:43:29Z</time>
      </trkpt>
      <trkpt lat="46.72275" lon="5.52468">
        <ele>285</ele>
        <time>2020-10-22T10:43:34Z</time>
      </trkpt>
      <trkpt lat="46.72252" lon="5.52466">
        <ele>283</ele>
        <time>2020-10-22T10:43:51Z</time>
      </trkpt>
      <trkpt lat="46.72247" lon="5.52464">
        <ele>282</ele>
        <time>2020-10-22T10:43:55Z</time>
      </trkpt>
      <trkpt lat="46.72241" lon="5.52466">
        <ele>282</ele>
        <time>2020-10-22T10:44:00Z</time>
      </trkpt>
      <trkpt lat="46.72235" lon="5.52465">
        <ele>282</ele>
        <time>2020-10-22T10:44:05Z</time>
      </trkpt>
      <trkpt lat="46.7223" lon="5.52463">
        <ele>282</ele>
        <time>2020-10-22T10:44:10Z</time>
      </trkpt>
      <trkpt lat="46.72221" lon="5.52458">
        <ele>282</ele>
        <time>2020-10-22T10:44:22Z</time>
      </trkpt>
      <trkpt lat="46.72215" lon="5.52457">
        <ele>282</ele>
        <time>2020-10-22T10:44:26Z</time>
      </trkpt>
      <trkpt lat="46.72208" lon="5.52458">
        <ele>282</ele>
        <time>2020-10-22T10:44:32Z</time>
      </trkpt>
      <trkpt lat="46.72184" lon="5.52456">
        <ele>279</ele>
        <time>2020-10-22T10:44:53Z</time>
      </trkpt>
      <trkpt lat="46.72178" lon="5.52455">
        <ele>279</ele>
        <time>2020-10-22T10:44:58Z</time>
      </trkpt>
      <trkpt lat="46.72173" lon="5.52457">
        <ele>279</ele>
        <time>2020-10-22T10:45:03Z</time>
      </trkpt>
      <trkpt lat="46.72138" lon="5.52459">
        <ele>275</ele>
        <time>2020-10-22T10:45:33Z</time>
      </trkpt>
      <trkpt lat="46.72132" lon="5.52458">
        <ele>275</ele>
        <time>2020-10-22T10:45:38Z</time>
      </trkpt>
      <trkpt lat="46.72119" lon="5.52455">
        <ele>275</ele>
        <time>2020-10-22T10:45:49Z</time>
      </trkpt>
      <trkpt lat="46.72098" lon="5.52458">
        <ele>272</ele>
        <time>2020-10-22T10:46:09Z</time>
      </trkpt>
      <trkpt lat="46.72092" lon="5.52456">
        <ele>272</ele>
        <time>2020-10-22T10:46:14Z</time>
      </trkpt>
      <trkpt lat="46.72086" lon="5.52455">
        <ele>270</ele>
        <time>2020-10-22T10:46:20Z</time>
      </trkpt>
      <trkpt lat="46.72076" lon="5.52457">
        <ele>269</ele>
        <time>2020-10-22T10:46:31Z</time>
      </trkpt>
      <trkpt lat="46.7207" lon="5.52458">
        <ele>271</ele>
        <time>2020-10-22T10:46:36Z</time>
      </trkpt>
      <trkpt lat="46.72053" lon="5.52458">
        <ele>266</ele>
        <time>2020-10-22T10:46:52Z</time>
      </trkpt>
      <trkpt lat="46.72049" lon="5.52458">
        <ele>267</ele>
        <time>2020-10-22T10:46:55Z</time>
      </trkpt>
      <trkpt lat="46.72045" lon="5.52458">
        <ele>266</ele>
        <time>2020-10-22T10:46:59Z</time>
      </trkpt>
      <trkpt lat="46.72035" lon="5.52452">
        <ele>265</ele>
        <time>2020-10-22T10:47:10Z</time>
      </trkpt>
      <trkpt lat="46.7203" lon="5.52452">
        <ele>264</ele>
        <time>2020-10-22T10:47:15Z</time>
      </trkpt>
      <trkpt lat="46.72028" lon="5.52457">
        <ele>265</ele>
        <time>2020-10-22T10:47:18Z</time>
      </trkpt>
      <trkpt lat="46.72021" lon="5.52455">
        <ele>264</ele>
        <time>2020-10-22T10:47:31Z</time>
      </trkpt>
      <trkpt lat="46.72015" lon="5.52453">
        <ele>264</ele>
        <time>2020-10-22T10:47:37Z</time>
      </trkpt>
      <trkpt lat="46.72006" lon="5.52451">
        <ele>261</ele>
        <time>2020-10-22T10:47:48Z</time>
      </trkpt>
      <trkpt lat="46.71999" lon="5.52449">
        <ele>261</ele>
        <time>2020-10-22T10:47:53Z</time>
      </trkpt>
      <trkpt lat="46.71993" lon="5.52448">
        <ele>261</ele>
        <time>2020-10-22T10:47:58Z</time>
      </trkpt>
      <trkpt lat="46.71984" lon="5.5245">
        <ele>261</ele>
        <time>2020-10-22T10:48:06Z</time>
      </trkpt>
      <trkpt lat="46.7198" lon="5.52454">
        <ele>260</ele>
        <time>2020-10-22T10:48:08Z</time>
      </trkpt>
      <trkpt lat="46.71969" lon="5.52465">
        <ele>259</ele>
        <time>2020-10-22T10:48:16Z</time>
      </trkpt>
      <trkpt lat="46.71967" lon="5.5247">
        <ele>258</ele>
        <time>2020-10-22T10:48:19Z</time>
      </trkpt>
      <trkpt lat="46.71964" lon="5.52478">
        <ele>258</ele>
        <time>2020-10-22T10:48:22Z</time>
      </trkpt>
      <trkpt lat="46.71962" lon="5.52484">
        <ele>259</ele>
        <time>2020-10-22T10:48:25Z</time>
      </trkpt>
      <trkpt lat="46.71961" lon="5.52489">
        <ele>260</ele>
        <time>2020-10-22T10:48:29Z</time>
      </trkpt>
      <trkpt lat="46.71959" lon="5.52494">
        <ele>260</ele>
        <time>2020-10-22T10:48:32Z</time>
      </trkpt>
      <trkpt lat="46.71955" lon="5.52506">
        <ele>258</ele>
        <time>2020-10-22T10:48:39Z</time>
      </trkpt>
      <trkpt lat="46.7195" lon="5.52522">
        <ele>260</ele>
        <time>2020-10-22T10:48:47Z</time>
      </trkpt>
      <trkpt lat="46.71948" lon="5.5253">
        <ele>259</ele>
        <time>2020-10-22T10:48:53Z</time>
      </trkpt>
      <trkpt lat="46.71928" lon="5.52559">
        <ele>257</ele>
        <time>2020-10-22T10:49:17Z</time>
      </trkpt>
      <trkpt lat="46.71923" lon="5.52563">
        <ele>257</ele>
        <time>2020-10-22T10:49:21Z</time>
      </trkpt>
      <trkpt lat="46.7192" lon="5.52569">
        <ele>257</ele>
        <time>2020-10-22T10:49:26Z</time>
      </trkpt>
      <trkpt lat="46.71902" lon="5.52578">
        <ele>258</ele>
        <time>2020-10-22T10:49:39Z</time>
      </trkpt>
      <trkpt lat="46.71897" lon="5.52587">
        <ele>258</ele>
        <time>2020-10-22T10:49:47Z</time>
      </trkpt>
      <trkpt lat="46.71892" lon="5.52572">
        <ele>258</ele>
        <time>2020-10-22T10:50:01Z</time>
      </trkpt>
      <trkpt lat="46.71891" lon="5.52557">
        <ele>258</ele>
        <time>2020-10-22T10:50:11Z</time>
      </trkpt>
      <trkpt lat="46.71892" lon="5.52546">
        <ele>258</ele>
        <time>2020-10-22T10:50:16Z</time>
      </trkpt>
      <trkpt lat="46.71896" lon="5.52528">
        <ele>259</ele>
        <time>2020-10-22T10:50:35Z</time>
      </trkpt>
      <trkpt lat="46.71891" lon="5.52535">
        <ele>259</ele>
        <time>2020-10-22T10:50:45Z</time>
      </trkpt>
      <trkpt lat="46.71888" lon="5.52542">
        <ele>259</ele>
        <time>2020-10-22T10:50:48Z</time>
      </trkpt>
      <trkpt lat="46.71884" lon="5.52548">
        <ele>260</ele>
        <time>2020-10-22T10:50:52Z</time>
      </trkpt>
      <trkpt lat="46.7188" lon="5.52547">
        <ele>265</ele>
        <time>2020-10-22T10:51:40Z</time>
      </trkpt>
      <trkpt lat="46.71878" lon="5.52537">
        <ele>267</ele>
        <time>2020-10-22T10:51:52Z</time>
      </trkpt>
      <trkpt lat="46.71884" lon="5.52515">
        <ele>269</ele>
        <time>2020-10-22T10:52:19Z</time>
      </trkpt>
      <trkpt lat="46.71879" lon="5.52512">
        <ele>270</ele>
        <time>2020-10-22T10:52:58Z</time>
      </trkpt>
      <trkpt lat="46.71876" lon="5.52507">
        <ele>270</ele>
        <time>2020-10-22T10:53:51Z</time>
      </trkpt>
      <trkpt lat="46.71874" lon="5.525">
        <ele>271</ele>
        <time>2020-10-22T10:53:59Z</time>
      </trkpt>
      <trkpt lat="46.71863" lon="5.52487">
        <ele>271</ele>
        <time>2020-10-22T10:54:12Z</time>
      </trkpt>
      <trkpt lat="46.71851" lon="5.52484">
        <ele>273</ele>
        <time>2020-10-22T10:54:22Z</time>
      </trkpt>
      <trkpt lat="46.71842" lon="5.52475">
        <ele>275</ele>
        <time>2020-10-22T10:54:38Z</time>
      </trkpt>
      <trkpt lat="46.71834" lon="5.52459">
        <ele>276</ele>
        <time>2020-10-22T10:54:53Z</time>
      </trkpt>
      <trkpt lat="46.71831" lon="5.52453">
        <ele>277</ele>
        <time>2020-10-22T10:54:58Z</time>
      </trkpt>
      <trkpt lat="46.71824" lon="5.52444">
        <ele>279</ele>
        <time>2020-10-22T10:55:08Z</time>
      </trkpt>
      <trkpt lat="46.71819" lon="5.5244">
        <ele>279</ele>
        <time>2020-10-22T10:55:14Z</time>
      </trkpt>
      <trkpt lat="46.71814" lon="5.52437">
        <ele>280</ele>
        <time>2020-10-22T10:55:22Z</time>
      </trkpt>
      <trkpt lat="46.71805" lon="5.52432">
        <ele>281</ele>
        <time>2020-10-22T10:55:33Z</time>
      </trkpt>
      <trkpt lat="46.71798" lon="5.52429">
        <ele>281</ele>
        <time>2020-10-22T10:55:37Z</time>
      </trkpt>
      <trkpt lat="46.71793" lon="5.52428">
        <ele>281</ele>
        <time>2020-10-22T10:55:40Z</time>
      </trkpt>
      <trkpt lat="46.71788" lon="5.52431">
        <ele>282</ele>
        <time>2020-10-22T10:55:44Z</time>
      </trkpt>
      <trkpt lat="46.71782" lon="5.52429">
        <ele>282</ele>
        <time>2020-10-22T10:55:49Z</time>
      </trkpt>
      <trkpt lat="46.71775" lon="5.52426">
        <ele>282</ele>
        <time>2020-10-22T10:55:53Z</time>
      </trkpt>
      <trkpt lat="46.71767" lon="5.52425">
        <ele>281</ele>
        <time>2020-10-22T10:56:02Z</time>
      </trkpt>
      <trkpt lat="46.71762" lon="5.52421">
        <ele>281</ele>
        <time>2020-10-22T10:56:10Z</time>
      </trkpt>
      <trkpt lat="46.7175" lon="5.52419">
        <ele>281</ele>
        <time>2020-10-22T10:56:22Z</time>
      </trkpt>
      <trkpt lat="46.71741" lon="5.52419">
        <ele>282</ele>
        <time>2020-10-22T10:56:30Z</time>
      </trkpt>
      <trkpt lat="46.71734" lon="5.52415">
        <ele>282</ele>
        <time>2020-10-22T10:56:39Z</time>
      </trkpt>
      <trkpt lat="46.71728" lon="5.52401">
        <ele>282</ele>
        <time>2020-10-22T10:56:52Z</time>
      </trkpt>
      <trkpt lat="46.71719" lon="5.52392">
        <ele>282</ele>
        <time>2020-10-22T10:57:06Z</time>
      </trkpt>
      <trkpt lat="46.71713" lon="5.52389">
        <ele>282</ele>
        <time>2020-10-22T10:57:10Z</time>
      </trkpt>
      <trkpt lat="46.71708" lon="5.52382">
        <ele>281</ele>
        <time>2020-10-22T10:57:15Z</time>
      </trkpt>
      <trkpt lat="46.71705" lon="5.52374">
        <ele>280</ele>
        <time>2020-10-22T10:57:20Z</time>
      </trkpt>
      <trkpt lat="46.71701" lon="5.5237">
        <ele>280</ele>
        <time>2020-10-22T10:57:24Z</time>
      </trkpt>
      <trkpt lat="46.71695" lon="5.52367">
        <ele>280</ele>
        <time>2020-10-22T10:57:28Z</time>
      </trkpt>
      <trkpt lat="46.7169" lon="5.52362">
        <ele>279</ele>
        <time>2020-10-22T10:57:32Z</time>
      </trkpt>
      <trkpt lat="46.71686" lon="5.52357">
        <ele>279</ele>
        <time>2020-10-22T10:57:35Z</time>
      </trkpt>
      <trkpt lat="46.71673" lon="5.52351">
        <ele>279</ele>
        <time>2020-10-22T10:57:47Z</time>
      </trkpt>
      <trkpt lat="46.7166" lon="5.52351">
        <ele>279</ele>
        <time>2020-10-22T10:57:58Z</time>
      </trkpt>
      <trkpt lat="46.71653" lon="5.52348">
        <ele>279</ele>
        <time>2020-10-22T10:58:07Z</time>
      </trkpt>
      <trkpt lat="46.7164" lon="5.5235">
        <ele>281</ele>
        <time>2020-10-22T10:58:17Z</time>
      </trkpt>
      <trkpt lat="46.71634" lon="5.52352">
        <ele>282</ele>
        <time>2020-10-22T10:58:23Z</time>
      </trkpt>
      <trkpt lat="46.71618" lon="5.52354">
        <ele>284</ele>
        <time>2020-10-22T10:58:38Z</time>
      </trkpt>
      <trkpt lat="46.71607" lon="5.5236">
        <ele>286</ele>
        <time>2020-10-22T10:58:53Z</time>
      </trkpt>
      <trkpt lat="46.716" lon="5.52368">
        <ele>289</ele>
        <time>2020-10-22T10:59:07Z</time>
      </trkpt>
      <trkpt lat="46.71582" lon="5.52374">
        <ele>290</ele>
        <time>2020-10-22T10:59:24Z</time>
      </trkpt>
      <trkpt lat="46.71569" lon="5.52375">
        <ele>292</ele>
        <time>2020-10-22T10:59:38Z</time>
      </trkpt>
      <trkpt lat="46.71563" lon="5.52373">
        <ele>292</ele>
        <time>2020-10-22T10:59:46Z</time>
      </trkpt>
      <trkpt lat="46.71554" lon="5.52376">
        <ele>293</ele>
        <time>2020-10-22T10:59:58Z</time>
      </trkpt>
      <trkpt lat="46.71548" lon="5.52377">
        <ele>293</ele>
        <time>2020-10-22T11:00:04Z</time>
      </trkpt>
      <trkpt lat="46.71541" lon="5.52378">
        <ele>293</ele>
        <time>2020-10-22T11:00:19Z</time>
      </trkpt>
      <trkpt lat="46.71536" lon="5.52373">
        <ele>293</ele>
        <time>2020-10-22T11:00:24Z</time>
      </trkpt>
      <trkpt lat="46.71524" lon="5.52372">
        <ele>293</ele>
        <time>2020-10-22T11:00:34Z</time>
      </trkpt>
      <trkpt lat="46.71516" lon="5.52369">
        <ele>293</ele>
        <time>2020-10-22T11:00:44Z</time>
      </trkpt>
      <trkpt lat="46.71508" lon="5.52367">
        <ele>294</ele>
        <time>2020-10-22T11:00:50Z</time>
      </trkpt>
      <trkpt lat="46.71503" lon="5.52368">
        <ele>293</ele>
        <time>2020-10-22T11:00:54Z</time>
      </trkpt>
      <trkpt lat="46.71497" lon="5.52367">
        <ele>294</ele>
        <time>2020-10-22T11:00:59Z</time>
      </trkpt>
      <trkpt lat="46.71491" lon="5.52365">
        <ele>293</ele>
        <time>2020-10-22T11:01:07Z</time>
      </trkpt>
      <trkpt lat="46.71485" lon="5.52366">
        <ele>294</ele>
        <time>2020-10-22T11:01:12Z</time>
      </trkpt>
      <trkpt lat="46.71471" lon="5.52364">
        <ele>295</ele>
        <time>2020-10-22T11:01:27Z</time>
      </trkpt>
      <trkpt lat="46.71465" lon="5.52366">
        <ele>294</ele>
        <time>2020-10-22T11:01:32Z</time>
      </trkpt>
      <trkpt lat="46.7144" lon="5.52364">
        <ele>294</ele>
        <time>2020-10-22T11:01:52Z</time>
      </trkpt>
      <trkpt lat="46.71429" lon="5.52366">
        <ele>294</ele>
        <time>2020-10-22T11:02:01Z</time>
      </trkpt>
      <trkpt lat="46.71417" lon="5.52358">
        <ele>294</ele>
        <time>2020-10-22T11:02:13Z</time>
      </trkpt>
      <trkpt lat="46.71411" lon="5.52357">
        <ele>293</ele>
        <time>2020-10-22T11:02:19Z</time>
      </trkpt>
      <trkpt lat="46.71399" lon="5.52359">
        <ele>293</ele>
        <time>2020-10-22T11:02:30Z</time>
      </trkpt>
      <trkpt lat="46.71394" lon="5.52354">
        <ele>292</ele>
        <time>2020-10-22T11:02:37Z</time>
      </trkpt>
      <trkpt lat="46.71371" lon="5.5235">
        <ele>293</ele>
        <time>2020-10-22T11:02:58Z</time>
      </trkpt>
      <trkpt lat="46.71345" lon="5.52352">
        <ele>293</ele>
        <time>2020-10-22T11:03:21Z</time>
      </trkpt>
      <trkpt lat="46.71339" lon="5.52351">
        <ele>293</ele>
        <time>2020-10-22T11:03:26Z</time>
      </trkpt>
      <trkpt lat="46.71321" lon="5.5236">
        <ele>293</ele>
        <time>2020-10-22T11:03:44Z</time>
      </trkpt>
      <trkpt lat="46.71314" lon="5.52359">
        <ele>293</ele>
        <time>2020-10-22T11:03:48Z</time>
      </trkpt>
      <trkpt lat="46.71308" lon="5.52366">
        <ele>294</ele>
        <time>2020-10-22T11:03:55Z</time>
      </trkpt>
      <trkpt lat="46.71308" lon="5.52375">
        <ele>294</ele>
        <time>2020-10-22T11:04:00Z</time>
      </trkpt>
      <trkpt lat="46.71309" lon="5.52384">
        <ele>295</ele>
        <time>2020-10-22T11:04:04Z</time>
      </trkpt>
      <trkpt lat="46.71308" lon="5.52383">
        <ele>296</ele>
        <time>2020-10-22T11:05:09Z</time>
      </trkpt>
      <trkpt lat="46.71301" lon="5.52377">
        <ele>295</ele>
        <time>2020-10-22T11:05:27Z</time>
      </trkpt>
      <trkpt lat="46.71284" lon="5.52381">
        <ele>293</ele>
        <time>2020-10-22T11:08:48Z</time>
      </trkpt>
      <trkpt lat="46.71278" lon="5.52382">
        <ele>293</ele>
        <time>2020-10-22T11:08:53Z</time>
      </trkpt>
      <trkpt lat="46.71272" lon="5.52385">
        <ele>294</ele>
        <time>2020-10-22T11:08:57Z</time>
      </trkpt>
      <trkpt lat="46.71266" lon="5.52387">
        <ele>293</ele>
        <time>2020-10-22T11:09:00Z</time>
      </trkpt>
      <trkpt lat="46.71263" lon="5.52393">
        <ele>293</ele>
        <time>2020-10-22T11:09:05Z</time>
      </trkpt>
      <trkpt lat="46.71253" lon="5.52393">
        <ele>293</ele>
        <time>2020-10-22T11:09:17Z</time>
      </trkpt>
      <trkpt lat="46.71241" lon="5.52397">
        <ele>293</ele>
        <time>2020-10-22T11:09:27Z</time>
      </trkpt>
      <trkpt lat="46.71231" lon="5.52391">
        <ele>292</ele>
        <time>2020-10-22T11:09:37Z</time>
      </trkpt>
      <trkpt lat="46.71227" lon="5.52386">
        <ele>291</ele>
        <time>2020-10-22T11:09:43Z</time>
      </trkpt>
      <trkpt lat="46.71227" lon="5.52376">
        <ele>291</ele>
        <time>2020-10-22T11:09:52Z</time>
      </trkpt>
      <trkpt lat="46.7122" lon="5.52364">
        <ele>288</ele>
        <time>2020-10-22T11:10:01Z</time>
      </trkpt>
      <trkpt lat="46.71213" lon="5.52359">
        <ele>287</ele>
        <time>2020-10-22T11:10:10Z</time>
      </trkpt>
      <trkpt lat="46.71206" lon="5.5235">
        <ele>287</ele>
        <time>2020-10-22T11:10:21Z</time>
      </trkpt>
      <trkpt lat="46.712" lon="5.52343">
        <ele>286</ele>
        <time>2020-10-22T11:10:29Z</time>
      </trkpt>
      <trkpt lat="46.71195" lon="5.52339">
        <ele>286</ele>
        <time>2020-10-22T11:10:37Z</time>
      </trkpt>
      <trkpt lat="46.71191" lon="5.52329">
        <ele>284</ele>
        <time>2020-10-22T11:11:08Z</time>
      </trkpt>
      <trkpt lat="46.71184" lon="5.5234">
        <ele>284</ele>
        <time>2020-10-22T11:11:29Z</time>
      </trkpt>
      <trkpt lat="46.7118" lon="5.52345">
        <ele>285</ele>
        <time>2020-10-22T11:11:34Z</time>
      </trkpt>
      <trkpt lat="46.71172" lon="5.52346">
        <ele>285</ele>
        <time>2020-10-22T11:11:40Z</time>
      </trkpt>
      <trkpt lat="46.71155" lon="5.52352">
        <ele>285</ele>
        <time>2020-10-22T11:11:54Z</time>
      </trkpt>
      <trkpt lat="46.71149" lon="5.52356">
        <ele>286</ele>
        <time>2020-10-22T11:11:59Z</time>
      </trkpt>
      <trkpt lat="46.71141" lon="5.52362">
        <ele>286</ele>
        <time>2020-10-22T11:12:09Z</time>
      </trkpt>
      <trkpt lat="46.71135" lon="5.52367">
        <ele>286</ele>
        <time>2020-10-22T11:12:18Z</time>
      </trkpt>
      <trkpt lat="46.7113" lon="5.52373">
        <ele>285</ele>
        <time>2020-10-22T11:12:30Z</time>
      </trkpt>
      <trkpt lat="46.71122" lon="5.52374">
        <ele>287</ele>
        <time>2020-10-22T11:12:42Z</time>
      </trkpt>
      <trkpt lat="46.71115" lon="5.52378">
        <ele>286</ele>
        <time>2020-10-22T11:12:49Z</time>
      </trkpt>
      <trkpt lat="46.71105" lon="5.52389">
        <ele>285</ele>
        <time>2020-10-22T11:12:59Z</time>
      </trkpt>
      <trkpt lat="46.71101" lon="5.52394">
        <ele>285</ele>
        <time>2020-10-22T11:13:03Z</time>
      </trkpt>
      <trkpt lat="46.71095" lon="5.52396">
        <ele>285</ele>
        <time>2020-10-22T11:13:07Z</time>
      </trkpt>
      <trkpt lat="46.7109" lon="5.52401">
        <ele>285</ele>
        <time>2020-10-22T11:13:13Z</time>
      </trkpt>
      <trkpt lat="46.71084" lon="5.52405">
        <ele>286</ele>
        <time>2020-10-22T11:13:17Z</time>
      </trkpt>
      <trkpt lat="46.71079" lon="5.5241">
        <ele>285</ele>
        <time>2020-10-22T11:13:22Z</time>
      </trkpt>
      <trkpt lat="46.71074" lon="5.52415">
        <ele>284</ele>
        <time>2020-10-22T11:13:27Z</time>
      </trkpt>
      <trkpt lat="46.71075" lon="5.52424">
        <ele>285</ele>
        <time>2020-10-22T11:13:35Z</time>
      </trkpt>
      <trkpt lat="46.71085" lon="5.52434">
        <ele>285</ele>
        <time>2020-10-22T11:13:46Z</time>
      </trkpt>
      <trkpt lat="46.71092" lon="5.52434">
        <ele>285</ele>
        <time>2020-10-22T11:13:50Z</time>
      </trkpt>
      <trkpt lat="46.71097" lon="5.52432">
        <ele>285</ele>
        <time>2020-10-22T11:13:53Z</time>
      </trkpt>
      <trkpt lat="46.71115" lon="5.52434">
        <ele>287</ele>
        <time>2020-10-22T11:14:07Z</time>
      </trkpt>
      <trkpt lat="46.71121" lon="5.52438">
        <ele>287</ele>
        <time>2020-10-22T11:14:11Z</time>
      </trkpt>
      <trkpt lat="46.71126" lon="5.52438">
        <ele>287</ele>
        <time>2020-10-22T11:14:15Z</time>
      </trkpt>
      <trkpt lat="46.71147" lon="5.52446">
        <ele>289</ele>
        <time>2020-10-22T11:14:44Z</time>
      </trkpt>
      <trkpt lat="46.71153" lon="5.52452">
        <ele>289</ele>
        <time>2020-10-22T11:14:56Z</time>
      </trkpt>
      <trkpt lat="46.71157" lon="5.5246">
        <ele>291</ele>
        <time>2020-10-22T11:15:05Z</time>
      </trkpt>
      <trkpt lat="46.71162" lon="5.52466">
        <ele>291</ele>
        <time>2020-10-22T11:15:10Z</time>
      </trkpt>
      <trkpt lat="46.71165" lon="5.52473">
        <ele>291</ele>
        <time>2020-10-22T11:15:16Z</time>
      </trkpt>
      <trkpt lat="46.71172" lon="5.5247">
        <ele>293</ele>
        <time>2020-10-22T11:15:33Z</time>
      </trkpt>
      <trkpt lat="46.71177" lon="5.52467">
        <ele>294</ele>
        <time>2020-10-22T11:15:37Z</time>
      </trkpt>
      <trkpt lat="46.71186" lon="5.52464">
        <ele>294</ele>
        <time>2020-10-22T11:15:48Z</time>
      </trkpt>
      <trkpt lat="46.71191" lon="5.52466">
        <ele>295</ele>
        <time>2020-10-22T11:15:53Z</time>
      </trkpt>
      <trkpt lat="46.71197" lon="5.52465">
        <ele>295</ele>
        <time>2020-10-22T11:16:01Z</time>
      </trkpt>
      <trkpt lat="46.71222" lon="5.52478">
        <ele>299</ele>
        <time>2020-10-22T11:16:32Z</time>
      </trkpt>
      <trkpt lat="46.71233" lon="5.52509">
        <ele>300</ele>
        <time>2020-10-22T11:16:56Z</time>
      </trkpt>
      <trkpt lat="46.71238" lon="5.5252">
        <ele>301</ele>
        <time>2020-10-22T11:17:22Z</time>
      </trkpt>
      <trkpt lat="46.71248" lon="5.5252">
        <ele>304</ele>
        <time>2020-10-22T11:17:58Z</time>
      </trkpt>
      <trkpt lat="46.71259" lon="5.52513">
        <ele>307</ele>
        <time>2020-10-22T11:18:16Z</time>
      </trkpt>
      <trkpt lat="46.71266" lon="5.52529">
        <ele>307</ele>
        <time>2020-10-22T11:18:24Z</time>
      </trkpt>
      <trkpt lat="46.71282" lon="5.52555">
        <ele>310</ele>
        <time>2020-10-22T11:18:46Z</time>
      </trkpt>
      <trkpt lat="46.71282" lon="5.52566">
        <ele>312</ele>
        <time>2020-10-22T11:18:58Z</time>
      </trkpt>
      <trkpt lat="46.71288" lon="5.52579">
        <ele>312</ele>
        <time>2020-10-22T11:19:10Z</time>
      </trkpt>
      <trkpt lat="46.7129" lon="5.52582">
        <ele>313</ele>
        <time>2020-10-22T11:19:14Z</time>
      </trkpt>
      <trkpt lat="46.71294" lon="5.52594">
        <ele>313</ele>
        <time>2020-10-22T11:19:23Z</time>
      </trkpt>
      <trkpt lat="46.71299" lon="5.52609">
        <ele>312</ele>
        <time>2020-10-22T11:19:33Z</time>
      </trkpt>
      <trkpt lat="46.71306" lon="5.52623">
        <ele>313</ele>
        <time>2020-10-22T11:19:44Z</time>
      </trkpt>
      <trkpt lat="46.71308" lon="5.52631">
        <ele>313</ele>
        <time>2020-10-22T11:19:50Z</time>
      </trkpt>
      <trkpt lat="46.71305" lon="5.52644">
        <ele>312</ele>
        <time>2020-10-22T11:20:03Z</time>
      </trkpt>
      <trkpt lat="46.71307" lon="5.52653">
        <ele>311</ele>
        <time>2020-10-22T11:20:11Z</time>
      </trkpt>
      <trkpt lat="46.71311" lon="5.52659">
        <ele>312</ele>
        <time>2020-10-22T11:20:28Z</time>
      </trkpt>
      <trkpt lat="46.71309" lon="5.52667">
        <ele>310</ele>
        <time>2020-10-22T11:21:00Z</time>
      </trkpt>
      <trkpt lat="46.71305" lon="5.52679">
        <ele>308</ele>
        <time>2020-10-22T11:21:12Z</time>
      </trkpt>
      <trkpt lat="46.71301" lon="5.52686">
        <ele>308</ele>
        <time>2020-10-22T11:21:17Z</time>
      </trkpt>
      <trkpt lat="46.71296" lon="5.52692">
        <ele>308</ele>
        <time>2020-10-22T11:21:22Z</time>
      </trkpt>
      <trkpt lat="46.71292" lon="5.52699">
        <ele>307</ele>
        <time>2020-10-22T11:21:27Z</time>
      </trkpt>
      <trkpt lat="46.71288" lon="5.5271">
        <ele>306</ele>
        <time>2020-10-22T11:21:34Z</time>
      </trkpt>
      <trkpt lat="46.71286" lon="5.52713">
        <ele>306</ele>
        <time>2020-10-22T11:21:37Z</time>
      </trkpt>
      <trkpt lat="46.71278" lon="5.52729">
        <ele>306</ele>
        <time>2020-10-22T11:21:48Z</time>
      </trkpt>
      <trkpt lat="46.71274" lon="5.52739">
        <ele>305</ele>
        <time>2020-10-22T11:21:55Z</time>
      </trkpt>
      <trkpt lat="46.71271" lon="5.52743">
        <ele>306</ele>
        <time>2020-10-22T11:21:59Z</time>
      </trkpt>
      <trkpt lat="46.71267" lon="5.52756">
        <ele>305</ele>
        <time>2020-10-22T11:22:08Z</time>
      </trkpt>
      <trkpt lat="46.71268" lon="5.52766">
        <ele>306</ele>
        <time>2020-10-22T11:22:14Z</time>
      </trkpt>
      <trkpt lat="46.7127" lon="5.52773">
        <ele>306</ele>
        <time>2020-10-22T11:22:17Z</time>
      </trkpt>
      <trkpt lat="46.71272" lon="5.52807">
        <ele>309</ele>
        <time>2020-10-22T11:22:39Z</time>
      </trkpt>
      <trkpt lat="46.71274" lon="5.52811">
        <ele>310</ele>
        <time>2020-10-22T11:22:43Z</time>
      </trkpt>
      <trkpt lat="46.71275" lon="5.52818">
        <ele>311</ele>
        <time>2020-10-22T11:22:46Z</time>
      </trkpt>
      <trkpt lat="46.71278" lon="5.52822">
        <ele>312</ele>
        <time>2020-10-22T11:22:50Z</time>
      </trkpt>
      <trkpt lat="46.71278" lon="5.5283">
        <ele>312</ele>
        <time>2020-10-22T11:22:57Z</time>
      </trkpt>
      <trkpt lat="46.71279" lon="5.52836">
        <ele>313</ele>
        <time>2020-10-22T11:23:01Z</time>
      </trkpt>
      <trkpt lat="46.71283" lon="5.52847">
        <ele>315</ele>
        <time>2020-10-22T11:23:10Z</time>
      </trkpt>
      <trkpt lat="46.71282" lon="5.52858">
        <ele>317</ele>
        <time>2020-10-22T11:23:20Z</time>
      </trkpt>
      <trkpt lat="46.71281" lon="5.52864">
        <ele>318</ele>
        <time>2020-10-22T11:23:24Z</time>
      </trkpt>
      <trkpt lat="46.71281" lon="5.5287">
        <ele>318</ele>
        <time>2020-10-22T11:23:28Z</time>
      </trkpt>
      <trkpt lat="46.71275" lon="5.52907">
        <ele>323</ele>
        <time>2020-10-22T11:23:58Z</time>
      </trkpt>
      <trkpt lat="46.71273" lon="5.52913">
        <ele>323</ele>
        <time>2020-10-22T11:24:02Z</time>
      </trkpt>
      <trkpt lat="46.71274" lon="5.52932">
        <ele>327</ele>
        <time>2020-10-22T11:24:20Z</time>
      </trkpt>
      <trkpt lat="46.71277" lon="5.52942">
        <ele>328</ele>
        <time>2020-10-22T11:24:28Z</time>
      </trkpt>
      <trkpt lat="46.71279" lon="5.52949">
        <ele>330</ele>
        <time>2020-10-22T11:24:34Z</time>
      </trkpt>
      <trkpt lat="46.71279" lon="5.52963">
        <ele>331</ele>
        <time>2020-10-22T11:24:45Z</time>
      </trkpt>
      <trkpt lat="46.71281" lon="5.52968">
        <ele>332</ele>
        <time>2020-10-22T11:24:49Z</time>
      </trkpt>
      <trkpt lat="46.71283" lon="5.52973">
        <ele>332</ele>
        <time>2020-10-22T11:24:53Z</time>
      </trkpt>
      <trkpt lat="46.71291" lon="5.52985">
        <ele>334</ele>
        <time>2020-10-22T11:25:05Z</time>
      </trkpt>
      <trkpt lat="46.71302" lon="5.52993">
        <ele>336</ele>
        <time>2020-10-22T11:25:16Z</time>
      </trkpt>
      <trkpt lat="46.71306" lon="5.52999">
        <ele>336</ele>
        <time>2020-10-22T11:25:23Z</time>
      </trkpt>
      <trkpt lat="46.71311" lon="5.53008">
        <ele>338</ele>
        <time>2020-10-22T11:25:32Z</time>
      </trkpt>
      <trkpt lat="46.71316" lon="5.53014">
        <ele>339</ele>
        <time>2020-10-22T11:25:41Z</time>
      </trkpt>
      <trkpt lat="46.71321" lon="5.5302">
        <ele>340</ele>
        <time>2020-10-22T11:25:53Z</time>
      </trkpt>
      <trkpt lat="46.71315" lon="5.53026">
        <ele>342</ele>
        <time>2020-10-22T11:26:06Z</time>
      </trkpt>
      <trkpt lat="46.71312" lon="5.53029">
        <ele>341</ele>
        <time>2020-10-22T11:26:09Z</time>
      </trkpt>
      <trkpt lat="46.71305" lon="5.53032">
        <ele>342</ele>
        <time>2020-10-22T11:26:16Z</time>
      </trkpt>
      <trkpt lat="46.71302" lon="5.53037">
        <ele>342</ele>
        <time>2020-10-22T11:26:26Z</time>
      </trkpt>
      <trkpt lat="46.71295" lon="5.53041">
        <ele>343</ele>
        <time>2020-10-22T11:26:44Z</time>
      </trkpt>
      <trkpt lat="46.71284" lon="5.53057">
        <ele>346</ele>
        <time>2020-10-22T11:27:09Z</time>
      </trkpt>
      <trkpt lat="46.71285" lon="5.53067">
        <ele>346</ele>
        <time>2020-10-22T11:27:28Z</time>
      </trkpt>
      <trkpt lat="46.71292" lon="5.53076">
        <ele>349</ele>
        <time>2020-10-22T11:28:41Z</time>
      </trkpt>
      <trkpt lat="46.71298" lon="5.53078">
        <ele>349</ele>
        <time>2020-10-22T11:28:45Z</time>
      </trkpt>
      <trkpt lat="46.71327" lon="5.53079">
        <ele>351</ele>
        <time>2020-10-22T11:29:10Z</time>
      </trkpt>
      <trkpt lat="46.71336" lon="5.53079">
        <ele>354</ele>
        <time>2020-10-22T11:29:20Z</time>
      </trkpt>
      <trkpt lat="46.7137" lon="5.53095">
        <ele>359</ele>
        <time>2020-10-22T11:29:53Z</time>
      </trkpt>
      <trkpt lat="46.71386" lon="5.53105">
        <ele>361</ele>
        <time>2020-10-22T11:30:14Z</time>
      </trkpt>
      <trkpt lat="46.71392" lon="5.53107">
        <ele>361</ele>
        <time>2020-10-22T11:30:20Z</time>
      </trkpt>
      <trkpt lat="46.71397" lon="5.53107">
        <ele>361</ele>
        <time>2020-10-22T11:30:26Z</time>
      </trkpt>
      <trkpt lat="46.71404" lon="5.53111">
        <ele>362</ele>
        <time>2020-10-22T11:30:33Z</time>
      </trkpt>
      <trkpt lat="46.71409" lon="5.53117">
        <ele>362</ele>
        <time>2020-10-22T11:30:43Z</time>
      </trkpt>
      <trkpt lat="46.71415" lon="5.53123">
        <ele>363</ele>
        <time>2020-10-22T11:30:54Z</time>
      </trkpt>
      <trkpt lat="46.71422" lon="5.53128">
        <ele>363</ele>
        <time>2020-10-22T11:31:06Z</time>
      </trkpt>
      <trkpt lat="46.71428" lon="5.5314">
        <ele>364</ele>
        <time>2020-10-22T11:31:18Z</time>
      </trkpt>
      <trkpt lat="46.7143" lon="5.53148">
        <ele>365</ele>
        <time>2020-10-22T11:31:40Z</time>
      </trkpt>
      <trkpt lat="46.71432" lon="5.53163">
        <ele>367</ele>
        <time>2020-10-22T11:31:51Z</time>
      </trkpt>
      <trkpt lat="46.7143" lon="5.53174">
        <ele>366</ele>
        <time>2020-10-22T11:32:05Z</time>
      </trkpt>
      <trkpt lat="46.71436" lon="5.53171">
        <ele>366</ele>
        <time>2020-10-22T11:32:53Z</time>
      </trkpt>
      <trkpt lat="46.71434" lon="5.53158">
        <ele>366</ele>
        <time>2020-10-22T11:33:17Z</time>
      </trkpt>
      <trkpt lat="46.71428" lon="5.53149">
        <ele>365</ele>
        <time>2020-10-22T11:33:34Z</time>
      </trkpt>
      <trkpt lat="46.71432" lon="5.53142">
        <ele>364</ele>
        <time>2020-10-22T11:33:49Z</time>
      </trkpt>
      <trkpt lat="46.71435" lon="5.53134">
        <ele>364</ele>
        <time>2020-10-22T11:33:55Z</time>
      </trkpt>
      <trkpt lat="46.71437" lon="5.53126">
        <ele>363</ele>
        <time>2020-10-22T11:34:04Z</time>
      </trkpt>
      <trkpt lat="46.71427" lon="5.53123">
        <ele>361</ele>
        <time>2020-10-22T11:34:47Z</time>
      </trkpt>
      <trkpt lat="46.71423" lon="5.53117">
        <ele>360</ele>
        <time>2020-10-22T11:34:53Z</time>
      </trkpt>
      <trkpt lat="46.7142" lon="5.5311">
        <ele>360</ele>
        <time>2020-10-22T11:34:58Z</time>
      </trkpt>
      <trkpt lat="46.71415" lon="5.53105">
        <ele>359</ele>
        <time>2020-10-22T11:35:09Z</time>
      </trkpt>
      <trkpt lat="46.71407" lon="5.53091">
        <ele>358</ele>
        <time>2020-10-22T11:35:23Z</time>
      </trkpt>
      <trkpt lat="46.71401" lon="5.5309">
        <ele>358</ele>
        <time>2020-10-22T11:35:29Z</time>
      </trkpt>
      <trkpt lat="46.71396" lon="5.53088">
        <ele>358</ele>
        <time>2020-10-22T11:35:35Z</time>
      </trkpt>
      <trkpt lat="46.71391" lon="5.53085">
        <ele>358</ele>
        <time>2020-10-22T11:35:40Z</time>
      </trkpt>
      <trkpt lat="46.71386" lon="5.53082">
        <ele>357</ele>
        <time>2020-10-22T11:35:46Z</time>
      </trkpt>
      <trkpt lat="46.71381" lon="5.53078">
        <ele>357</ele>
        <time>2020-10-22T11:35:52Z</time>
      </trkpt>
      <trkpt lat="46.71376" lon="5.53076">
        <ele>357</ele>
        <time>2020-10-22T11:35:58Z</time>
      </trkpt>
      <trkpt lat="46.7137" lon="5.53072">
        <ele>356</ele>
        <time>2020-10-22T11:36:04Z</time>
      </trkpt>
      <trkpt lat="46.71357" lon="5.53065">
        <ele>354</ele>
        <time>2020-10-22T11:36:15Z</time>
      </trkpt>
      <trkpt lat="46.71345" lon="5.53067">
        <ele>351</ele>
        <time>2020-10-22T11:36:30Z</time>
      </trkpt>
      <trkpt lat="46.71325" lon="5.53059">
        <ele>348</ele>
        <time>2020-10-22T11:36:46Z</time>
      </trkpt>
      <trkpt lat="46.71319" lon="5.53059">
        <ele>348</ele>
        <time>2020-10-22T11:36:50Z</time>
      </trkpt>
      <trkpt lat="46.71303" lon="5.53064">
        <ele>347</ele>
        <time>2020-10-22T11:37:03Z</time>
      </trkpt>
      <trkpt lat="46.71291" lon="5.53065">
        <ele>346</ele>
        <time>2020-10-22T11:37:13Z</time>
      </trkpt>
      <trkpt lat="46.71284" lon="5.53067">
        <ele>346</ele>
        <time>2020-10-22T11:37:18Z</time>
      </trkpt>
      <trkpt lat="46.7128" lon="5.53073">
        <ele>346</ele>
        <time>2020-10-22T11:37:23Z</time>
      </trkpt>
      <trkpt lat="46.71275" lon="5.53075">
        <ele>346</ele>
        <time>2020-10-22T11:37:27Z</time>
      </trkpt>
      <trkpt lat="46.7127" lon="5.53079">
        <ele>346</ele>
        <time>2020-10-22T11:37:32Z</time>
      </trkpt>
      <trkpt lat="46.71264" lon="5.53083">
        <ele>347</ele>
        <time>2020-10-22T11:37:41Z</time>
      </trkpt>
      <trkpt lat="46.71252" lon="5.53087">
        <ele>346</ele>
        <time>2020-10-22T11:37:53Z</time>
      </trkpt>
      <trkpt lat="46.71256" lon="5.53091">
        <ele>346</ele>
        <time>2020-10-22T11:39:06Z</time>
      </trkpt>
      <trkpt lat="46.71263" lon="5.53092">
        <ele>346</ele>
        <time>2020-10-22T11:39:12Z</time>
      </trkpt>
      <trkpt lat="46.71272" lon="5.53091">
        <ele>347</ele>
        <time>2020-10-22T11:39:18Z</time>
      </trkpt>
      <trkpt lat="46.71279" lon="5.53089">
        <ele>347</ele>
        <time>2020-10-22T11:39:24Z</time>
      </trkpt>
      <trkpt lat="46.71285" lon="5.53083">
        <ele>347</ele>
        <time>2020-10-22T11:39:32Z</time>
      </trkpt>
      <trkpt lat="46.71286" lon="5.53073">
        <ele>347</ele>
        <time>2020-10-22T11:39:40Z</time>
      </trkpt>
      <trkpt lat="46.71288" lon="5.53059">
        <ele>345</ele>
        <time>2020-10-22T11:39:49Z</time>
      </trkpt>
      <trkpt lat="46.71291" lon="5.53052">
        <ele>343</ele>
        <time>2020-10-22T11:39:54Z</time>
      </trkpt>
      <trkpt lat="46.71296" lon="5.53047">
        <ele>342</ele>
        <time>2020-10-22T11:39:58Z</time>
      </trkpt>
      <trkpt lat="46.71302" lon="5.53042">
        <ele>342</ele>
        <time>2020-10-22T11:40:05Z</time>
      </trkpt>
      <trkpt lat="46.71313" lon="5.53034">
        <ele>340</ele>
        <time>2020-10-22T11:40:16Z</time>
      </trkpt>
      <trkpt lat="46.71322" lon="5.53029">
        <ele>340</ele>
        <time>2020-10-22T11:40:25Z</time>
      </trkpt>
      <trkpt lat="46.7133" lon="5.53028">
        <ele>339</ele>
        <time>2020-10-22T11:40:34Z</time>
      </trkpt>
      <trkpt lat="46.71335" lon="5.53025">
        <ele>339</ele>
        <time>2020-10-22T11:40:38Z</time>
      </trkpt>
      <trkpt lat="46.71341" lon="5.53023">
        <ele>338</ele>
        <time>2020-10-22T11:40:44Z</time>
      </trkpt>
      <trkpt lat="46.71347" lon="5.5302">
        <ele>338</ele>
        <time>2020-10-22T11:40:50Z</time>
      </trkpt>
      <trkpt lat="46.71357" lon="5.5302">
        <ele>338</ele>
        <time>2020-10-22T11:41:00Z</time>
      </trkpt>
      <trkpt lat="46.71365" lon="5.53019">
        <ele>338</ele>
        <time>2020-10-22T11:41:08Z</time>
      </trkpt>
      <trkpt lat="46.7137" lon="5.53017">
        <ele>337</ele>
        <time>2020-10-22T11:41:14Z</time>
      </trkpt>
      <trkpt lat="46.71378" lon="5.53017">
        <ele>336</ele>
        <time>2020-10-22T11:41:23Z</time>
      </trkpt>
      <trkpt lat="46.71385" lon="5.53021">
        <ele>335</ele>
        <time>2020-10-22T11:41:30Z</time>
      </trkpt>
      <trkpt lat="46.71394" lon="5.5302">
        <ele>334</ele>
        <time>2020-10-22T11:41:38Z</time>
      </trkpt>
      <trkpt lat="46.71401" lon="5.53026">
        <ele>333</ele>
        <time>2020-10-22T11:41:45Z</time>
      </trkpt>
      <trkpt lat="46.71423" lon="5.53038">
        <ele>332</ele>
        <time>2020-10-22T11:42:04Z</time>
      </trkpt>
      <trkpt lat="46.7143" lon="5.53038">
        <ele>331</ele>
        <time>2020-10-22T11:42:12Z</time>
      </trkpt>
      <trkpt lat="46.71439" lon="5.53047">
        <ele>330</ele>
        <time>2020-10-22T11:42:24Z</time>
      </trkpt>
      <trkpt lat="46.71445" lon="5.53057">
        <ele>328</ele>
        <time>2020-10-22T11:42:32Z</time>
      </trkpt>
      <trkpt lat="46.71452" lon="5.53064">
        <ele>329</ele>
        <time>2020-10-22T11:42:40Z</time>
      </trkpt>
      <trkpt lat="46.71463" lon="5.53083">
        <ele>324</ele>
        <time>2020-10-22T11:42:57Z</time>
      </trkpt>
      <trkpt lat="46.71469" lon="5.53092">
        <ele>325</ele>
        <time>2020-10-22T11:43:04Z</time>
      </trkpt>
      <trkpt lat="46.71481" lon="5.53107">
        <ele>323</ele>
        <time>2020-10-22T11:43:17Z</time>
      </trkpt>
      <trkpt lat="46.71486" lon="5.53115">
        <ele>324</ele>
        <time>2020-10-22T11:43:24Z</time>
      </trkpt>
      <trkpt lat="46.71496" lon="5.5313">
        <ele>322</ele>
        <time>2020-10-22T11:43:34Z</time>
      </trkpt>
      <trkpt lat="46.71498" lon="5.53141">
        <ele>320</ele>
        <time>2020-10-22T11:43:43Z</time>
      </trkpt>
      <trkpt lat="46.715" lon="5.53158">
        <ele>320</ele>
        <time>2020-10-22T11:43:52Z</time>
      </trkpt>
      <trkpt lat="46.71495" lon="5.53205">
        <ele>316</ele>
        <time>2020-10-22T11:44:23Z</time>
      </trkpt>
      <trkpt lat="46.71494" lon="5.53217">
        <ele>315</ele>
        <time>2020-10-22T11:44:30Z</time>
      </trkpt>
      <trkpt lat="46.71492" lon="5.53226">
        <ele>313</ele>
        <time>2020-10-22T11:44:37Z</time>
      </trkpt>
      <trkpt lat="46.71486" lon="5.53241">
        <ele>312</ele>
        <time>2020-10-22T11:44:46Z</time>
      </trkpt>
      <trkpt lat="46.71487" lon="5.53264">
        <ele>310</ele>
        <time>2020-10-22T11:45:04Z</time>
      </trkpt>
      <trkpt lat="46.71485" lon="5.53287">
        <ele>308</ele>
        <time>2020-10-22T11:45:13Z</time>
      </trkpt>
      <trkpt lat="46.71481" lon="5.53302">
        <ele>308</ele>
        <time>2020-10-22T11:45:23Z</time>
      </trkpt>
      <trkpt lat="46.71474" lon="5.53316">
        <ele>307</ele>
        <time>2020-10-22T11:45:32Z</time>
      </trkpt>
      <trkpt lat="46.71469" lon="5.53322">
        <ele>307</ele>
        <time>2020-10-22T11:45:38Z</time>
      </trkpt>
      <trkpt lat="46.71464" lon="5.53326">
        <ele>306</ele>
        <time>2020-10-22T11:45:43Z</time>
      </trkpt>
      <trkpt lat="46.71459" lon="5.5333">
        <ele>307</ele>
        <time>2020-10-22T11:45:48Z</time>
      </trkpt>
      <trkpt lat="46.71455" lon="5.53337">
        <ele>306</ele>
        <time>2020-10-22T11:45:52Z</time>
      </trkpt>
      <trkpt lat="46.71449" lon="5.53344">
        <ele>306</ele>
        <time>2020-10-22T11:46:00Z</time>
      </trkpt>
      <trkpt lat="46.71444" lon="5.53348">
        <ele>306</ele>
        <time>2020-10-22T11:46:08Z</time>
      </trkpt>
      <trkpt lat="46.71448" lon="5.53358">
        <ele>303</ele>
        <time>2020-10-22T11:46:22Z</time>
      </trkpt>
      <trkpt lat="46.71451" lon="5.53375">
        <ele>302</ele>
        <time>2020-10-22T11:46:30Z</time>
      </trkpt>
      <trkpt lat="46.71474" lon="5.53408">
        <ele>295</ele>
        <time>2020-10-22T11:47:01Z</time>
      </trkpt>
      <trkpt lat="46.71489" lon="5.53424">
        <ele>292</ele>
        <time>2020-10-22T11:47:16Z</time>
      </trkpt>
      <trkpt lat="46.71499" lon="5.53441">
        <ele>288</ele>
        <time>2020-10-22T11:47:33Z</time>
      </trkpt>
      <trkpt lat="46.71509" lon="5.53454">
        <ele>286</ele>
        <time>2020-10-22T11:47:43Z</time>
      </trkpt>
      <trkpt lat="46.71519" lon="5.53479">
        <ele>281</ele>
        <time>2020-10-22T11:48:03Z</time>
      </trkpt>
      <trkpt lat="46.7152" lon="5.53486">
        <ele>280</ele>
        <time>2020-10-22T11:48:17Z</time>
      </trkpt>
      <trkpt lat="46.71527" lon="5.53494">
        <ele>278</ele>
        <time>2020-10-22T11:48:28Z</time>
      </trkpt>
      <trkpt lat="46.71532" lon="5.53503">
        <ele>276</ele>
        <time>2020-10-22T11:48:35Z</time>
      </trkpt>
      <trkpt lat="46.71537" lon="5.5351">
        <ele>275</ele>
        <time>2020-10-22T11:48:43Z</time>
      </trkpt>
      <trkpt lat="46.71542" lon="5.53515">
        <ele>275</ele>
        <time>2020-10-22T11:48:48Z</time>
      </trkpt>
      <trkpt lat="46.71546" lon="5.53521">
        <ele>274</ele>
        <time>2020-10-22T11:48:54Z</time>
      </trkpt>
      <trkpt lat="46.71546" lon="5.53533">
        <ele>274</ele>
        <time>2020-10-22T11:49:21Z</time>
      </trkpt>
      <trkpt lat="46.71539" lon="5.53543">
        <ele>274</ele>
        <time>2020-10-22T11:49:34Z</time>
      </trkpt>
      <trkpt lat="46.71532" lon="5.5355">
        <ele>273</ele>
        <time>2020-10-22T11:49:42Z</time>
      </trkpt>
      <trkpt lat="46.71526" lon="5.53558">
        <ele>273</ele>
        <time>2020-10-22T11:49:49Z</time>
      </trkpt>
      <trkpt lat="46.71492" lon="5.53588">
        <ele>275</ele>
        <time>2020-10-22T11:50:24Z</time>
      </trkpt>
      <trkpt lat="46.71486" lon="5.53591">
        <ele>275</ele>
        <time>2020-10-22T11:50:29Z</time>
      </trkpt>
      <trkpt lat="46.71481" lon="5.53599">
        <ele>275</ele>
        <time>2020-10-22T11:50:34Z</time>
      </trkpt>
      <trkpt lat="46.71473" lon="5.53604">
        <ele>275</ele>
        <time>2020-10-22T11:50:43Z</time>
      </trkpt>
      <trkpt lat="46.71466" lon="5.53608">
        <ele>276</ele>
        <time>2020-10-22T11:50:48Z</time>
      </trkpt>
      <trkpt lat="46.71456" lon="5.53621">
        <ele>275</ele>
        <time>2020-10-22T11:51:02Z</time>
      </trkpt>
      <trkpt lat="46.71452" lon="5.53628">
        <ele>276</ele>
        <time>2020-10-22T11:51:06Z</time>
      </trkpt>
      <trkpt lat="46.71448" lon="5.53634">
        <ele>276</ele>
        <time>2020-10-22T11:51:10Z</time>
      </trkpt>
      <trkpt lat="46.71443" lon="5.53638">
        <ele>276</ele>
        <time>2020-10-22T11:51:16Z</time>
      </trkpt>
      <trkpt lat="46.7144" lon="5.53644">
        <ele>277</ele>
        <time>2020-10-22T11:51:33Z</time>
      </trkpt>
      <trkpt lat="46.71429" lon="5.53663">
        <ele>276</ele>
        <time>2020-10-22T11:52:02Z</time>
      </trkpt>
      <trkpt lat="46.71413" lon="5.53675">
        <ele>277</ele>
        <time>2020-10-22T11:52:13Z</time>
      </trkpt>
      <trkpt lat="46.71407" lon="5.53678">
        <ele>278</ele>
        <time>2020-10-22T11:52:17Z</time>
      </trkpt>
      <trkpt lat="46.71402" lon="5.53682">
        <ele>278</ele>
        <time>2020-10-22T11:52:21Z</time>
      </trkpt>
      <trkpt lat="46.71387" lon="5.53683">
        <ele>279</ele>
        <time>2020-10-22T11:52:36Z</time>
      </trkpt>
      <trkpt lat="46.71382" lon="5.53682">
        <ele>278</ele>
        <time>2020-10-22T11:52:41Z</time>
      </trkpt>
      <trkpt lat="46.71375" lon="5.53682">
        <ele>279</ele>
        <time>2020-10-22T11:52:47Z</time>
      </trkpt>
      <trkpt lat="46.71369" lon="5.53683">
        <ele>279</ele>
        <time>2020-10-22T11:52:51Z</time>
      </trkpt>
      <trkpt lat="46.71363" lon="5.53683">
        <ele>279</ele>
        <time>2020-10-22T11:52:56Z</time>
      </trkpt>
      <trkpt lat="46.7135" lon="5.53685">
        <ele>279</ele>
        <time>2020-10-22T11:53:06Z</time>
      </trkpt>
      <trkpt lat="46.71345" lon="5.53689">
        <ele>279</ele>
        <time>2020-10-22T11:53:12Z</time>
      </trkpt>
      <trkpt lat="46.71338" lon="5.53691">
        <ele>279</ele>
        <time>2020-10-22T11:53:16Z</time>
      </trkpt>
      <trkpt lat="46.71333" lon="5.53694">
        <ele>280</ele>
        <time>2020-10-22T11:53:21Z</time>
      </trkpt>
      <trkpt lat="46.71321" lon="5.5369">
        <ele>280</ele>
        <time>2020-10-22T11:53:30Z</time>
      </trkpt>
      <trkpt lat="46.71314" lon="5.53691">
        <ele>281</ele>
        <time>2020-10-22T11:53:35Z</time>
      </trkpt>
      <trkpt lat="46.71302" lon="5.53694">
        <ele>281</ele>
        <time>2020-10-22T11:53:44Z</time>
      </trkpt>
      <trkpt lat="46.71292" lon="5.53693">
        <ele>282</ele>
        <time>2020-10-22T11:53:54Z</time>
      </trkpt>
      <trkpt lat="46.71281" lon="5.53699">
        <ele>282</ele>
        <time>2020-10-22T11:54:04Z</time>
      </trkpt>
      <trkpt lat="46.71274" lon="5.53698">
        <ele>282</ele>
        <time>2020-10-22T11:54:08Z</time>
      </trkpt>
      <trkpt lat="46.7127" lon="5.53702">
        <ele>283</ele>
        <time>2020-10-22T11:54:14Z</time>
      </trkpt>
      <trkpt lat="46.71261" lon="5.53704">
        <ele>282</ele>
        <time>2020-10-22T11:54:23Z</time>
      </trkpt>
      <trkpt lat="46.71255" lon="5.53702">
        <ele>283</ele>
        <time>2020-10-22T11:54:29Z</time>
      </trkpt>
      <trkpt lat="46.71249" lon="5.53708">
        <ele>283</ele>
        <time>2020-10-22T11:54:34Z</time>
      </trkpt>
      <trkpt lat="46.71245" lon="5.53712">
        <ele>282</ele>
        <time>2020-10-22T11:54:38Z</time>
      </trkpt>
      <trkpt lat="46.71241" lon="5.53725">
        <ele>283</ele>
        <time>2020-10-22T11:54:46Z</time>
      </trkpt>
      <trkpt lat="46.71238" lon="5.53732">
        <ele>282</ele>
        <time>2020-10-22T11:54:52Z</time>
      </trkpt>
      <trkpt lat="46.71232" lon="5.5374">
        <ele>283</ele>
        <time>2020-10-22T11:55:00Z</time>
      </trkpt>
      <trkpt lat="46.71225" lon="5.53754">
        <ele>283</ele>
        <time>2020-10-22T11:55:12Z</time>
      </trkpt>
      <trkpt lat="46.7122" lon="5.53758">
        <ele>283</ele>
        <time>2020-10-22T11:55:17Z</time>
      </trkpt>
      <trkpt lat="46.71207" lon="5.5377">
        <ele>283</ele>
        <time>2020-10-22T11:55:28Z</time>
      </trkpt>
      <trkpt lat="46.71201" lon="5.53775">
        <ele>283</ele>
        <time>2020-10-22T11:55:31Z</time>
      </trkpt>
      <trkpt lat="46.71196" lon="5.53779">
        <ele>283</ele>
        <time>2020-10-22T11:55:35Z</time>
      </trkpt>
      <trkpt lat="46.71177" lon="5.53785">
        <ele>284</ele>
        <time>2020-10-22T11:55:54Z</time>
      </trkpt>
      <trkpt lat="46.71172" lon="5.53788">
        <ele>284</ele>
        <time>2020-10-22T11:55:57Z</time>
      </trkpt>
      <trkpt lat="46.71169" lon="5.5379">
        <ele>283</ele>
        <time>2020-10-22T11:56:00Z</time>
      </trkpt>
      <trkpt lat="46.71162" lon="5.53795">
        <ele>285</ele>
        <time>2020-10-22T11:56:06Z</time>
      </trkpt>
      <trkpt lat="46.71155" lon="5.53803">
        <ele>284</ele>
        <time>2020-10-22T11:56:13Z</time>
      </trkpt>
      <trkpt lat="46.71151" lon="5.53804">
        <ele>284</ele>
        <time>2020-10-22T11:56:17Z</time>
      </trkpt>
      <trkpt lat="46.71147" lon="5.53808">
        <ele>284</ele>
        <time>2020-10-22T11:56:21Z</time>
      </trkpt>
      <trkpt lat="46.71143" lon="5.5381">
        <ele>284</ele>
        <time>2020-10-22T11:56:24Z</time>
      </trkpt>
      <trkpt lat="46.7114" lon="5.53815">
        <ele>285</ele>
        <time>2020-10-22T11:56:27Z</time>
      </trkpt>
      <trkpt lat="46.71135" lon="5.53818">
        <ele>285</ele>
        <time>2020-10-22T11:56:33Z</time>
      </trkpt>
      <trkpt lat="46.71132" lon="5.53822">
        <ele>285</ele>
        <time>2020-10-22T11:56:37Z</time>
      </trkpt>
      <trkpt lat="46.71128" lon="5.53824">
        <ele>285</ele>
        <time>2020-10-22T11:56:39Z</time>
      </trkpt>
      <trkpt lat="46.7112" lon="5.53832">
        <ele>285</ele>
        <time>2020-10-22T11:56:46Z</time>
      </trkpt>
      <trkpt lat="46.71117" lon="5.53835">
        <ele>285</ele>
        <time>2020-10-22T11:56:50Z</time>
      </trkpt>
      <trkpt lat="46.71108" lon="5.53837">
        <ele>286</ele>
        <time>2020-10-22T11:56:58Z</time>
      </trkpt>
      <trkpt lat="46.71103" lon="5.53839">
        <ele>287</ele>
        <time>2020-10-22T11:57:01Z</time>
      </trkpt>
      <trkpt lat="46.71099" lon="5.53844">
        <ele>287</ele>
        <time>2020-10-22T11:57:07Z</time>
      </trkpt>
      <trkpt lat="46.71095" lon="5.53846">
        <ele>287</ele>
        <time>2020-10-22T11:57:10Z</time>
      </trkpt>
      <trkpt lat="46.71091" lon="5.5385">
        <ele>288</ele>
        <time>2020-10-22T11:57:13Z</time>
      </trkpt>
      <trkpt lat="46.71083" lon="5.53853">
        <ele>288</ele>
        <time>2020-10-22T11:57:20Z</time>
      </trkpt>
      <trkpt lat="46.71076" lon="5.53857">
        <ele>288</ele>
        <time>2020-10-22T11:57:28Z</time>
      </trkpt>
      <trkpt lat="46.71069" lon="5.53859">
        <ele>288</ele>
        <time>2020-10-22T11:57:32Z</time>
      </trkpt>
      <trkpt lat="46.71061" lon="5.53865">
        <ele>288</ele>
        <time>2020-10-22T11:57:40Z</time>
      </trkpt>
      <trkpt lat="46.71057" lon="5.53865">
        <ele>288</ele>
        <time>2020-10-22T11:57:44Z</time>
      </trkpt>
      <trkpt lat="46.71054" lon="5.53868">
        <ele>289</ele>
        <time>2020-10-22T11:57:48Z</time>
      </trkpt>
      <trkpt lat="46.71025" lon="5.53884">
        <ele>290</ele>
        <time>2020-10-22T11:58:13Z</time>
      </trkpt>
      <trkpt lat="46.71017" lon="5.53891">
        <ele>291</ele>
        <time>2020-10-22T11:58:21Z</time>
      </trkpt>
      <trkpt lat="46.71004" lon="5.53897">
        <ele>292</ele>
        <time>2020-10-22T11:58:34Z</time>
      </trkpt>
      <trkpt lat="46.71011" lon="5.53892">
        <ele>293</ele>
        <time>2020-10-22T11:59:07Z</time>
      </trkpt>
      <trkpt lat="46.71027" lon="5.53885">
        <ele>291</ele>
        <time>2020-10-22T11:59:22Z</time>
      </trkpt>
      <trkpt lat="46.71031" lon="5.53881">
        <ele>291</ele>
        <time>2020-10-22T11:59:27Z</time>
      </trkpt>
      <trkpt lat="46.71039" lon="5.5388">
        <ele>291</ele>
        <time>2020-10-22T11:59:35Z</time>
      </trkpt>
      <trkpt lat="46.71063" lon="5.53867">
        <ele>290</ele>
        <time>2020-10-22T11:59:59Z</time>
      </trkpt>
      <trkpt lat="46.71074" lon="5.53861">
        <ele>290</ele>
        <time>2020-10-22T12:00:09Z</time>
      </trkpt>
      <trkpt lat="46.71085" lon="5.53857">
        <ele>290</ele>
        <time>2020-10-22T12:00:18Z</time>
      </trkpt>
      <trkpt lat="46.7109" lon="5.53853">
        <ele>290</ele>
        <time>2020-10-22T12:00:23Z</time>
      </trkpt>
      <trkpt lat="46.71096" lon="5.53851">
        <ele>290</ele>
        <time>2020-10-22T12:00:28Z</time>
      </trkpt>
      <trkpt lat="46.71102" lon="5.53852">
        <ele>290</ele>
        <time>2020-10-22T12:00:33Z</time>
      </trkpt>
      <trkpt lat="46.71109" lon="5.5385">
        <ele>289</ele>
        <time>2020-10-22T12:00:38Z</time>
      </trkpt>
      <trkpt lat="46.71115" lon="5.53847">
        <ele>289</ele>
        <time>2020-10-22T12:00:43Z</time>
      </trkpt>
      <trkpt lat="46.71121" lon="5.53847">
        <ele>289</ele>
        <time>2020-10-22T12:00:48Z</time>
      </trkpt>
      <trkpt lat="46.71124" lon="5.53857">
        <ele>288</ele>
        <time>2020-10-22T12:00:55Z</time>
      </trkpt>
      <trkpt lat="46.71124" lon="5.53866">
        <ele>288</ele>
        <time>2020-10-22T12:01:01Z</time>
      </trkpt>
      <trkpt lat="46.71124" lon="5.53876">
        <ele>289</ele>
        <time>2020-10-22T12:01:07Z</time>
      </trkpt>
      <trkpt lat="46.71126" lon="5.53888">
        <ele>289</ele>
        <time>2020-10-22T12:01:14Z</time>
      </trkpt>
      <trkpt lat="46.71125" lon="5.539">
        <ele>290</ele>
        <time>2020-10-22T12:01:21Z</time>
      </trkpt>
      <trkpt lat="46.71123" lon="5.5391">
        <ele>291</ele>
        <time>2020-10-22T12:01:27Z</time>
      </trkpt>
      <trkpt lat="46.71119" lon="5.53921">
        <ele>292</ele>
        <time>2020-10-22T12:01:34Z</time>
      </trkpt>
      <trkpt lat="46.71116" lon="5.53952">
        <ele>296</ele>
        <time>2020-10-22T12:01:54Z</time>
      </trkpt>
      <trkpt lat="46.71116" lon="5.53961">
        <ele>296</ele>
        <time>2020-10-22T12:01:59Z</time>
      </trkpt>
      <trkpt lat="46.71116" lon="5.53971">
        <ele>294</ele>
        <time>2020-10-22T12:02:07Z</time>
      </trkpt>
      <trkpt lat="46.71117" lon="5.53979">
        <ele>294</ele>
        <time>2020-10-22T12:02:11Z</time>
      </trkpt>
      <trkpt lat="46.71113" lon="5.53984">
        <ele>294</ele>
        <time>2020-10-22T12:02:17Z</time>
      </trkpt>
      <trkpt lat="46.7111" lon="5.53992">
        <ele>295</ele>
        <time>2020-10-22T12:02:22Z</time>
      </trkpt>
      <trkpt lat="46.71108" lon="5.54">
        <ele>295</ele>
        <time>2020-10-22T12:02:27Z</time>
      </trkpt>
      <trkpt lat="46.71103" lon="5.54008">
        <ele>296</ele>
        <time>2020-10-22T12:02:34Z</time>
      </trkpt>
      <trkpt lat="46.71101" lon="5.54016">
        <ele>296</ele>
        <time>2020-10-22T12:02:40Z</time>
      </trkpt>
      <trkpt lat="46.71097" lon="5.54025">
        <ele>296</ele>
        <time>2020-10-22T12:02:45Z</time>
      </trkpt>
      <trkpt lat="46.71092" lon="5.54031">
        <ele>296</ele>
        <time>2020-10-22T12:02:50Z</time>
      </trkpt>
      <trkpt lat="46.71089" lon="5.54036">
        <ele>296</ele>
        <time>2020-10-22T12:02:58Z</time>
      </trkpt>
      <trkpt lat="46.71096" lon="5.54042">
        <ele>297</ele>
        <time>2020-10-22T12:03:21Z</time>
      </trkpt>
      <trkpt lat="46.71103" lon="5.54039">
        <ele>297</ele>
        <time>2020-10-22T12:03:27Z</time>
      </trkpt>
      <trkpt lat="46.71106" lon="5.54031">
        <ele>297</ele>
        <time>2020-10-22T12:03:32Z</time>
      </trkpt>
      <trkpt lat="46.71118" lon="5.54018">
        <ele>299</ele>
        <time>2020-10-22T12:03:47Z</time>
      </trkpt>
      <trkpt lat="46.7113" lon="5.54017">
        <ele>300</ele>
        <time>2020-10-22T12:03:56Z</time>
      </trkpt>
      <trkpt lat="46.71165" lon="5.54044">
        <ele>302</ele>
        <time>2020-10-22T12:04:29Z</time>
      </trkpt>
      <trkpt lat="46.71168" lon="5.54049">
        <ele>302</ele>
        <time>2020-10-22T12:04:33Z</time>
      </trkpt>
      <trkpt lat="46.71173" lon="5.54057">
        <ele>303</ele>
        <time>2020-10-22T12:04:41Z</time>
      </trkpt>
      <trkpt lat="46.71178" lon="5.54062">
        <ele>303</ele>
        <time>2020-10-22T12:04:45Z</time>
      </trkpt>
      <trkpt lat="46.71184" lon="5.54067">
        <ele>303</ele>
        <time>2020-10-22T12:04:52Z</time>
      </trkpt>
      <trkpt lat="46.71202" lon="5.54083">
        <ele>305</ele>
        <time>2020-10-22T12:05:11Z</time>
      </trkpt>
      <trkpt lat="46.71205" lon="5.54087">
        <ele>305</ele>
        <time>2020-10-22T12:05:14Z</time>
      </trkpt>
      <trkpt lat="46.71217" lon="5.54099">
        <ele>306</ele>
        <time>2020-10-22T12:05:26Z</time>
      </trkpt>
      <trkpt lat="46.71223" lon="5.54101">
        <ele>306</ele>
        <time>2020-10-22T12:05:31Z</time>
      </trkpt>
      <trkpt lat="46.71231" lon="5.54115">
        <ele>308</ele>
        <time>2020-10-22T12:05:45Z</time>
      </trkpt>
      <trkpt lat="46.7124" lon="5.54124">
        <ele>310</ele>
        <time>2020-10-22T12:05:55Z</time>
      </trkpt>
      <trkpt lat="46.71244" lon="5.54132">
        <ele>310</ele>
        <time>2020-10-22T12:06:00Z</time>
      </trkpt>
      <trkpt lat="46.71249" lon="5.54136">
        <ele>310</ele>
        <time>2020-10-22T12:06:06Z</time>
      </trkpt>
      <trkpt lat="46.71254" lon="5.5414">
        <ele>310</ele>
        <time>2020-10-22T12:06:11Z</time>
      </trkpt>
      <trkpt lat="46.7126" lon="5.54148">
        <ele>311</ele>
        <time>2020-10-22T12:06:20Z</time>
      </trkpt>
      <trkpt lat="46.71277" lon="5.54169">
        <ele>315</ele>
        <time>2020-10-22T12:06:44Z</time>
      </trkpt>
      <trkpt lat="46.71288" lon="5.54196">
        <ele>317</ele>
        <time>2020-10-22T12:07:04Z</time>
      </trkpt>
      <trkpt lat="46.71288" lon="5.54206">
        <ele>318</ele>
        <time>2020-10-22T12:07:13Z</time>
      </trkpt>
      <trkpt lat="46.71286" lon="5.54216">
        <ele>320</ele>
        <time>2020-10-22T12:07:21Z</time>
      </trkpt>
      <trkpt lat="46.71281" lon="5.54229">
        <ele>321</ele>
        <time>2020-10-22T12:07:38Z</time>
      </trkpt>
      <trkpt lat="46.71281" lon="5.54238">
        <ele>321</ele>
        <time>2020-10-22T12:07:43Z</time>
      </trkpt>
      <trkpt lat="46.71273" lon="5.54272">
        <ele>325</ele>
        <time>2020-10-22T12:08:09Z</time>
      </trkpt>
      <trkpt lat="46.71275" lon="5.54281">
        <ele>326</ele>
        <time>2020-10-22T12:08:14Z</time>
      </trkpt>
      <trkpt lat="46.71273" lon="5.54296">
        <ele>329</ele>
        <time>2020-10-22T12:08:27Z</time>
      </trkpt>
      <trkpt lat="46.71274" lon="5.54305">
        <ele>330</ele>
        <time>2020-10-22T12:08:33Z</time>
      </trkpt>
      <trkpt lat="46.71272" lon="5.54321">
        <ele>332</ele>
        <time>2020-10-22T12:08:46Z</time>
      </trkpt>
      <trkpt lat="46.71274" lon="5.54329">
        <ele>332</ele>
        <time>2020-10-22T12:08:51Z</time>
      </trkpt>
      <trkpt lat="46.71278" lon="5.54339">
        <ele>333</ele>
        <time>2020-10-22T12:09:05Z</time>
      </trkpt>
      <trkpt lat="46.71278" lon="5.54353">
        <ele>335</ele>
        <time>2020-10-22T12:09:16Z</time>
      </trkpt>
      <trkpt lat="46.71279" lon="5.5436">
        <ele>336</ele>
        <time>2020-10-22T12:09:21Z</time>
      </trkpt>
      <trkpt lat="46.71277" lon="5.54368">
        <ele>337</ele>
        <time>2020-10-22T12:09:29Z</time>
      </trkpt>
      <trkpt lat="46.71281" lon="5.54376">
        <ele>337</ele>
        <time>2020-10-22T12:09:34Z</time>
      </trkpt>
      <trkpt lat="46.7128" lon="5.54386">
        <ele>337</ele>
        <time>2020-10-22T12:10:05Z</time>
      </trkpt>
      <trkpt lat="46.71278" lon="5.54391">
        <ele>338</ele>
        <time>2020-10-22T12:10:22Z</time>
      </trkpt>
      <trkpt lat="46.7127" lon="5.54403">
        <ele>337</ele>
        <time>2020-10-22T12:10:36Z</time>
      </trkpt>
      <trkpt lat="46.71265" lon="5.54405">
        <ele>337</ele>
        <time>2020-10-22T12:10:42Z</time>
      </trkpt>
      <trkpt lat="46.7126" lon="5.5441">
        <ele>337</ele>
        <time>2020-10-22T12:10:47Z</time>
      </trkpt>
      <trkpt lat="46.71254" lon="5.54417">
        <ele>337</ele>
        <time>2020-10-22T12:10:54Z</time>
      </trkpt>
      <trkpt lat="46.71246" lon="5.5443">
        <ele>337</ele>
        <time>2020-10-22T12:11:05Z</time>
      </trkpt>
      <trkpt lat="46.71235" lon="5.54441">
        <ele>336</ele>
        <time>2020-10-22T12:11:15Z</time>
      </trkpt>
      <trkpt lat="46.71231" lon="5.5445">
        <ele>336</ele>
        <time>2020-10-22T12:11:22Z</time>
      </trkpt>
      <trkpt lat="46.71226" lon="5.54455">
        <ele>336</ele>
        <time>2020-10-22T12:11:26Z</time>
      </trkpt>
      <trkpt lat="46.71216" lon="5.54465">
        <ele>335</ele>
        <time>2020-10-22T12:11:36Z</time>
      </trkpt>
      <trkpt lat="46.71211" lon="5.54468">
        <ele>334</ele>
        <time>2020-10-22T12:11:41Z</time>
      </trkpt>
      <trkpt lat="46.71202" lon="5.54478">
        <ele>332</ele>
        <time>2020-10-22T12:11:52Z</time>
      </trkpt>
      <trkpt lat="46.71193" lon="5.54487">
        <ele>332</ele>
        <time>2020-10-22T12:12:03Z</time>
      </trkpt>
      <trkpt lat="46.71188" lon="5.54493">
        <ele>332</ele>
        <time>2020-10-22T12:12:09Z</time>
      </trkpt>
      <trkpt lat="46.71173" lon="5.54505">
        <ele>331</ele>
        <time>2020-10-22T12:12:22Z</time>
      </trkpt>
      <trkpt lat="46.71165" lon="5.54519">
        <ele>331</ele>
        <time>2020-10-22T12:12:31Z</time>
      </trkpt>
      <trkpt lat="46.71156" lon="5.54552">
        <ele>331</ele>
        <time>2020-10-22T12:12:52Z</time>
      </trkpt>
      <trkpt lat="46.71154" lon="5.54571">
        <ele>331</ele>
        <time>2020-10-22T12:13:02Z</time>
      </trkpt>
      <trkpt lat="46.71154" lon="5.54592">
        <ele>332</ele>
        <time>2020-10-22T12:13:18Z</time>
      </trkpt>
      <trkpt lat="46.71157" lon="5.54599">
        <ele>333</ele>
        <time>2020-10-22T12:13:24Z</time>
      </trkpt>
      <trkpt lat="46.71164" lon="5.54635">
        <ele>336</ele>
        <time>2020-10-22T12:13:50Z</time>
      </trkpt>
      <trkpt lat="46.71168" lon="5.54641">
        <ele>335</ele>
        <time>2020-10-22T12:14:12Z</time>
      </trkpt>
      <trkpt lat="46.71167" lon="5.5465">
        <ele>336</ele>
        <time>2020-10-22T12:14:17Z</time>
      </trkpt>
      <trkpt lat="46.7117" lon="5.54656">
        <ele>336</ele>
        <time>2020-10-22T12:14:25Z</time>
      </trkpt>
      <trkpt lat="46.7117" lon="5.54675">
        <ele>336</ele>
        <time>2020-10-22T12:14:42Z</time>
      </trkpt>
      <trkpt lat="46.7117" lon="5.54683">
        <ele>335</ele>
        <time>2020-10-22T12:14:54Z</time>
      </trkpt>
      <trkpt lat="46.71176" lon="5.54709">
        <ele>333</ele>
        <time>2020-10-22T12:16:23Z</time>
      </trkpt>
      <trkpt lat="46.71181" lon="5.54725">
        <ele>333</ele>
        <time>2020-10-22T12:16:31Z</time>
      </trkpt>
      <trkpt lat="46.71185" lon="5.54733">
        <ele>334</ele>
        <time>2020-10-22T12:16:36Z</time>
      </trkpt>
      <trkpt lat="46.71188" lon="5.54744">
        <ele>334</ele>
        <time>2020-10-22T12:16:45Z</time>
      </trkpt>
      <trkpt lat="46.71188" lon="5.54753">
        <ele>335</ele>
        <time>2020-10-22T12:16:53Z</time>
      </trkpt>
      <trkpt lat="46.71192" lon="5.5476">
        <ele>335</ele>
        <time>2020-10-22T12:16:58Z</time>
      </trkpt>
      <trkpt lat="46.71195" lon="5.54767">
        <ele>335</ele>
        <time>2020-10-22T12:17:03Z</time>
      </trkpt>
      <trkpt lat="46.71196" lon="5.54775">
        <ele>336</ele>
        <time>2020-10-22T12:17:09Z</time>
      </trkpt>
      <trkpt lat="46.71198" lon="5.54785">
        <ele>336</ele>
        <time>2020-10-22T12:17:14Z</time>
      </trkpt>
      <trkpt lat="46.71201" lon="5.54791">
        <ele>337</ele>
        <time>2020-10-22T12:17:18Z</time>
      </trkpt>
      <trkpt lat="46.71205" lon="5.54798">
        <ele>337</ele>
        <time>2020-10-22T12:17:22Z</time>
      </trkpt>
      <trkpt lat="46.71214" lon="5.54812">
        <ele>339</ele>
        <time>2020-10-22T12:17:33Z</time>
      </trkpt>
      <trkpt lat="46.71229" lon="5.54834">
        <ele>339</ele>
        <time>2020-10-22T12:17:54Z</time>
      </trkpt>
      <trkpt lat="46.71235" lon="5.54846">
        <ele>344</ele>
        <time>2020-10-22T12:18:06Z</time>
      </trkpt>
      <trkpt lat="46.71248" lon="5.54867">
        <ele>347</ele>
        <time>2020-10-22T12:18:24Z</time>
      </trkpt>
      <trkpt lat="46.71255" lon="5.54882">
        <ele>348</ele>
        <time>2020-10-22T12:18:36Z</time>
      </trkpt>
      <trkpt lat="46.7126" lon="5.54888">
        <ele>350</ele>
        <time>2020-10-22T12:18:44Z</time>
      </trkpt>
      <trkpt lat="46.71265" lon="5.54893">
        <ele>350</ele>
        <time>2020-10-22T12:18:49Z</time>
      </trkpt>
      <trkpt lat="46.71269" lon="5.549">
        <ele>351</ele>
        <time>2020-10-22T12:18:54Z</time>
      </trkpt>
      <trkpt lat="46.71273" lon="5.54904">
        <ele>351</ele>
        <time>2020-10-22T12:18:59Z</time>
      </trkpt>
      <trkpt lat="46.71282" lon="5.54915">
        <ele>352</ele>
        <time>2020-10-22T12:19:08Z</time>
      </trkpt>
      <trkpt lat="46.71298" lon="5.54928">
        <ele>354</ele>
        <time>2020-10-22T12:19:25Z</time>
      </trkpt>
      <trkpt lat="46.71307" lon="5.54937">
        <ele>354</ele>
        <time>2020-10-22T12:19:35Z</time>
      </trkpt>
      <trkpt lat="46.7131" lon="5.54942">
        <ele>354</ele>
        <time>2020-10-22T12:19:40Z</time>
      </trkpt>
      <trkpt lat="46.71323" lon="5.54951">
        <ele>354</ele>
        <time>2020-10-22T12:19:54Z</time>
      </trkpt>
      <trkpt lat="46.71329" lon="5.5496">
        <ele>354</ele>
        <time>2020-10-22T12:20:01Z</time>
      </trkpt>
      <trkpt lat="46.71335" lon="5.54966">
        <ele>353</ele>
        <time>2020-10-22T12:20:08Z</time>
      </trkpt>
      <trkpt lat="46.71344" lon="5.5498">
        <ele>351</ele>
        <time>2020-10-22T12:20:21Z</time>
      </trkpt>
      <trkpt lat="46.71354" lon="5.54992">
        <ele>351</ele>
        <time>2020-10-22T12:20:35Z</time>
      </trkpt>
      <trkpt lat="46.71364" lon="5.55002">
        <ele>351</ele>
        <time>2020-10-22T12:20:45Z</time>
      </trkpt>
      <trkpt lat="46.7138" lon="5.55023">
        <ele>350</ele>
        <time>2020-10-22T12:21:07Z</time>
      </trkpt>
      <trkpt lat="46.71387" lon="5.5503">
        <ele>350</ele>
        <time>2020-10-22T12:21:15Z</time>
      </trkpt>
      <trkpt lat="46.71391" lon="5.55036">
        <ele>350</ele>
        <time>2020-10-22T12:21:21Z</time>
      </trkpt>
      <trkpt lat="46.714" lon="5.55044">
        <ele>350</ele>
        <time>2020-10-22T12:21:31Z</time>
      </trkpt>
      <trkpt lat="46.71405" lon="5.55053">
        <ele>350</ele>
        <time>2020-10-22T12:21:38Z</time>
      </trkpt>
      <trkpt lat="46.71412" lon="5.55058">
        <ele>349</ele>
        <time>2020-10-22T12:21:43Z</time>
      </trkpt>
      <trkpt lat="46.71444" lon="5.55097">
        <ele>348</ele>
        <time>2020-10-22T12:22:19Z</time>
      </trkpt>
      <trkpt lat="46.71454" lon="5.55105">
        <ele>348</ele>
        <time>2020-10-22T12:22:27Z</time>
      </trkpt>
      <trkpt lat="46.71483" lon="5.55134">
        <ele>345</ele>
        <time>2020-10-22T12:22:58Z</time>
      </trkpt>
      <trkpt lat="46.71487" lon="5.5514">
        <ele>345</ele>
        <time>2020-10-22T12:23:02Z</time>
      </trkpt>
      <trkpt lat="46.71492" lon="5.55146">
        <ele>344</ele>
        <time>2020-10-22T12:23:08Z</time>
      </trkpt>
      <trkpt lat="46.71497" lon="5.55152">
        <ele>344</ele>
        <time>2020-10-22T12:23:11Z</time>
      </trkpt>
      <trkpt lat="46.71507" lon="5.55174">
        <ele>342</ele>
        <time>2020-10-22T12:23:29Z</time>
      </trkpt>
      <trkpt lat="46.71513" lon="5.5519">
        <ele>341</ele>
        <time>2020-10-22T12:23:39Z</time>
      </trkpt>
      <trkpt lat="46.71517" lon="5.55196">
        <ele>341</ele>
        <time>2020-10-22T12:23:45Z</time>
      </trkpt>
      <trkpt lat="46.71522" lon="5.55201">
        <ele>340</ele>
        <time>2020-10-22T12:23:50Z</time>
      </trkpt>
      <trkpt lat="46.71528" lon="5.55219">
        <ele>339</ele>
        <time>2020-10-22T12:24:02Z</time>
      </trkpt>
      <trkpt lat="46.7153" lon="5.55226">
        <ele>339</ele>
        <time>2020-10-22T12:24:07Z</time>
      </trkpt>
      <trkpt lat="46.71544" lon="5.55247">
        <ele>338</ele>
        <time>2020-10-22T12:24:25Z</time>
      </trkpt>
      <trkpt lat="46.71552" lon="5.55258">
        <ele>338</ele>
        <time>2020-10-22T12:24:35Z</time>
      </trkpt>
      <trkpt lat="46.71556" lon="5.55263">
        <ele>338</ele>
        <time>2020-10-22T12:24:39Z</time>
      </trkpt>
      <trkpt lat="46.71564" lon="5.55271">
        <ele>341</ele>
        <time>2020-10-22T12:24:49Z</time>
      </trkpt>
      <trkpt lat="46.71569" lon="5.55276">
        <ele>341</ele>
        <time>2020-10-22T12:24:54Z</time>
      </trkpt>
      <trkpt lat="46.71573" lon="5.55282">
        <ele>342</ele>
        <time>2020-10-22T12:24:58Z</time>
      </trkpt>
      <trkpt lat="46.71591" lon="5.55301">
        <ele>344</ele>
        <time>2020-10-22T12:25:19Z</time>
      </trkpt>
      <trkpt lat="46.71598" lon="5.55305">
        <ele>346</ele>
        <time>2020-10-22T12:25:27Z</time>
      </trkpt>
      <trkpt lat="46.71607" lon="5.55315">
        <ele>347</ele>
        <time>2020-10-22T12:25:36Z</time>
      </trkpt>
      <trkpt lat="46.71612" lon="5.5532">
        <ele>348</ele>
        <time>2020-10-22T12:25:42Z</time>
      </trkpt>
      <trkpt lat="46.71631" lon="5.55339">
        <ele>349</ele>
        <time>2020-10-22T12:26:04Z</time>
      </trkpt>
      <trkpt lat="46.71639" lon="5.55345">
        <ele>349</ele>
        <time>2020-10-22T12:26:14Z</time>
      </trkpt>
      <trkpt lat="46.71651" lon="5.55355">
        <ele>349</ele>
        <time>2020-10-22T12:26:24Z</time>
      </trkpt>
      <trkpt lat="46.71657" lon="5.55357">
        <ele>349</ele>
        <time>2020-10-22T12:26:28Z</time>
      </trkpt>
      <trkpt lat="46.71663" lon="5.55356">
        <ele>349</ele>
        <time>2020-10-22T12:26:32Z</time>
      </trkpt>
      <trkpt lat="46.71669" lon="5.55359">
        <ele>349</ele>
        <time>2020-10-22T12:26:37Z</time>
      </trkpt>
      <trkpt lat="46.71673" lon="5.55363">
        <ele>349</ele>
        <time>2020-10-22T12:26:42Z</time>
      </trkpt>
      <trkpt lat="46.71679" lon="5.55366">
        <ele>349</ele>
        <time>2020-10-22T12:26:48Z</time>
      </trkpt>
      <trkpt lat="46.71685" lon="5.55365">
        <ele>349</ele>
        <time>2020-10-22T12:26:53Z</time>
      </trkpt>
      <trkpt lat="46.71696" lon="5.55371">
        <ele>349</ele>
        <time>2020-10-22T12:27:02Z</time>
      </trkpt>
      <trkpt lat="46.71716" lon="5.55385">
        <ele>348</ele>
        <time>2020-10-22T12:27:24Z</time>
      </trkpt>
      <trkpt lat="46.71721" lon="5.55388">
        <ele>347</ele>
        <time>2020-10-22T12:27:29Z</time>
      </trkpt>
      <trkpt lat="46.71734" lon="5.55389">
        <ele>347</ele>
        <time>2020-10-22T12:27:39Z</time>
      </trkpt>
      <trkpt lat="46.71742" lon="5.55389">
        <ele>346</ele>
        <time>2020-10-22T12:27:48Z</time>
      </trkpt>
      <trkpt lat="46.71779" lon="5.55397">
        <ele>344</ele>
        <time>2020-10-22T12:28:19Z</time>
      </trkpt>
      <trkpt lat="46.71794" lon="5.55409">
        <ele>345</ele>
        <time>2020-10-22T12:28:35Z</time>
      </trkpt>
      <trkpt lat="46.71806" lon="5.55415">
        <ele>344</ele>
        <time>2020-10-22T12:28:45Z</time>
      </trkpt>
      <trkpt lat="46.71823" lon="5.55424">
        <ele>344</ele>
        <time>2020-10-22T12:28:59Z</time>
      </trkpt>
      <trkpt lat="46.71829" lon="5.55423">
        <ele>344</ele>
        <time>2020-10-22T12:29:03Z</time>
      </trkpt>
      <trkpt lat="46.71834" lon="5.55424">
        <ele>345</ele>
        <time>2020-10-22T12:29:07Z</time>
      </trkpt>
      <trkpt lat="46.71853" lon="5.55437">
        <ele>346</ele>
        <time>2020-10-22T12:29:27Z</time>
      </trkpt>
      <trkpt lat="46.71859" lon="5.55437">
        <ele>346</ele>
        <time>2020-10-22T12:29:32Z</time>
      </trkpt>
      <trkpt lat="46.71867" lon="5.55438">
        <ele>346</ele>
        <time>2020-10-22T12:29:38Z</time>
      </trkpt>
      <trkpt lat="46.71874" lon="5.5544">
        <ele>346</ele>
        <time>2020-10-22T12:29:43Z</time>
      </trkpt>
      <trkpt lat="46.71882" lon="5.55438">
        <ele>347</ele>
        <time>2020-10-22T12:29:51Z</time>
      </trkpt>
      <trkpt lat="46.71889" lon="5.5544">
        <ele>347</ele>
        <time>2020-10-22T12:29:56Z</time>
      </trkpt>
      <trkpt lat="46.71894" lon="5.55438">
        <ele>347</ele>
        <time>2020-10-22T12:30:01Z</time>
      </trkpt>
      <trkpt lat="46.71899" lon="5.55433">
        <ele>347</ele>
        <time>2020-10-22T12:30:06Z</time>
      </trkpt>
      <trkpt lat="46.71905" lon="5.55426">
        <ele>347</ele>
        <time>2020-10-22T12:30:21Z</time>
      </trkpt>
      <trkpt lat="46.71925" lon="5.55418">
        <ele>346</ele>
        <time>2020-10-22T12:30:59Z</time>
      </trkpt>
      <trkpt lat="46.71932" lon="5.55415">
        <ele>345</ele>
        <time>2020-10-22T12:31:06Z</time>
      </trkpt>
      <trkpt lat="46.71958" lon="5.55419">
        <ele>343</ele>
        <time>2020-10-22T12:31:39Z</time>
      </trkpt>
      <trkpt lat="46.71966" lon="5.55423">
        <ele>343</ele>
        <time>2020-10-22T12:31:46Z</time>
      </trkpt>
      <trkpt lat="46.71995" lon="5.55441">
        <ele>341</ele>
        <time>2020-10-22T12:32:05Z</time>
      </trkpt>
      <trkpt lat="46.72002" lon="5.55441">
        <ele>340</ele>
        <time>2020-10-22T12:32:13Z</time>
      </trkpt>
      <trkpt lat="46.72005" lon="5.55444">
        <ele>339</ele>
        <time>2020-10-22T12:32:16Z</time>
      </trkpt>
      <trkpt lat="46.72012" lon="5.55444">
        <ele>339</ele>
        <time>2020-10-22T12:32:23Z</time>
      </trkpt>
      <trkpt lat="46.72024" lon="5.55444">
        <ele>339</ele>
        <time>2020-10-22T12:32:34Z</time>
      </trkpt>
      <trkpt lat="46.72031" lon="5.55449">
        <ele>338</ele>
        <time>2020-10-22T12:32:41Z</time>
      </trkpt>
      <trkpt lat="46.72046" lon="5.55449">
        <ele>337</ele>
        <time>2020-10-22T12:32:54Z</time>
      </trkpt>
      <trkpt lat="46.72057" lon="5.55448">
        <ele>336</ele>
        <time>2020-10-22T12:33:05Z</time>
      </trkpt>
      <trkpt lat="46.72073" lon="5.55451">
        <ele>337</ele>
        <time>2020-10-22T12:33:18Z</time>
      </trkpt>
      <trkpt lat="46.72085" lon="5.55449">
        <ele>335</ele>
        <time>2020-10-22T12:33:27Z</time>
      </trkpt>
      <trkpt lat="46.72091" lon="5.55451">
        <ele>335</ele>
        <time>2020-10-22T12:33:33Z</time>
      </trkpt>
      <trkpt lat="46.72122" lon="5.55447">
        <ele>333</ele>
        <time>2020-10-22T12:33:59Z</time>
      </trkpt>
      <trkpt lat="46.72162" lon="5.55451">
        <ele>330</ele>
        <time>2020-10-22T12:34:32Z</time>
      </trkpt>
      <trkpt lat="46.72173" lon="5.55452">
        <ele>329</ele>
        <time>2020-10-22T12:34:41Z</time>
      </trkpt>
      <trkpt lat="46.72184" lon="5.55449">
        <ele>328</ele>
        <time>2020-10-22T12:34:49Z</time>
      </trkpt>
      <trkpt lat="46.722" lon="5.5545">
        <ele>326</ele>
        <time>2020-10-22T12:35:04Z</time>
      </trkpt>
      <trkpt lat="46.72217" lon="5.55446">
        <ele>326</ele>
        <time>2020-10-22T12:35:17Z</time>
      </trkpt>
      <trkpt lat="46.72234" lon="5.5545">
        <ele>324</ele>
        <time>2020-10-22T12:35:32Z</time>
      </trkpt>
      <trkpt lat="46.72239" lon="5.55446">
        <ele>324</ele>
        <time>2020-10-22T12:35:37Z</time>
      </trkpt>
      <trkpt lat="46.72257" lon="5.55446">
        <ele>322</ele>
        <time>2020-10-22T12:35:53Z</time>
      </trkpt>
      <trkpt lat="46.72266" lon="5.55443">
        <ele>321</ele>
        <time>2020-10-22T12:36:00Z</time>
      </trkpt>
      <trkpt lat="46.72272" lon="5.55443">
        <ele>320</ele>
        <time>2020-10-22T12:36:05Z</time>
      </trkpt>
      <trkpt lat="46.72277" lon="5.55441">
        <ele>319</ele>
        <time>2020-10-22T12:36:10Z</time>
      </trkpt>
      <trkpt lat="46.72285" lon="5.55441">
        <ele>319</ele>
        <time>2020-10-22T12:36:18Z</time>
      </trkpt>
      <trkpt lat="46.72292" lon="5.55439">
        <ele>319</ele>
        <time>2020-10-22T12:36:22Z</time>
      </trkpt>
      <trkpt lat="46.72301" lon="5.55439">
        <ele>319</ele>
        <time>2020-10-22T12:36:32Z</time>
      </trkpt>
      <trkpt lat="46.72306" lon="5.55439">
        <ele>318</ele>
        <time>2020-10-22T12:36:36Z</time>
      </trkpt>
      <trkpt lat="46.72312" lon="5.55439">
        <ele>318</ele>
        <time>2020-10-22T12:36:41Z</time>
      </trkpt>
      <trkpt lat="46.72319" lon="5.55442">
        <ele>318</ele>
        <time>2020-10-22T12:36:48Z</time>
      </trkpt>
      <trkpt lat="46.72324" lon="5.55442">
        <ele>317</ele>
        <time>2020-10-22T12:36:53Z</time>
      </trkpt>
      <trkpt lat="46.7233" lon="5.55443">
        <ele>317</ele>
        <time>2020-10-22T12:36:58Z</time>
      </trkpt>
      <trkpt lat="46.72336" lon="5.55443">
        <ele>317</ele>
        <time>2020-10-22T12:37:03Z</time>
      </trkpt>
      <trkpt lat="46.72348" lon="5.55447">
        <ele>317</ele>
        <time>2020-10-22T12:37:14Z</time>
      </trkpt>
      <trkpt lat="46.72354" lon="5.55448">
        <ele>316</ele>
        <time>2020-10-22T12:37:18Z</time>
      </trkpt>
      <trkpt lat="46.7236" lon="5.55448">
        <ele>316</ele>
        <time>2020-10-22T12:37:23Z</time>
      </trkpt>
      <trkpt lat="46.72366" lon="5.55446">
        <ele>316</ele>
        <time>2020-10-22T12:37:28Z</time>
      </trkpt>
      <trkpt lat="46.72372" lon="5.55448">
        <ele>315</ele>
        <time>2020-10-22T12:37:34Z</time>
      </trkpt>
      <trkpt lat="46.72384" lon="5.55451">
        <ele>313</ele>
        <time>2020-10-22T12:37:44Z</time>
      </trkpt>
      <trkpt lat="46.72391" lon="5.55452">
        <ele>314</ele>
        <time>2020-10-22T12:37:50Z</time>
      </trkpt>
      <trkpt lat="46.72398" lon="5.55452">
        <ele>315</ele>
        <time>2020-10-22T12:37:54Z</time>
      </trkpt>
      <trkpt lat="46.72405" lon="5.55452">
        <ele>314</ele>
        <time>2020-10-22T12:38:01Z</time>
      </trkpt>
      <trkpt lat="46.72419" lon="5.55458">
        <ele>313</ele>
        <time>2020-10-22T12:38:14Z</time>
      </trkpt>
      <trkpt lat="46.72425" lon="5.55459">
        <ele>313</ele>
        <time>2020-10-22T12:38:17Z</time>
      </trkpt>
      <trkpt lat="46.72431" lon="5.5546">
        <ele>314</ele>
        <time>2020-10-22T12:38:22Z</time>
      </trkpt>
      <trkpt lat="46.72437" lon="5.55462">
        <ele>313</ele>
        <time>2020-10-22T12:38:26Z</time>
      </trkpt>
      <trkpt lat="46.72443" lon="5.55461">
        <ele>313</ele>
        <time>2020-10-22T12:38:31Z</time>
      </trkpt>
      <trkpt lat="46.72449" lon="5.55461">
        <ele>311</ele>
        <time>2020-10-22T12:38:37Z</time>
      </trkpt>
      <trkpt lat="46.72456" lon="5.55462">
        <ele>311</ele>
        <time>2020-10-22T12:38:43Z</time>
      </trkpt>
      <trkpt lat="46.72462" lon="5.55462">
        <ele>312</ele>
        <time>2020-10-22T12:38:48Z</time>
      </trkpt>
      <trkpt lat="46.72467" lon="5.55466">
        <ele>311</ele>
        <time>2020-10-22T12:38:53Z</time>
      </trkpt>
      <trkpt lat="46.72501" lon="5.55475">
        <ele>307</ele>
        <time>2020-10-22T12:39:24Z</time>
      </trkpt>
      <trkpt lat="46.72507" lon="5.55477">
        <ele>307</ele>
        <time>2020-10-22T12:39:29Z</time>
      </trkpt>
      <trkpt lat="46.72513" lon="5.55482">
        <ele>307</ele>
        <time>2020-10-22T12:39:32Z</time>
      </trkpt>
      <trkpt lat="46.72517" lon="5.55482">
        <ele>307</ele>
        <time>2020-10-22T12:39:35Z</time>
      </trkpt>
      <trkpt lat="46.72527" lon="5.55482">
        <ele>306</ele>
        <time>2020-10-22T12:39:44Z</time>
      </trkpt>
      <trkpt lat="46.7254" lon="5.55487">
        <ele>305</ele>
        <time>2020-10-22T12:39:55Z</time>
      </trkpt>
      <trkpt lat="46.72559" lon="5.55492">
        <ele>305</ele>
        <time>2020-10-22T12:40:11Z</time>
      </trkpt>
      <trkpt lat="46.72571" lon="5.55494">
        <ele>303</ele>
        <time>2020-10-22T12:40:21Z</time>
      </trkpt>
      <trkpt lat="46.72576" lon="5.55497">
        <ele>304</ele>
        <time>2020-10-22T12:40:26Z</time>
      </trkpt>
      <trkpt lat="46.72589" lon="5.55499">
        <ele>303</ele>
        <time>2020-10-22T12:40:37Z</time>
      </trkpt>
      <trkpt lat="46.72601" lon="5.55499">
        <ele>303</ele>
        <time>2020-10-22T12:40:45Z</time>
      </trkpt>
      <trkpt lat="46.72607" lon="5.555">
        <ele>304</ele>
        <time>2020-10-22T12:40:51Z</time>
      </trkpt>
      <trkpt lat="46.72612" lon="5.55504">
        <ele>304</ele>
        <time>2020-10-22T12:40:55Z</time>
      </trkpt>
      <trkpt lat="46.72629" lon="5.55505">
        <ele>303</ele>
        <time>2020-10-22T12:41:08Z</time>
      </trkpt>
      <trkpt lat="46.72634" lon="5.55508">
        <ele>302</ele>
        <time>2020-10-22T12:41:13Z</time>
      </trkpt>
      <trkpt lat="46.72653" lon="5.55509">
        <ele>299</ele>
        <time>2020-10-22T12:41:30Z</time>
      </trkpt>
      <trkpt lat="46.72667" lon="5.55509">
        <ele>304</ele>
        <time>2020-10-22T12:41:41Z</time>
      </trkpt>
      <trkpt lat="46.72673" lon="5.55509">
        <ele>303</ele>
        <time>2020-10-22T12:41:46Z</time>
      </trkpt>
      <trkpt lat="46.72679" lon="5.5551">
        <ele>302</ele>
        <time>2020-10-22T12:41:50Z</time>
      </trkpt>
      <trkpt lat="46.72685" lon="5.55508">
        <ele>301</ele>
        <time>2020-10-22T12:41:56Z</time>
      </trkpt>
      <trkpt lat="46.72691" lon="5.55508">
        <ele>303</ele>
        <time>2020-10-22T12:42:00Z</time>
      </trkpt>
      <trkpt lat="46.72711" lon="5.5551">
        <ele>300</ele>
        <time>2020-10-22T12:42:16Z</time>
      </trkpt>
      <trkpt lat="46.72717" lon="5.5551">
        <ele>300</ele>
        <time>2020-10-22T12:42:21Z</time>
      </trkpt>
      <trkpt lat="46.72722" lon="5.55511">
        <ele>298</ele>
        <time>2020-10-22T12:42:26Z</time>
      </trkpt>
      <trkpt lat="46.72735" lon="5.55509">
        <ele>301</ele>
        <time>2020-10-22T12:42:36Z</time>
      </trkpt>
      <trkpt lat="46.72741" lon="5.55508">
        <ele>300</ele>
        <time>2020-10-22T12:42:40Z</time>
      </trkpt>
      <trkpt lat="46.72746" lon="5.55512">
        <ele>300</ele>
        <time>2020-10-22T12:42:44Z</time>
      </trkpt>
      <trkpt lat="46.72752" lon="5.55511">
        <ele>300</ele>
        <time>2020-10-22T12:42:49Z</time>
      </trkpt>
      <trkpt lat="46.72767" lon="5.55509">
        <ele>299</ele>
        <time>2020-10-22T12:43:01Z</time>
      </trkpt>
      <trkpt lat="46.72781" lon="5.55509">
        <ele>299</ele>
        <time>2020-10-22T12:43:12Z</time>
      </trkpt>
      <trkpt lat="46.72786" lon="5.5551">
        <ele>300</ele>
        <time>2020-10-22T12:43:16Z</time>
      </trkpt>
      <trkpt lat="46.72798" lon="5.55516">
        <ele>301</ele>
        <time>2020-10-22T12:43:27Z</time>
      </trkpt>
      <trkpt lat="46.72804" lon="5.55514">
        <ele>301</ele>
        <time>2020-10-22T12:43:32Z</time>
      </trkpt>
      <trkpt lat="46.7281" lon="5.55513">
        <ele>299</ele>
        <time>2020-10-22T12:43:36Z</time>
      </trkpt>
      <trkpt lat="46.72816" lon="5.55511">
        <ele>299</ele>
        <time>2020-10-22T12:43:41Z</time>
      </trkpt>
      <trkpt lat="46.72822" lon="5.55508">
        <ele>299</ele>
        <time>2020-10-22T12:43:46Z</time>
      </trkpt>
      <trkpt lat="46.72833" lon="5.55502">
        <ele>299</ele>
        <time>2020-10-22T12:43:56Z</time>
      </trkpt>
      <trkpt lat="46.72844" lon="5.55496">
        <ele>300</ele>
        <time>2020-10-22T12:44:05Z</time>
      </trkpt>
      <trkpt lat="46.72849" lon="5.55496">
        <ele>300</ele>
        <time>2020-10-22T12:44:09Z</time>
      </trkpt>
      <trkpt lat="46.72856" lon="5.55496">
        <ele>298</ele>
        <time>2020-10-22T12:44:17Z</time>
      </trkpt>
      <trkpt lat="46.72868" lon="5.55499">
        <ele>298</ele>
        <time>2020-10-22T12:44:27Z</time>
      </trkpt>
      <trkpt lat="46.72874" lon="5.55501">
        <ele>299</ele>
        <time>2020-10-22T12:44:32Z</time>
      </trkpt>
      <trkpt lat="46.72879" lon="5.55503">
        <ele>299</ele>
        <time>2020-10-22T12:44:36Z</time>
      </trkpt>
      <trkpt lat="46.72885" lon="5.55503">
        <ele>298</ele>
        <time>2020-10-22T12:44:41Z</time>
      </trkpt>
      <trkpt lat="46.72892" lon="5.55499">
        <ele>298</ele>
        <time>2020-10-22T12:44:44Z</time>
      </trkpt>
      <trkpt lat="46.72898" lon="5.55499">
        <ele>300</ele>
        <time>2020-10-22T12:44:49Z</time>
      </trkpt>
      <trkpt lat="46.72905" lon="5.555">
        <ele>299</ele>
        <time>2020-10-22T12:44:55Z</time>
      </trkpt>
      <trkpt lat="46.72913" lon="5.55499">
        <ele>300</ele>
        <time>2020-10-22T12:45:02Z</time>
      </trkpt>
      <trkpt lat="46.72939" lon="5.55494">
        <ele>299</ele>
        <time>2020-10-22T12:45:23Z</time>
      </trkpt>
      <trkpt lat="46.72953" lon="5.55494">
        <ele>297</ele>
        <time>2020-10-22T12:45:35Z</time>
      </trkpt>
      <trkpt lat="46.72972" lon="5.55497">
        <ele>298</ele>
        <time>2020-10-22T12:45:53Z</time>
      </trkpt>
      <trkpt lat="46.72988" lon="5.55508">
        <ele>297</ele>
        <time>2020-10-22T12:46:08Z</time>
      </trkpt>
      <trkpt lat="46.72993" lon="5.55509">
        <ele>296</ele>
        <time>2020-10-22T12:46:12Z</time>
      </trkpt>
      <trkpt lat="46.73" lon="5.55509">
        <ele>296</ele>
        <time>2020-10-22T12:46:18Z</time>
      </trkpt>
      <trkpt lat="46.73005" lon="5.55511">
        <ele>297</ele>
        <time>2020-10-22T12:46:23Z</time>
      </trkpt>
      <trkpt lat="46.73011" lon="5.55513">
        <ele>298</ele>
        <time>2020-10-22T12:46:28Z</time>
      </trkpt>
      <trkpt lat="46.73017" lon="5.5551">
        <ele>296</ele>
        <time>2020-10-22T12:46:35Z</time>
      </trkpt>
      <trkpt lat="46.73025" lon="5.55514">
        <ele>295</ele>
        <time>2020-10-22T12:46:45Z</time>
      </trkpt>
      <trkpt lat="46.7303" lon="5.55514">
        <ele>295</ele>
        <time>2020-10-22T12:46:50Z</time>
      </trkpt>
      <trkpt lat="46.73037" lon="5.55514">
        <ele>296</ele>
        <time>2020-10-22T12:46:55Z</time>
      </trkpt>
      <trkpt lat="46.73043" lon="5.55515">
        <ele>295</ele>
        <time>2020-10-22T12:47:00Z</time>
      </trkpt>
      <trkpt lat="46.73052" lon="5.55517">
        <ele>296</ele>
        <time>2020-10-22T12:47:12Z</time>
      </trkpt>
      <trkpt lat="46.73063" lon="5.55522">
        <ele>296</ele>
        <time>2020-10-22T12:47:22Z</time>
      </trkpt>
      <trkpt lat="46.73069" lon="5.55518">
        <ele>296</ele>
        <time>2020-10-22T12:47:27Z</time>
      </trkpt>
      <trkpt lat="46.7308" lon="5.55512">
        <ele>297</ele>
        <time>2020-10-22T12:47:36Z</time>
      </trkpt>
      <trkpt lat="46.73084" lon="5.55507">
        <ele>297</ele>
        <time>2020-10-22T12:47:41Z</time>
      </trkpt>
      <trkpt lat="46.7309" lon="5.55507">
        <ele>297</ele>
        <time>2020-10-22T12:47:46Z</time>
      </trkpt>
      <trkpt lat="46.73095" lon="5.55503">
        <ele>297</ele>
        <time>2020-10-22T12:47:57Z</time>
      </trkpt>
    </trkseg>
  </trk>
</gpx>